PWSweather.com
Personal Weather Stations
Station Observations
KCTGROTO5
Groton, CT 06340

Groton, CT 06340

Lat: 41.355721, Lon: -72.084428

Elevation: 0

Station Type: acurite 5in1

High Low Average
Temperature 17.2°F-8.2°C 2.5°F-16.4°C 8.8°F-12.9°C
Dew Point 6.5°F-14.2°C -4.1°F-20.1°C -0.4°F-18.0°C
Winds 23.0 mph 37.0 kmh Calm Calm 8.0 mph W12.9 kmh W
Wind Gusts 23.0 mph37.0 kmh 1.0 mph1.6 kmh 11.0 mph17.7 kmh
Humidity 91% 45% 66%
Pressure 30.35 in1027.8 mb 30.26 in1024.7 mb -
Precipitation 0.00 in0.0 mm - -
Hour Temp Dew Point Humidity Winds Wind Gusts Pressure Precip Precip Rate Daily Precip Total
12:00 AM 5.9°F-14.5°C -0.3°F-17.9°C 75% 5.0 mph WNW8.0 kmh WNW 7.0 mph11.3 kmh 30.27 in1025.1 mb 0.00 in0.0 mm 0.00 in0.0 mm 0.00 in0.0 mm
12:01 AM 5.9°F-14.5°C -0.3°F-17.9°C 75% 5.0 mph NW8.0 kmh NW 7.0 mph11.3 kmh 30.26 in1024.7 mb 0.00 in0.0 mm 0.00 in0.0 mm 0.00 in0.0 mm
12:02 AM 5.9°F-14.5°C -0.3°F-17.9°C 75% 7.0 mph WNW11.3 kmh WNW 7.0 mph11.3 kmh 30.27 in1025.1 mb 0.00 in0.0 mm 0.00 in0.0 mm 0.00 in0.0 mm
12:03 AM 5.6°F-14.7°C -0.6°F-18.1°C 75% 6.0 mph WNW9.7 kmh WNW 7.0 mph11.3 kmh 30.27 in1025.1 mb 0.00 in0.0 mm 0.00 in0.0 mm 0.00 in0.0 mm
12:04 AM 5.6°F-14.7°C -0.9°F-18.3°C 74% 5.0 mph NW8.0 kmh NW 8.0 mph12.9 kmh 30.27 in1025.1 mb 0.00 in0.0 mm 0.00 in0.0 mm 0.00 in0.0 mm
12:05 AM 5.5°F-14.7°C -1.2°F-18.4°C 73% 5.0 mph WNW8.0 kmh WNW 8.0 mph12.9 kmh 30.27 in1025.1 mb 0.00 in0.0 mm 0.00 in0.0 mm 0.00 in0.0 mm
12:06 AM 5.5°F-14.7°C -1.2°F-18.4°C 73% 5.0 mph NW8.0 kmh NW 8.0 mph12.9 kmh 30.27 in1025.1 mb 0.00 in0.0 mm 0.00 in0.0 mm 0.00 in0.0 mm
12:07 AM 5.5°F-14.7°C -1.2°F-18.4°C 73% 5.0 mph WNW8.0 kmh WNW 8.0 mph12.9 kmh 30.27 in1025.1 mb 0.00 in0.0 mm 0.00 in0.0 mm 0.00 in0.0 mm
12:08 AM 5.6°F-14.7°C -0.6°F-18.1°C 75% 5.0 mph NW8.0 kmh NW 8.0 mph12.9 kmh 30.27 in1025.1 mb 0.00 in0.0 mm 0.00 in0.0 mm 0.00 in0.0 mm
12:09 AM 5.6°F-14.7°C 0.2°F-17.7°C 78% 7.0 mph NW11.3 kmh NW 8.0 mph12.9 kmh 30.27 in1025.1 mb 0.00 in0.0 mm 0.00 in0.0 mm 0.00 in0.0 mm
12:10 AM 5.6°F-14.7°C -0.3°F-17.9°C 76% 5.0 mph NNW8.0 kmh NNW 8.0 mph12.9 kmh 30.27 in1025.1 mb 0.00 in0.0 mm 0.00 in0.0 mm 0.00 in0.0 mm
12:11 AM 5.6°F-14.7°C -0.3°F-17.9°C 76% 4.0 mph NNW6.4 kmh NNW 8.0 mph12.9 kmh 30.26 in1024.7 mb 0.00 in0.0 mm 0.00 in0.0 mm 0.00 in0.0 mm
12:12 AM 5.6°F-14.7°C 0.2°F-17.7°C 78% 7.0 mph NNW11.3 kmh NNW 8.0 mph12.9 kmh 30.26 in1024.7 mb 0.00 in0.0 mm 0.00 in0.0 mm 0.00 in0.0 mm
12:13 AM 5.6°F-14.7°C -0.6°F-18.1°C 75% 4.0 mph NW6.4 kmh NW 8.0 mph12.9 kmh 30.27 in1025.1 mb 0.00 in0.0 mm 0.00 in0.0 mm 0.00 in0.0 mm
12:14 AM 5.5°F-14.7°C -1.0°F-18.3°C 74% 5.0 mph NW8.0 kmh NW 7.0 mph11.3 kmh 30.27 in1025.1 mb 0.00 in0.0 mm 0.00 in0.0 mm 0.00 in0.0 mm
12:15 AM 5.5°F-14.7°C -1.0°F-18.3°C 74% 4.0 mph NW6.4 kmh NW 7.0 mph11.3 kmh 30.27 in1025.1 mb 0.00 in0.0 mm 0.00 in0.0 mm 0.00 in0.0 mm
12:16 AM 5.5°F-14.7°C -1.0°F-18.3°C 74% 5.0 mph WNW8.0 kmh WNW 7.0 mph11.3 kmh 30.26 in1024.7 mb 0.00 in0.0 mm 0.00 in0.0 mm 0.00 in0.0 mm
12:17 AM 5.4°F-14.8°C -1.1°F-18.4°C 74% 5.0 mph NW8.0 kmh NW 7.0 mph11.3 kmh 30.27 in1025.1 mb 0.00 in0.0 mm 0.00 in0.0 mm 0.00 in0.0 mm
12:18 AM 5.4°F-14.8°C -0.8°F-18.2°C 75% 6.0 mph NW9.7 kmh NW 7.0 mph11.3 kmh 30.27 in1025.1 mb 0.00 in0.0 mm 0.00 in0.0 mm 0.00 in0.0 mm
12:19 AM 5.4°F-14.8°C -0.8°F-18.2°C 75% 4.0 mph WNW6.4 kmh WNW 7.0 mph11.3 kmh 30.27 in1025.1 mb 0.00 in0.0 mm 0.00 in0.0 mm 0.00 in0.0 mm
12:20 AM 5.5°F-14.7°C -0.7°F-18.2°C 75% 6.0 mph NW9.7 kmh NW 7.0 mph11.3 kmh 30.27 in1025.1 mb 0.00 in0.0 mm 0.00 in0.0 mm 0.00 in0.0 mm
12:21 AM 5.5°F-14.7°C -0.7°F-18.2°C 75% 4.0 mph WNW6.4 kmh WNW 7.0 mph11.3 kmh 30.27 in1025.1 mb 0.00 in0.0 mm 0.00 in0.0 mm 0.00 in0.0 mm
12:22 AM 5.4°F-14.8°C -0.8°F-18.2°C 75% 6.0 mph NW9.7 kmh NW 7.0 mph11.3 kmh 30.27 in1025.1 mb 0.00 in0.0 mm 0.00 in0.0 mm 0.00 in0.0 mm
12:23 AM 5.5°F-14.7°C -0.7°F-18.2°C 75% 5.0 mph WNW8.0 kmh WNW 7.0 mph11.3 kmh 30.27 in1025.1 mb 0.00 in0.0 mm 0.00 in0.0 mm 0.00 in0.0 mm
12:24 AM 5.5°F-14.7°C -0.4°F-18.0°C 76% 4.0 mph NW6.4 kmh NW 7.0 mph11.3 kmh 30.27 in1025.1 mb 0.00 in0.0 mm 0.00 in0.0 mm 0.00 in0.0 mm
12:25 AM 5.6°F-14.7°C 0.2°F-17.7°C 78% 5.0 mph WNW8.0 kmh WNW 7.0 mph11.3 kmh 30.26 in1024.7 mb 0.00 in0.0 mm 0.00 in0.0 mm 0.00 in0.0 mm
12:26 AM 5.6°F-14.7°C 0.2°F-17.7°C 78% 4.0 mph WNW6.4 kmh WNW 6.0 mph9.7 kmh 30.26 in1024.7 mb 0.00 in0.0 mm 0.00 in0.0 mm 0.00 in0.0 mm
12:27 AM 5.6°F-14.7°C -0.3°F-17.9°C 76% 4.0 mph NNW6.4 kmh NNW 6.0 mph9.7 kmh 30.27 in1025.1 mb 0.00 in0.0 mm 0.00 in0.0 mm 0.00 in0.0 mm
12:28 AM 5.6°F-14.7°C -0.3°F-17.9°C 76% 6.0 mph WNW9.7 kmh WNW 6.0 mph9.7 kmh 30.27 in1025.1 mb 0.00 in0.0 mm 0.00 in0.0 mm 0.00 in0.0 mm
12:29 AM 5.5°F-14.7°C -0.7°F-18.2°C 75% 8.0 mph NW12.9 kmh NW 8.0 mph12.9 kmh 30.27 in1025.1 mb 0.00 in0.0 mm 0.00 in0.0 mm 0.00 in0.0 mm
12:30 AM 5.5°F-14.7°C -0.7°F-18.2°C 75% 6.0 mph WNW9.7 kmh WNW 8.0 mph12.9 kmh 30.27 in1025.1 mb 0.00 in0.0 mm 0.00 in0.0 mm 0.00 in0.0 mm
12:31 AM 5.4°F-14.8°C -0.8°F-18.2°C 75% 7.0 mph WNW11.3 kmh WNW 8.0 mph12.9 kmh 30.26 in1024.7 mb 0.00 in0.0 mm 0.00 in0.0 mm 0.00 in0.0 mm
12:32 AM 5.4°F-14.8°C -1.1°F-18.4°C 74% 7.0 mph WNW11.3 kmh WNW 8.0 mph12.9 kmh 30.26 in1024.7 mb 0.00 in0.0 mm 0.00 in0.0 mm 0.00 in0.0 mm
12:33 AM 5.4°F-14.8°C -1.1°F-18.4°C 74% 8.0 mph WNW12.9 kmh WNW 8.0 mph12.9 kmh 30.27 in1025.1 mb 0.00 in0.0 mm 0.00 in0.0 mm 0.00 in0.0 mm
12:34 AM 5.4°F-14.8°C -0.8°F-18.2°C 75% 7.0 mph WNW11.3 kmh WNW 8.0 mph12.9 kmh 30.26 in1024.7 mb 0.00 in0.0 mm 0.00 in0.0 mm 0.00 in0.0 mm
12:35 AM 5.4°F-14.8°C -1.1°F-18.4°C 74% 7.0 mph WNW11.3 kmh WNW 8.0 mph12.9 kmh 30.26 in1024.7 mb 0.00 in0.0 mm 0.00 in0.0 mm 0.00 in0.0 mm
12:36 AM 5.5°F-14.7°C -0.7°F-18.2°C 75% 7.0 mph WNW11.3 kmh WNW 8.0 mph12.9 kmh 30.26 in1024.7 mb 0.00 in0.0 mm 0.00 in0.0 mm 0.00 in0.0 mm
12:37 AM 5.5°F-14.7°C -0.7°F-18.2°C 75% 7.0 mph W11.3 kmh W 8.0 mph12.9 kmh 30.27 in1025.1 mb 0.00 in0.0 mm 0.00 in0.0 mm 0.00 in0.0 mm
12:38 AM 5.5°F-14.7°C -0.7°F-18.2°C 75% 8.0 mph WNW12.9 kmh WNW 8.0 mph12.9 kmh 30.26 in1024.7 mb 0.00 in0.0 mm 0.00 in0.0 mm 0.00 in0.0 mm
12:39 AM 5.6°F-14.7°C -0.3°F-17.9°C 76% 7.0 mph NW11.3 kmh NW 8.0 mph12.9 kmh 30.26 in1024.7 mb 0.00 in0.0 mm 0.00 in0.0 mm 0.00 in0.0 mm
12:40 AM 5.6°F-14.7°C -0.3°F-17.9°C 76% 9.0 mph NW14.5 kmh NW 9.0 mph14.5 kmh 30.26 in1024.7 mb 0.00 in0.0 mm 0.00 in0.0 mm 0.00 in0.0 mm
12:41 AM 5.9°F-14.5°C 0.0°F-17.8°C 76% 7.0 mph WNW11.3 kmh WNW 9.0 mph14.5 kmh 30.27 in1025.1 mb 0.00 in0.0 mm 0.00 in0.0 mm 0.00 in0.0 mm
12:42 AM 5.9°F-14.5°C -0.3°F-17.9°C 75% 8.0 mph WNW12.9 kmh WNW 9.0 mph14.5 kmh 30.26 in1024.7 mb 0.00 in0.0 mm 0.00 in0.0 mm 0.00 in0.0 mm
12:43 AM 5.9°F-14.5°C -0.3°F-17.9°C 75% 9.0 mph NW14.5 kmh NW 9.0 mph14.5 kmh 30.27 in1025.1 mb 0.00 in0.0 mm 0.00 in0.0 mm 0.00 in0.0 mm
12:44 AM 5.9°F-14.5°C -0.3°F-17.9°C 75% 8.0 mph WNW12.9 kmh WNW 9.0 mph14.5 kmh 30.27 in1025.1 mb 0.00 in0.0 mm 0.00 in0.0 mm 0.00 in0.0 mm
12:45 AM 5.9°F-14.5°C -0.3°F-17.9°C 75% 8.0 mph WNW12.9 kmh WNW 9.0 mph14.5 kmh 30.27 in1025.1 mb 0.00 in0.0 mm 0.00 in0.0 mm 0.00 in0.0 mm
12:46 AM 5.9°F-14.5°C -0.3°F-17.9°C 75% 6.0 mph NW9.7 kmh NW 9.0 mph14.5 kmh 30.26 in1024.7 mb 0.00 in0.0 mm 0.00 in0.0 mm 0.00 in0.0 mm
12:47 AM 5.9°F-14.5°C 0.0°F-17.8°C 76% 7.0 mph NW11.3 kmh NW 9.0 mph14.5 kmh 30.27 in1025.1 mb 0.00 in0.0 mm 0.00 in0.0 mm 0.00 in0.0 mm
12:48 AM 5.9°F-14.5°C -0.3°F-17.9°C 75% 8.0 mph WNW12.9 kmh WNW 9.0 mph14.5 kmh 30.26 in1024.7 mb 0.00 in0.0 mm 0.00 in0.0 mm 0.00 in0.0 mm
12:49 AM 5.6°F-14.7°C -0.9°F-18.3°C 74% 7.0 mph WNW11.3 kmh WNW 9.0 mph14.5 kmh 30.27 in1025.1 mb 0.00 in0.0 mm 0.00 in0.0 mm 0.00 in0.0 mm
12:50 AM 5.6°F-14.7°C -0.6°F-18.1°C 75% 7.0 mph W11.3 kmh W 9.0 mph14.5 kmh 30.27 in1025.1 mb 0.00 in0.0 mm 0.00 in0.0 mm 0.00 in0.0 mm
12:51 AM 5.9°F-14.5°C 0.0°F-17.8°C 76% 6.0 mph WNW9.7 kmh WNW 9.0 mph14.5 kmh 30.27 in1025.1 mb 0.00 in0.0 mm 0.00 in0.0 mm 0.00 in0.0 mm
12:52 AM 5.9°F-14.5°C 0.5°F-17.5°C 78% 7.0 mph WNW11.3 kmh WNW 9.0 mph14.5 kmh 30.27 in1025.1 mb 0.00 in0.0 mm 0.00 in0.0 mm 0.00 in0.0 mm
12:53 AM 5.9°F-14.5°C 0.0°F-17.8°C 76% 6.0 mph W9.7 kmh W 8.0 mph12.9 kmh 30.27 in1025.1 mb 0.00 in0.0 mm 0.00 in0.0 mm 0.00 in0.0 mm
12:54 AM 5.9°F-14.5°C -0.3°F-17.9°C 75% 6.0 mph W9.7 kmh W 8.0 mph12.9 kmh 30.27 in1025.1 mb 0.00 in0.0 mm 0.00 in0.0 mm 0.00 in0.0 mm
12:55 AM 5.5°F-14.7°C -0.7°F-18.2°C 75% 6.0 mph WNW9.7 kmh WNW 8.0 mph12.9 kmh 30.27 in1025.1 mb 0.00 in0.0 mm 0.00 in0.0 mm 0.00 in0.0 mm
12:56 AM 5.5°F-14.7°C -0.7°F-18.2°C 75% 6.0 mph NW9.7 kmh NW 8.0 mph12.9 kmh 30.27 in1025.1 mb 0.00 in0.0 mm 0.00 in0.0 mm 0.00 in0.0 mm
12:57 AM 5.5°F-14.7°C -0.7°F-18.2°C 75% 6.0 mph NNW9.7 kmh NNW 8.0 mph12.9 kmh 30.27 in1025.1 mb 0.00 in0.0 mm 0.00 in0.0 mm 0.00 in0.0 mm
12:58 AM 5.5°F-14.7°C -0.7°F-18.2°C 75% 6.0 mph NNW9.7 kmh NNW 7.0 mph11.3 kmh 30.27 in1025.1 mb 0.00 in0.0 mm 0.00 in0.0 mm 0.00 in0.0 mm
12:59 AM 5.5°F-14.7°C -0.7°F-18.2°C 75% 6.0 mph WNW9.7 kmh WNW 7.0 mph11.3 kmh 30.27 in1025.1 mb 0.00 in0.0 mm 0.00 in0.0 mm 0.00 in0.0 mm
01:00 AM 5.5°F-14.7°C -0.7°F-18.2°C 75% 5.0 mph WNW8.0 kmh WNW 7.0 mph11.3 kmh 30.27 in1025.1 mb 0.00 in0.0 mm 0.00 in0.0 mm 0.00 in0.0 mm
01:01 AM 5.5°F-14.7°C -0.7°F-18.2°C 75% 6.0 mph WNW9.7 kmh WNW 7.0 mph11.3 kmh 30.27 in1025.1 mb 0.00 in0.0 mm 0.00 in0.0 mm 0.00 in0.0 mm
01:02 AM 5.5°F-14.7°C -0.4°F-18.0°C 76% 7.0 mph WNW11.3 kmh WNW 7.0 mph11.3 kmh 30.27 in1025.1 mb 0.00 in0.0 mm 0.00 in0.0 mm 0.00 in0.0 mm
01:03 AM 5.5°F-14.7°C 0.1°F-17.7°C 78% 6.0 mph W9.7 kmh W 7.0 mph11.3 kmh 30.27 in1025.1 mb 0.00 in0.0 mm 0.00 in0.0 mm 0.00 in0.0 mm
01:04 AM 5.4°F-14.8°C -0.8°F-18.2°C 75% 6.0 mph WNW9.7 kmh WNW 7.0 mph11.3 kmh 30.27 in1025.1 mb 0.00 in0.0 mm 0.00 in0.0 mm 0.00 in0.0 mm
01:05 AM 5.4°F-14.8°C -0.8°F-18.2°C 75% 6.0 mph WNW9.7 kmh WNW 7.0 mph11.3 kmh 30.27 in1025.1 mb 0.00 in0.0 mm 0.00 in0.0 mm 0.00 in0.0 mm
01:06 AM 5.4°F-14.8°C -0.5°F-18.1°C 76% 6.0 mph NW9.7 kmh NW 7.0 mph11.3 kmh 30.27 in1025.1 mb 0.00 in0.0 mm 0.00 in0.0 mm 0.00 in0.0 mm
01:07 AM 5.4°F-14.8°C -0.8°F-18.2°C 75% 6.0 mph WNW9.7 kmh WNW 7.0 mph11.3 kmh 30.27 in1025.1 mb 0.00 in0.0 mm 0.00 in0.0 mm 0.00 in0.0 mm
01:08 AM 5.1°F-14.9°C -1.3°F-18.5°C 74% 8.0 mph WNW12.9 kmh WNW 8.0 mph12.9 kmh 30.27 in1025.1 mb 0.00 in0.0 mm 0.00 in0.0 mm 0.00 in0.0 mm
01:09 AM 5.1°F-14.9°C -1.3°F-18.5°C 74% 6.0 mph NNE9.7 kmh NNE 8.0 mph12.9 kmh 30.27 in1025.1 mb 0.00 in0.0 mm 0.00 in0.0 mm 0.00 in0.0 mm
01:10 AM 5.4°F-14.8°C -0.5°F-18.1°C 76% 6.0 mph WNW9.7 kmh WNW 8.0 mph12.9 kmh 30.27 in1025.1 mb 0.00 in0.0 mm 0.00 in0.0 mm 0.00 in0.0 mm
01:11 AM 5.4°F-14.8°C -0.5°F-18.1°C 76% 7.0 mph WNW11.3 kmh WNW 8.0 mph12.9 kmh 30.27 in1025.1 mb 0.00 in0.0 mm 0.00 in0.0 mm 0.00 in0.0 mm
01:12 AM 5.4°F-14.8°C -0.8°F-18.2°C 75% 6.0 mph WNW9.7 kmh WNW 8.0 mph12.9 kmh 30.27 in1025.1 mb 0.00 in0.0 mm 0.00 in0.0 mm 0.00 in0.0 mm
01:13 AM 5.4°F-14.8°C -0.8°F-18.2°C 75% 7.0 mph WNW11.3 kmh WNW 8.0 mph12.9 kmh 30.28 in1025.4 mb 0.00 in0.0 mm 0.00 in0.0 mm 0.00 in0.0 mm
01:14 AM 5.4°F-14.8°C -0.8°F-18.2°C 75% 6.0 mph NW9.7 kmh NW 8.0 mph12.9 kmh 30.28 in1025.4 mb 0.00 in0.0 mm 0.00 in0.0 mm 0.00 in0.0 mm
01:15 AM 5.4°F-14.8°C -0.5°F-18.1°C 76% 7.0 mph NW11.3 kmh NW 8.0 mph12.9 kmh 30.27 in1025.1 mb 0.00 in0.0 mm 0.00 in0.0 mm 0.00 in0.0 mm
01:16 AM 5.4°F-14.8°C -0.5°F-18.1°C 76% 7.0 mph WNW11.3 kmh WNW 8.0 mph12.9 kmh 30.27 in1025.1 mb 0.00 in0.0 mm 0.00 in0.0 mm 0.00 in0.0 mm
01:17 AM 5.4°F-14.8°C -0.5°F-18.1°C 76% 8.0 mph NW12.9 kmh NW 8.0 mph12.9 kmh 30.27 in1025.1 mb 0.00 in0.0 mm 0.00 in0.0 mm 0.00 in0.0 mm
01:18 AM 5.4°F-14.8°C -0.5°F-18.1°C 76% 7.0 mph WNW11.3 kmh WNW 8.0 mph12.9 kmh 30.27 in1025.1 mb 0.00 in0.0 mm 0.00 in0.0 mm 0.00 in0.0 mm
01:19 AM 5.5°F-14.7°C 0.1°F-17.7°C 78% 6.0 mph WNW9.7 kmh WNW 8.0 mph12.9 kmh 30.27 in1025.1 mb 0.00 in0.0 mm 0.00 in0.0 mm 0.00 in0.0 mm
01:20 AM 5.5°F-14.7°C 0.1°F-17.7°C 78% 6.0 mph WNW9.7 kmh WNW 8.0 mph12.9 kmh 30.27 in1025.1 mb 0.00 in0.0 mm 0.00 in0.0 mm 0.00 in0.0 mm
01:21 AM 5.4°F-14.8°C -0.8°F-18.2°C 75% 7.0 mph WNW11.3 kmh WNW 8.0 mph12.9 kmh 30.28 in1025.4 mb 0.00 in0.0 mm 0.00 in0.0 mm 0.00 in0.0 mm
01:22 AM 5.4°F-14.8°C -1.1°F-18.4°C 74% 6.0 mph NW9.7 kmh NW 8.0 mph12.9 kmh 30.28 in1025.4 mb 0.00 in0.0 mm 0.00 in0.0 mm 0.00 in0.0 mm
01:23 AM 5.4°F-14.8°C -0.8°F-18.2°C 75% 7.0 mph WNW11.3 kmh WNW 8.0 mph12.9 kmh 30.28 in1025.4 mb 0.00 in0.0 mm 0.00 in0.0 mm 0.00 in0.0 mm
01:24 AM 5.4°F-14.8°C -0.8°F-18.2°C 75% 7.0 mph WNW11.3 kmh WNW 8.0 mph12.9 kmh 30.28 in1025.4 mb 0.00 in0.0 mm 0.00 in0.0 mm 0.00 in0.0 mm
01:25 AM 5.0°F-15.0°C -1.7°F-18.7°C 73% 5.0 mph WNW8.0 kmh WNW 8.0 mph12.9 kmh 30.28 in1025.4 mb 0.00 in0.0 mm 0.00 in0.0 mm 0.00 in0.0 mm
01:26 AM 5.1°F-14.9°C -1.3°F-18.5°C 74% 5.0 mph NW8.0 kmh NW 8.0 mph12.9 kmh 30.28 in1025.4 mb 0.00 in0.0 mm 0.00 in0.0 mm 0.00 in0.0 mm
01:27 AM 5.1°F-14.9°C -1.1°F-18.4°C 75% 4.0 mph 6.4 kmh 8.0 mph12.9 kmh 30.28 in1025.4 mb 0.00 in0.0 mm 0.00 in0.0 mm 0.00 in0.0 mm
01:28 AM 5.4°F-14.8°C -0.5°F-18.1°C 76% 4.0 mph NNW6.4 kmh NNW 8.0 mph12.9 kmh 30.28 in1025.4 mb 0.00 in0.0 mm 0.00 in0.0 mm 0.00 in0.0 mm
01:29 AM 5.4°F-14.8°C -0.8°F-18.2°C 75% 5.0 mph NNW8.0 kmh NNW 8.0 mph12.9 kmh 30.28 in1025.4 mb 0.00 in0.0 mm 0.00 in0.0 mm 0.00 in0.0 mm
01:31 AM 5.1°F-14.9°C -1.3°F-18.5°C 74% 6.0 mph NNW9.7 kmh NNW 8.0 mph12.9 kmh 30.28 in1025.4 mb 0.00 in0.0 mm 0.00 in0.0 mm 0.00 in0.0 mm
01:32 AM 5.1°F-14.9°C -1.1°F-18.4°C 75% 6.0 mph NNW9.7 kmh NNW 8.0 mph12.9 kmh 30.28 in1025.4 mb 0.00 in0.0 mm 0.00 in0.0 mm 0.00 in0.0 mm
01:33 AM 5.1°F-14.9°C -1.1°F-18.4°C 75% 6.0 mph NW9.7 kmh NW 8.0 mph12.9 kmh 30.28 in1025.4 mb 0.00 in0.0 mm 0.00 in0.0 mm 0.00 in0.0 mm
01:34 AM 5.1°F-14.9°C -1.1°F-18.4°C 75% 5.0 mph WNW8.0 kmh WNW 8.0 mph12.9 kmh 30.28 in1025.4 mb 0.00 in0.0 mm 0.00 in0.0 mm 0.00 in0.0 mm
01:35 AM 5.0°F-15.0°C -1.4°F-18.6°C 74% 5.0 mph WNW8.0 kmh WNW 8.0 mph12.9 kmh 30.28 in1025.4 mb 0.00 in0.0 mm 0.00 in0.0 mm 0.00 in0.0 mm
01:36 AM 5.0°F-15.0°C -1.4°F-18.6°C 74% 4.0 mph NNW6.4 kmh NNW 8.0 mph12.9 kmh 30.28 in1025.4 mb 0.00 in0.0 mm 0.00 in0.0 mm 0.00 in0.0 mm
01:37 AM 5.0°F-15.0°C -1.2°F-18.4°C 75% 6.0 mph NW9.7 kmh NW 8.0 mph12.9 kmh 30.28 in1025.4 mb 0.00 in0.0 mm 0.00 in0.0 mm 0.00 in0.0 mm
01:38 AM 4.8°F-15.1°C -1.9°F-18.8°C 73% 5.0 mph WNW8.0 kmh WNW 8.0 mph12.9 kmh 30.28 in1025.4 mb 0.00 in0.0 mm 0.00 in0.0 mm 0.00 in0.0 mm
01:39 AM 4.8°F-15.1°C -1.9°F-18.8°C 73% 5.0 mph NNW8.0 kmh NNW 8.0 mph12.9 kmh 30.28 in1025.4 mb 0.00 in0.0 mm 0.00 in0.0 mm 0.00 in0.0 mm
01:40 AM 4.8°F-15.1°C -1.4°F-18.6°C 75% 7.0 mph NW11.3 kmh NW 7.0 mph11.3 kmh 30.28 in1025.4 mb 0.00 in0.0 mm 0.00 in0.0 mm 0.00 in0.0 mm
01:41 AM 4.8°F-15.1°C -1.4°F-18.6°C 75% 9.0 mph NW14.5 kmh NW 9.0 mph14.5 kmh 30.28 in1025.4 mb 0.00 in0.0 mm 0.00 in0.0 mm 0.00 in0.0 mm
01:42 AM 4.8°F-15.1°C -1.6°F-18.7°C 74% 6.0 mph W9.7 kmh W 9.0 mph14.5 kmh 30.28 in1025.4 mb 0.00 in0.0 mm 0.00 in0.0 mm 0.00 in0.0 mm
01:43 AM 5.0°F-15.0°C -1.2°F-18.4°C 75% 6.0 mph NNW9.7 kmh NNW 9.0 mph14.5 kmh 30.28 in1025.4 mb 0.00 in0.0 mm 0.00 in0.0 mm 0.00 in0.0 mm
01:44 AM 5.0°F-15.0°C -1.2°F-18.4°C 75% 7.0 mph NW11.3 kmh NW 9.0 mph14.5 kmh 30.28 in1025.4 mb 0.00 in0.0 mm 0.00 in0.0 mm 0.00 in0.0 mm
01:45 AM 5.1°F-14.9°C -0.8°F-18.2°C 76% 6.0 mph NW9.7 kmh NW 9.0 mph14.5 kmh 30.28 in1025.4 mb 0.00 in0.0 mm 0.00 in0.0 mm 0.00 in0.0 mm
01:46 AM 5.0°F-15.0°C -1.4°F-18.6°C 74% 8.0 mph WNW12.9 kmh WNW 9.0 mph14.5 kmh 30.28 in1025.4 mb 0.00 in0.0 mm 0.00 in0.0 mm 0.00 in0.0 mm
01:47 AM 5.0°F-15.0°C -1.2°F-18.4°C 75% 7.0 mph NW11.3 kmh NW 9.0 mph14.5 kmh 30.28 in1025.4 mb 0.00 in0.0 mm 0.00 in0.0 mm 0.00 in0.0 mm
01:48 AM 5.0°F-15.0°C -1.4°F-18.6°C 74% 6.0 mph W9.7 kmh W 9.0 mph14.5 kmh 30.28 in1025.4 mb 0.00 in0.0 mm 0.00 in0.0 mm 0.00 in0.0 mm
01:49 AM 5.0°F-15.0°C -1.4°F-18.6°C 74% 8.0 mph NW12.9 kmh NW 9.0 mph14.5 kmh 30.28 in1025.4 mb 0.00 in0.0 mm 0.00 in0.0 mm 0.00 in0.0 mm
01:50 AM 4.8°F-15.1°C -1.6°F-18.7°C 74% 6.0 mph NW9.7 kmh NW 9.0 mph14.5 kmh 30.28 in1025.4 mb 0.00 in0.0 mm 0.00 in0.0 mm 0.00 in0.0 mm
01:51 AM 4.8°F-15.1°C -1.4°F-18.6°C 75% 5.0 mph NW8.0 kmh NW 8.0 mph12.9 kmh 30.28 in1025.4 mb 0.00 in0.0 mm 0.00 in0.0 mm 0.00 in0.0 mm
01:52 AM 4.8°F-15.1°C -1.6°F-18.7°C 74% 8.0 mph WNW12.9 kmh WNW 8.0 mph12.9 kmh 30.28 in1025.4 mb 0.00 in0.0 mm 0.00 in0.0 mm 0.00 in0.0 mm
01:53 AM 5.0°F-15.0°C -1.2°F-18.4°C 75% 9.0 mph NW14.5 kmh NW 9.0 mph14.5 kmh 30.28 in1025.4 mb 0.00 in0.0 mm 0.00 in0.0 mm 0.00 in0.0 mm
01:54 AM 5.0°F-15.0°C -1.2°F-18.4°C 75% 6.0 mph NNW9.7 kmh NNW 9.0 mph14.5 kmh 30.28 in1025.4 mb 0.00 in0.0 mm 0.00 in0.0 mm 0.00 in0.0 mm
01:55 AM 5.0°F-15.0°C -1.2°F-18.4°C 75% 5.0 mph WNW8.0 kmh WNW 9.0 mph14.5 kmh 30.28 in1025.4 mb 0.00 in0.0 mm 0.00 in0.0 mm 0.00 in0.0 mm
01:56 AM 5.0°F-15.0°C -0.9°F-18.3°C 76% 6.0 mph WNW9.7 kmh WNW 9.0 mph14.5 kmh 30.28 in1025.4 mb 0.00 in0.0 mm 0.00 in0.0 mm 0.00 in0.0 mm
01:57 AM 5.0°F-15.0°C -0.9°F-18.3°C 76% 6.0 mph NW9.7 kmh NW 9.0 mph14.5 kmh 30.28 in1025.4 mb 0.00 in0.0 mm 0.00 in0.0 mm 0.00 in0.0 mm
01:58 AM 5.0°F-15.0°C -1.2°F-18.4°C 75% 6.0 mph WNW9.7 kmh WNW 9.0 mph14.5 kmh 30.28 in1025.4 mb 0.00 in0.0 mm 0.00 in0.0 mm 0.00 in0.0 mm
01:59 AM 4.8°F-15.1°C -1.4°F-18.6°C 75% 6.0 mph WNW9.7 kmh WNW 9.0 mph14.5 kmh 30.28 in1025.4 mb 0.00 in0.0 mm 0.00 in0.0 mm 0.00 in0.0 mm
02:00 AM 4.8°F-15.1°C -1.4°F-18.6°C 75% 7.0 mph NNW11.3 kmh NNW 9.0 mph14.5 kmh 30.28 in1025.4 mb 0.00 in0.0 mm 0.00 in0.0 mm 0.00 in0.0 mm
02:01 AM 4.8°F-15.1°C -1.4°F-18.6°C 75% 7.0 mph NW11.3 kmh NW 9.0 mph14.5 kmh 30.29 in1025.7 mb 0.00 in0.0 mm 0.00 in0.0 mm 0.00 in0.0 mm
02:02 AM 4.8°F-15.1°C -1.4°F-18.6°C 75% 8.0 mph WNW12.9 kmh WNW 9.0 mph14.5 kmh 30.28 in1025.4 mb 0.00 in0.0 mm 0.00 in0.0 mm 0.00 in0.0 mm
02:03 AM 4.8°F-15.1°C -1.4°F-18.6°C 75% 7.0 mph WNW11.3 kmh WNW 9.0 mph14.5 kmh 30.28 in1025.4 mb 0.00 in0.0 mm 0.00 in0.0 mm 0.00 in0.0 mm
02:04 AM 4.8°F-15.1°C -1.4°F-18.6°C 75% 7.0 mph WNW11.3 kmh WNW 9.0 mph14.5 kmh 30.28 in1025.4 mb 0.00 in0.0 mm 0.00 in0.0 mm 0.00 in0.0 mm
02:05 AM 4.8°F-15.1°C -1.4°F-18.6°C 75% 6.0 mph WNW9.7 kmh WNW 9.0 mph14.5 kmh 30.29 in1025.7 mb 0.00 in0.0 mm 0.00 in0.0 mm 0.00 in0.0 mm
02:06 AM 4.8°F-15.1°C -1.4°F-18.6°C 75% 7.0 mph WNW11.3 kmh WNW 9.0 mph14.5 kmh 30.29 in1025.7 mb 0.00 in0.0 mm 0.00 in0.0 mm 0.00 in0.0 mm
02:07 AM 4.8°F-15.1°C -1.4°F-18.6°C 75% 7.0 mph NW11.3 kmh NW 9.0 mph14.5 kmh 30.28 in1025.4 mb 0.00 in0.0 mm 0.00 in0.0 mm 0.00 in0.0 mm
02:08 AM 5.0°F-15.0°C -0.3°F-17.9°C 78% 7.0 mph WNW11.3 kmh WNW 9.0 mph14.5 kmh 30.28 in1025.4 mb 0.00 in0.0 mm 0.00 in0.0 mm 0.00 in0.0 mm
02:09 AM 5.0°F-15.0°C -0.3°F-17.9°C 78% 8.0 mph NW12.9 kmh NW 9.0 mph14.5 kmh 30.28 in1025.4 mb 0.00 in0.0 mm 0.00 in0.0 mm 0.00 in0.0 mm
02:10 AM 5.0°F-15.0°C -0.9°F-18.3°C 76% 8.0 mph WNW12.9 kmh WNW 9.0 mph14.5 kmh 30.28 in1025.4 mb 0.00 in0.0 mm 0.00 in0.0 mm 0.00 in0.0 mm
02:11 AM 5.0°F-15.0°C -1.2°F-18.4°C 75% 7.0 mph WNW11.3 kmh WNW 9.0 mph14.5 kmh 30.28 in1025.4 mb 0.00 in0.0 mm 0.00 in0.0 mm 0.00 in0.0 mm
02:12 AM 5.0°F-15.0°C -1.2°F-18.4°C 75% 8.0 mph WNW12.9 kmh WNW 9.0 mph14.5 kmh 30.28 in1025.4 mb 0.00 in0.0 mm 0.00 in0.0 mm 0.00 in0.0 mm
02:13 AM 5.0°F-15.0°C -1.2°F-18.4°C 75% 7.0 mph WNW11.3 kmh WNW 9.0 mph14.5 kmh 30.28 in1025.4 mb 0.00 in0.0 mm 0.00 in0.0 mm 0.00 in0.0 mm
02:14 AM 5.0°F-15.0°C -1.2°F-18.4°C 75% 7.0 mph WNW11.3 kmh WNW 9.0 mph14.5 kmh 30.28 in1025.4 mb 0.00 in0.0 mm 0.00 in0.0 mm 0.00 in0.0 mm
02:15 AM 4.8°F-15.1°C -1.4°F-18.6°C 75% 7.0 mph WNW11.3 kmh WNW 9.0 mph14.5 kmh 30.28 in1025.4 mb 0.00 in0.0 mm 0.00 in0.0 mm 0.00 in0.0 mm
02:16 AM 4.8°F-15.1°C -1.4°F-18.6°C 75% 7.0 mph WNW11.3 kmh WNW 9.0 mph14.5 kmh 30.28 in1025.4 mb 0.00 in0.0 mm 0.00 in0.0 mm 0.00 in0.0 mm
02:17 AM 4.8°F-15.1°C -1.1°F-18.4°C 76% 7.0 mph WNW11.3 kmh WNW 9.0 mph14.5 kmh 30.29 in1025.7 mb 0.00 in0.0 mm 0.00 in0.0 mm 0.00 in0.0 mm
02:18 AM 4.8°F-15.1°C -1.1°F-18.4°C 76% 7.0 mph WNW11.3 kmh WNW 9.0 mph14.5 kmh 30.28 in1025.4 mb 0.00 in0.0 mm 0.00 in0.0 mm 0.00 in0.0 mm
02:19 AM 4.5°F-15.3°C -1.6°F-18.7°C 75% 7.0 mph NW11.3 kmh NW 9.0 mph14.5 kmh 30.29 in1025.7 mb 0.00 in0.0 mm 0.00 in0.0 mm 0.00 in0.0 mm
02:20 AM 4.5°F-15.3°C -1.6°F-18.7°C 75% 7.0 mph NW11.3 kmh NW 8.0 mph12.9 kmh 30.28 in1025.4 mb 0.00 in0.0 mm 0.00 in0.0 mm 0.00 in0.0 mm
02:21 AM 4.5°F-15.3°C -1.6°F-18.7°C 75% 7.0 mph W11.3 kmh W 8.0 mph12.9 kmh 30.28 in1025.4 mb 0.00 in0.0 mm 0.00 in0.0 mm 0.00 in0.0 mm
02:22 AM 4.5°F-15.3°C -1.6°F-18.7°C 75% 6.0 mph WNW9.7 kmh WNW 8.0 mph12.9 kmh 30.28 in1025.4 mb 0.00 in0.0 mm 0.00 in0.0 mm 0.00 in0.0 mm
02:23 AM 5.0°F-15.0°C -0.9°F-18.3°C 76% 8.0 mph NW12.9 kmh NW 8.0 mph12.9 kmh 30.29 in1025.7 mb 0.00 in0.0 mm 0.00 in0.0 mm 0.00 in0.0 mm
02:24 AM 4.8°F-15.1°C -1.4°F-18.6°C 75% 6.0 mph WNW9.7 kmh WNW 8.0 mph12.9 kmh 30.28 in1025.4 mb 0.00 in0.0 mm 0.00 in0.0 mm 0.00 in0.0 mm
02:25 AM 4.8°F-15.1°C -1.4°F-18.6°C 75% 6.0 mph WNW9.7 kmh WNW 8.0 mph12.9 kmh 30.29 in1025.7 mb 0.00 in0.0 mm 0.00 in0.0 mm 0.00 in0.0 mm
02:26 AM 4.8°F-15.1°C -1.1°F-18.4°C 76% 6.0 mph WNW9.7 kmh WNW 8.0 mph12.9 kmh 30.28 in1025.4 mb 0.00 in0.0 mm 0.00 in0.0 mm 0.00 in0.0 mm
02:27 AM 4.8°F-15.1°C -1.1°F-18.4°C 76% 8.0 mph NW12.9 kmh NW 8.0 mph12.9 kmh 30.29 in1025.7 mb 0.00 in0.0 mm 0.00 in0.0 mm 0.00 in0.0 mm
02:28 AM 4.8°F-15.1°C -1.4°F-18.6°C 75% 7.0 mph WNW11.3 kmh WNW 8.0 mph12.9 kmh 30.28 in1025.4 mb 0.00 in0.0 mm 0.00 in0.0 mm 0.00 in0.0 mm
02:29 AM 4.8°F-15.1°C -1.4°F-18.6°C 75% 6.0 mph W9.7 kmh W 8.0 mph12.9 kmh 30.29 in1025.7 mb 0.00 in0.0 mm 0.00 in0.0 mm 0.00 in0.0 mm
02:30 AM 4.8°F-15.1°C -1.4°F-18.6°C 75% 6.0 mph WNW9.7 kmh WNW 8.0 mph12.9 kmh 30.28 in1025.4 mb 0.00 in0.0 mm 0.00 in0.0 mm 0.00 in0.0 mm
02:31 AM 5.0°F-15.0°C -0.3°F-17.9°C 78% 7.0 mph WNW11.3 kmh WNW 8.0 mph12.9 kmh 30.29 in1025.7 mb 0.00 in0.0 mm 0.00 in0.0 mm 0.00 in0.0 mm
02:32 AM 5.1°F-14.9°C 0.0°F-17.8°C 79% 7.0 mph WNW11.3 kmh WNW 8.0 mph12.9 kmh 30.28 in1025.4 mb 0.00 in0.0 mm 0.00 in0.0 mm 0.00 in0.0 mm
02:33 AM 5.0°F-15.0°C -0.3°F-17.9°C 78% 7.0 mph WNW11.3 kmh WNW 8.0 mph12.9 kmh 30.28 in1025.4 mb 0.00 in0.0 mm 0.00 in0.0 mm 0.00 in0.0 mm
02:34 AM 4.8°F-15.1°C -0.5°F-18.1°C 78% 8.0 mph WNW12.9 kmh WNW 8.0 mph12.9 kmh 30.28 in1025.4 mb 0.00 in0.0 mm 0.00 in0.0 mm 0.00 in0.0 mm
02:35 AM 4.8°F-15.1°C -1.1°F-18.4°C 76% 6.0 mph WNW9.7 kmh WNW 8.0 mph12.9 kmh 30.28 in1025.4 mb 0.00 in0.0 mm 0.00 in0.0 mm 0.00 in0.0 mm
02:36 AM 4.5°F-15.3°C -1.9°F-18.8°C 74% 8.0 mph NW12.9 kmh NW 8.0 mph12.9 kmh 30.28 in1025.4 mb 0.00 in0.0 mm 0.00 in0.0 mm 0.00 in0.0 mm
02:37 AM 4.5°F-15.3°C -1.6°F-18.7°C 75% 6.0 mph W9.7 kmh W 9.0 mph14.5 kmh 30.28 in1025.4 mb 0.00 in0.0 mm 0.00 in0.0 mm 0.00 in0.0 mm
02:38 AM 4.5°F-15.3°C -1.6°F-18.7°C 75% 7.0 mph W11.3 kmh W 9.0 mph14.5 kmh 30.28 in1025.4 mb 0.00 in0.0 mm 0.00 in0.0 mm 0.00 in0.0 mm
02:39 AM 4.5°F-15.3°C -1.6°F-18.7°C 75% 8.0 mph W12.9 kmh W 9.0 mph14.5 kmh 30.28 in1025.4 mb 0.00 in0.0 mm 0.00 in0.0 mm 0.00 in0.0 mm
02:40 AM 4.5°F-15.3°C -1.6°F-18.7°C 75% 6.0 mph W9.7 kmh W 9.0 mph14.5 kmh 30.28 in1025.4 mb 0.00 in0.0 mm 0.00 in0.0 mm 0.00 in0.0 mm
02:41 AM 4.5°F-15.3°C -1.4°F-18.6°C 76% 7.0 mph W11.3 kmh W 9.0 mph14.5 kmh 30.29 in1025.7 mb 0.00 in0.0 mm 0.00 in0.0 mm 0.00 in0.0 mm
02:42 AM 4.5°F-15.3°C -1.6°F-18.7°C 75% 6.0 mph WNW9.7 kmh WNW 9.0 mph14.5 kmh 30.29 in1025.7 mb 0.00 in0.0 mm 0.00 in0.0 mm 0.00 in0.0 mm
02:43 AM 4.5°F-15.3°C -1.6°F-18.7°C 75% 7.0 mph WNW11.3 kmh WNW 9.0 mph14.5 kmh 30.28 in1025.4 mb 0.00 in0.0 mm 0.00 in0.0 mm 0.00 in0.0 mm
02:44 AM 4.8°F-15.1°C -1.4°F-18.6°C 75% 7.0 mph NW11.3 kmh NW 9.0 mph14.5 kmh 30.28 in1025.4 mb 0.00 in0.0 mm 0.00 in0.0 mm 0.00 in0.0 mm
02:45 AM 4.8°F-15.1°C -1.1°F-18.4°C 76% 8.0 mph NW12.9 kmh NW 9.0 mph14.5 kmh 30.28 in1025.4 mb 0.00 in0.0 mm 0.00 in0.0 mm 0.00 in0.0 mm
02:46 AM 4.5°F-15.3°C -1.6°F-18.7°C 75% 7.0 mph WNW11.3 kmh WNW 9.0 mph14.5 kmh 30.28 in1025.4 mb 0.00 in0.0 mm 0.00 in0.0 mm 0.00 in0.0 mm
02:47 AM 4.5°F-15.3°C -1.6°F-18.7°C 75% 6.0 mph WNW9.7 kmh WNW 8.0 mph12.9 kmh 30.28 in1025.4 mb 0.00 in0.0 mm 0.00 in0.0 mm 0.00 in0.0 mm
02:48 AM 4.5°F-15.3°C -1.6°F-18.7°C 75% 7.0 mph NW11.3 kmh NW 8.0 mph12.9 kmh 30.28 in1025.4 mb 0.00 in0.0 mm 0.00 in0.0 mm 0.00 in0.0 mm
02:49 AM 4.5°F-15.3°C -1.6°F-18.7°C 75% 7.0 mph WNW11.3 kmh WNW 8.0 mph12.9 kmh 30.28 in1025.4 mb 0.00 in0.0 mm 0.00 in0.0 mm 0.00 in0.0 mm
02:50 AM 4.5°F-15.3°C -1.6°F-18.7°C 75% 8.0 mph WNW12.9 kmh WNW 9.0 mph14.5 kmh 30.28 in1025.4 mb 0.00 in0.0 mm 0.00 in0.0 mm 0.00 in0.0 mm
02:51 AM 4.8°F-15.1°C -1.1°F-18.4°C 76% 6.0 mph W9.7 kmh W 9.0 mph14.5 kmh 30.28 in1025.4 mb 0.00 in0.0 mm 0.00 in0.0 mm 0.00 in0.0 mm
02:52 AM 4.8°F-15.1°C -0.5°F-18.1°C 78% 9.0 mph WNW14.5 kmh WNW 9.0 mph14.5 kmh 30.28 in1025.4 mb 0.00 in0.0 mm 0.00 in0.0 mm 0.00 in0.0 mm
02:53 AM 4.8°F-15.1°C -0.5°F-18.1°C 78% 7.0 mph WNW11.3 kmh WNW 9.0 mph14.5 kmh 30.28 in1025.4 mb 0.00 in0.0 mm 0.00 in0.0 mm 0.00 in0.0 mm
02:54 AM 4.8°F-15.1°C -1.1°F-18.4°C 76% 8.0 mph WNW12.9 kmh WNW 9.0 mph14.5 kmh 30.28 in1025.4 mb 0.00 in0.0 mm 0.00 in0.0 mm 0.00 in0.0 mm
02:55 AM 4.5°F-15.3°C -1.6°F-18.7°C 75% 7.0 mph WNW11.3 kmh WNW 9.0 mph14.5 kmh 30.28 in1025.4 mb 0.00 in0.0 mm 0.00 in0.0 mm 0.00 in0.0 mm
02:56 AM 4.5°F-15.3°C -1.6°F-18.7°C 75% 7.0 mph WNW11.3 kmh WNW 9.0 mph14.5 kmh 30.28 in1025.4 mb 0.00 in0.0 mm 0.00 in0.0 mm 0.00 in0.0 mm
02:57 AM 4.5°F-15.3°C -1.6°F-18.7°C 75% 9.0 mph WNW14.5 kmh WNW 9.0 mph14.5 kmh 30.28 in1025.4 mb 0.00 in0.0 mm 0.00 in0.0 mm 0.00 in0.0 mm
02:58 AM 4.5°F-15.3°C -1.6°F-18.7°C 75% 8.0 mph NW12.9 kmh NW 9.0 mph14.5 kmh 30.28 in1025.4 mb 0.00 in0.0 mm 0.00 in0.0 mm 0.00 in0.0 mm
02:59 AM 4.5°F-15.3°C -1.6°F-18.7°C 75% 8.0 mph NW12.9 kmh NW 9.0 mph14.5 kmh 30.28 in1025.4 mb 0.00 in0.0 mm 0.00 in0.0 mm 0.00 in0.0 mm
03:00 AM 4.8°F-15.1°C -1.1°F-18.4°C 76% 7.0 mph WNW11.3 kmh WNW 9.0 mph14.5 kmh 30.28 in1025.4 mb 0.00 in0.0 mm 0.00 in0.0 mm 0.00 in0.0 mm
03:01 AM 4.8°F-15.1°C -0.5°F-18.1°C 78% 6.0 mph WNW9.7 kmh WNW 9.0 mph14.5 kmh 30.28 in1025.4 mb 0.00 in0.0 mm 0.00 in0.0 mm 0.00 in0.0 mm
03:02 AM 4.8°F-15.1°C -1.1°F-18.4°C 76% 8.0 mph NW12.9 kmh NW 9.0 mph14.5 kmh 30.28 in1025.4 mb 0.00 in0.0 mm 0.00 in0.0 mm 0.00 in0.0 mm
03:03 AM 4.5°F-15.3°C -1.6°F-18.7°C 75% 7.0 mph WNW11.3 kmh WNW 9.0 mph14.5 kmh 30.28 in1025.4 mb 0.00 in0.0 mm 0.00 in0.0 mm 0.00 in0.0 mm
03:04 AM 4.5°F-15.3°C -1.6°F-18.7°C 75% 9.0 mph NW14.5 kmh NW 9.0 mph14.5 kmh 30.28 in1025.4 mb 0.00 in0.0 mm 0.00 in0.0 mm 0.00 in0.0 mm
03:05 AM 4.5°F-15.3°C -1.6°F-18.7°C 75% 7.0 mph NNW11.3 kmh NNW 10.0 mph16.1 kmh 30.29 in1025.7 mb 0.00 in0.0 mm 0.00 in0.0 mm 0.00 in0.0 mm
03:06 AM 4.5°F-15.3°C -1.6°F-18.7°C 75% 8.0 mph NW12.9 kmh NW 10.0 mph16.1 kmh 30.28 in1025.4 mb 0.00 in0.0 mm 0.00 in0.0 mm 0.00 in0.0 mm
03:07 AM 4.5°F-15.3°C -1.9°F-18.8°C 74% 9.0 mph NNW14.5 kmh NNW 10.0 mph16.1 kmh 30.28 in1025.4 mb 0.00 in0.0 mm 0.00 in0.0 mm 0.00 in0.0 mm
03:08 AM 4.5°F-15.3°C -1.9°F-18.8°C 74% 8.0 mph NW12.9 kmh NW 10.0 mph16.1 kmh 30.28 in1025.4 mb 0.00 in0.0 mm 0.00 in0.0 mm 0.00 in0.0 mm
03:09 AM 4.5°F-15.3°C -1.6°F-18.7°C 75% 8.0 mph WNW12.9 kmh WNW 10.0 mph16.1 kmh 30.28 in1025.4 mb 0.00 in0.0 mm 0.00 in0.0 mm 0.00 in0.0 mm
03:10 AM 4.5°F-15.3°C -1.9°F-18.8°C 74% 8.0 mph NW12.9 kmh NW 10.0 mph16.1 kmh 30.28 in1025.4 mb 0.00 in0.0 mm 0.00 in0.0 mm 0.00 in0.0 mm
03:11 AM 4.5°F-15.3°C -1.9°F-18.8°C 74% 8.0 mph WNW12.9 kmh WNW 10.0 mph16.1 kmh 30.28 in1025.4 mb 0.00 in0.0 mm 0.00 in0.0 mm 0.00 in0.0 mm
03:12 AM 4.5°F-15.3°C -1.6°F-18.7°C 75% 6.0 mph NW9.7 kmh NW 10.0 mph16.1 kmh 30.28 in1025.4 mb 0.00 in0.0 mm 0.00 in0.0 mm 0.00 in0.0 mm
03:13 AM 4.8°F-15.1°C -0.5°F-18.1°C 78% 8.0 mph WNW12.9 kmh WNW 10.0 mph16.1 kmh 30.28 in1025.4 mb 0.00 in0.0 mm 0.00 in0.0 mm 0.00 in0.0 mm
03:14 AM 4.8°F-15.1°C -0.5°F-18.1°C 78% 7.0 mph WNW11.3 kmh WNW 10.0 mph16.1 kmh 30.28 in1025.4 mb 0.00 in0.0 mm 0.00 in0.0 mm 0.00 in0.0 mm
03:15 AM 5.0°F-15.0°C -0.3°F-17.9°C 78% 9.0 mph WNW14.5 kmh WNW 10.0 mph16.1 kmh 30.28 in1025.4 mb 0.00 in0.0 mm 0.00 in0.0 mm 0.00 in0.0 mm
03:16 AM 4.8°F-15.1°C -1.1°F-18.4°C 76% 9.0 mph NNW14.5 kmh NNW 10.0 mph16.1 kmh 30.28 in1025.4 mb 0.00 in0.0 mm 0.00 in0.0 mm 0.00 in0.0 mm
03:17 AM 4.8°F-15.1°C -0.5°F-18.1°C 78% 7.0 mph NW11.3 kmh NW 10.0 mph16.1 kmh 30.28 in1025.4 mb 0.00 in0.0 mm 0.00 in0.0 mm 0.00 in0.0 mm
03:18 AM 4.8°F-15.1°C -1.1°F-18.4°C 76% 7.0 mph NW11.3 kmh NW 10.0 mph16.1 kmh 30.28 in1025.4 mb 0.00 in0.0 mm 0.00 in0.0 mm 0.00 in0.0 mm
03:19 AM 4.8°F-15.1°C -1.1°F-18.4°C 76% 8.0 mph NW12.9 kmh NW 9.0 mph14.5 kmh 30.27 in1025.1 mb 0.00 in0.0 mm 0.00 in0.0 mm 0.00 in0.0 mm
03:20 AM 4.8°F-15.1°C -1.1°F-18.4°C 76% 8.0 mph NW12.9 kmh NW 11.0 mph17.7 kmh 30.28 in1025.4 mb 0.00 in0.0 mm 0.00 in0.0 mm 0.00 in0.0 mm
03:21 AM 5.0°F-15.0°C -0.3°F-17.9°C 78% 10.0 mph W16.1 kmh W 11.0 mph17.7 kmh 30.28 in1025.4 mb 0.00 in0.0 mm 0.00 in0.0 mm 0.00 in0.0 mm
03:22 AM 4.8°F-15.1°C -1.1°F-18.4°C 76% 10.0 mph NW16.1 kmh NW 11.0 mph17.7 kmh 30.28 in1025.4 mb 0.00 in0.0 mm 0.00 in0.0 mm 0.00 in0.0 mm
03:23 AM 4.5°F-15.3°C -1.9°F-18.8°C 74% 9.0 mph WNW14.5 kmh WNW 11.0 mph17.7 kmh 30.28 in1025.4 mb 0.00 in0.0 mm 0.00 in0.0 mm 0.00 in0.0 mm
03:24 AM 4.5°F-15.3°C -1.6°F-18.7°C 75% 10.0 mph WNW16.1 kmh WNW 11.0 mph17.7 kmh 30.27 in1025.1 mb 0.00 in0.0 mm 0.00 in0.0 mm 0.00 in0.0 mm
03:25 AM 4.5°F-15.3°C -1.6°F-18.7°C 75% 8.0 mph NW12.9 kmh NW 11.0 mph17.7 kmh 30.28 in1025.4 mb 0.00 in0.0 mm 0.00 in0.0 mm 0.00 in0.0 mm
03:26 AM 4.5°F-15.3°C -1.6°F-18.7°C 75% 8.0 mph NW12.9 kmh NW 11.0 mph17.7 kmh 30.27 in1025.1 mb 0.00 in0.0 mm 0.00 in0.0 mm 0.00 in0.0 mm
03:27 AM 4.5°F-15.3°C -1.6°F-18.7°C 75% 7.0 mph NW11.3 kmh NW 11.0 mph17.7 kmh 30.28 in1025.4 mb 0.00 in0.0 mm 0.00 in0.0 mm 0.00 in0.0 mm
03:28 AM 4.5°F-15.3°C -1.6°F-18.7°C 75% 10.0 mph NW16.1 kmh NW 11.0 mph17.7 kmh 30.28 in1025.4 mb 0.00 in0.0 mm 0.00 in0.0 mm 0.00 in0.0 mm
03:29 AM 4.5°F-15.3°C -1.6°F-18.7°C 75% 9.0 mph WNW14.5 kmh WNW 11.0 mph17.7 kmh 30.27 in1025.1 mb 0.00 in0.0 mm 0.00 in0.0 mm 0.00 in0.0 mm
03:30 AM 4.5°F-15.3°C -1.6°F-18.7°C 75% 9.0 mph WNW14.5 kmh WNW 11.0 mph17.7 kmh 30.27 in1025.1 mb 0.00 in0.0 mm 0.00 in0.0 mm 0.00 in0.0 mm
03:31 AM 4.5°F-15.3°C -1.6°F-18.7°C 75% 9.0 mph WNW14.5 kmh WNW 11.0 mph17.7 kmh 30.27 in1025.1 mb 0.00 in0.0 mm 0.00 in0.0 mm 0.00 in0.0 mm
03:32 AM 4.5°F-15.3°C -1.4°F-18.6°C 76% 8.0 mph W12.9 kmh W 11.0 mph17.7 kmh 30.27 in1025.1 mb 0.00 in0.0 mm 0.00 in0.0 mm 0.00 in0.0 mm
03:33 AM 4.5°F-15.3°C -1.9°F-18.8°C 74% 8.0 mph WNW12.9 kmh WNW 11.0 mph17.7 kmh 30.28 in1025.4 mb 0.00 in0.0 mm 0.00 in0.0 mm 0.00 in0.0 mm
03:34 AM 4.5°F-15.3°C -1.9°F-18.8°C 74% 9.0 mph NNW14.5 kmh NNW 11.0 mph17.7 kmh 30.27 in1025.1 mb 0.00 in0.0 mm 0.00 in0.0 mm 0.00 in0.0 mm
03:35 AM 4.5°F-15.3°C -1.9°F-18.8°C 74% 9.0 mph NNW14.5 kmh NNW 11.0 mph17.7 kmh 30.27 in1025.1 mb 0.00 in0.0 mm 0.00 in0.0 mm 0.00 in0.0 mm
03:36 AM 4.5°F-15.3°C -1.9°F-18.8°C 74% 8.0 mph WNW12.9 kmh WNW 10.0 mph16.1 kmh 30.27 in1025.1 mb 0.00 in0.0 mm 0.00 in0.0 mm 0.00 in0.0 mm
03:37 AM 4.8°F-15.1°C -0.3°F-17.9°C 79% 9.0 mph WNW14.5 kmh WNW 10.0 mph16.1 kmh 30.28 in1025.4 mb 0.00 in0.0 mm 0.00 in0.0 mm 0.00 in0.0 mm
03:38 AM 4.8°F-15.1°C -0.3°F-17.9°C 79% 9.0 mph WNW14.5 kmh WNW 10.0 mph16.1 kmh 30.28 in1025.4 mb 0.00 in0.0 mm 0.00 in0.0 mm 0.00 in0.0 mm
03:39 AM 4.5°F-15.3°C -1.4°F-18.6°C 76% 8.0 mph WNW12.9 kmh WNW 10.0 mph16.1 kmh 30.27 in1025.1 mb 0.00 in0.0 mm 0.00 in0.0 mm 0.00 in0.0 mm
03:40 AM 4.5°F-15.3°C -1.6°F-18.7°C 75% 10.0 mph WNW16.1 kmh WNW 10.0 mph16.1 kmh 30.27 in1025.1 mb 0.00 in0.0 mm 0.00 in0.0 mm 0.00 in0.0 mm
03:41 AM 4.5°F-15.3°C -1.6°F-18.7°C 75% 8.0 mph NW12.9 kmh NW 10.0 mph16.1 kmh 30.27 in1025.1 mb 0.00 in0.0 mm 0.00 in0.0 mm 0.00 in0.0 mm
03:42 AM 4.5°F-15.3°C -1.6°F-18.7°C 75% 8.0 mph NW12.9 kmh NW 11.0 mph17.7 kmh 30.27 in1025.1 mb 0.00 in0.0 mm 0.00 in0.0 mm 0.00 in0.0 mm
03:43 AM 4.5°F-15.3°C -1.6°F-18.7°C 75% 7.0 mph W11.3 kmh W 11.0 mph17.7 kmh 30.27 in1025.1 mb 0.00 in0.0 mm 0.00 in0.0 mm 0.00 in0.0 mm
03:44 AM 4.8°F-15.1°C -0.3°F-17.9°C 79% 7.0 mph WNW11.3 kmh WNW 11.0 mph17.7 kmh 30.27 in1025.1 mb 0.00 in0.0 mm 0.00 in0.0 mm 0.00 in0.0 mm
03:45 AM 4.8°F-15.1°C -0.5°F-18.1°C 78% 9.0 mph WNW14.5 kmh WNW 11.0 mph17.7 kmh 30.27 in1025.1 mb 0.00 in0.0 mm 0.00 in0.0 mm 0.00 in0.0 mm
03:46 AM 4.5°F-15.3°C -1.6°F-18.7°C 75% 10.0 mph WNW16.1 kmh WNW 12.0 mph19.3 kmh 30.28 in1025.4 mb 0.00 in0.0 mm 0.00 in0.0 mm 0.00 in0.0 mm
03:47 AM 4.5°F-15.3°C -1.6°F-18.7°C 75% 9.0 mph NW14.5 kmh NW 12.0 mph19.3 kmh 30.27 in1025.1 mb 0.00 in0.0 mm 0.00 in0.0 mm 0.00 in0.0 mm
03:48 AM 4.5°F-15.3°C -1.9°F-18.8°C 74% 8.0 mph NW12.9 kmh NW 12.0 mph19.3 kmh 30.27 in1025.1 mb 0.00 in0.0 mm 0.00 in0.0 mm 0.00 in0.0 mm
03:49 AM 4.5°F-15.3°C -1.6°F-18.7°C 75% 7.0 mph WNW11.3 kmh WNW 12.0 mph19.3 kmh 30.27 in1025.1 mb 0.00 in0.0 mm 0.00 in0.0 mm 0.00 in0.0 mm
03:50 AM 4.5°F-15.3°C -1.6°F-18.7°C 75% 7.0 mph NNW11.3 kmh NNW 12.0 mph19.3 kmh 30.27 in1025.1 mb 0.00 in0.0 mm 0.00 in0.0 mm 0.00 in0.0 mm
03:51 AM 4.8°F-15.1°C -0.3°F-17.9°C 79% 13.0 mph NW20.9 kmh NW 13.0 mph20.9 kmh 30.27 in1025.1 mb 0.00 in0.0 mm 0.00 in0.0 mm 0.00 in0.0 mm
03:52 AM 4.5°F-15.3°C -1.6°F-18.7°C 75% 10.0 mph WNW16.1 kmh WNW 13.0 mph20.9 kmh 30.27 in1025.1 mb 0.00 in0.0 mm 0.00 in0.0 mm 0.00 in0.0 mm
03:53 AM 4.3°F-15.4°C -2.1°F-18.9°C 74% 7.0 mph WNW11.3 kmh WNW 13.0 mph20.9 kmh 30.27 in1025.1 mb 0.00 in0.0 mm 0.00 in0.0 mm 0.00 in0.0 mm
03:54 AM 4.0°F-15.6°C -2.7°F-19.3°C 73% 9.0 mph WNW14.5 kmh WNW 13.0 mph20.9 kmh 30.27 in1025.1 mb 0.00 in0.0 mm 0.00 in0.0 mm 0.00 in0.0 mm
03:55 AM 4.0°F-15.6°C -2.7°F-19.3°C 73% 8.0 mph WNW12.9 kmh WNW 13.0 mph20.9 kmh 30.27 in1025.1 mb 0.00 in0.0 mm 0.00 in0.0 mm 0.00 in0.0 mm
03:56 AM 4.0°F-15.6°C -2.7°F-19.3°C 73% 9.0 mph NNW14.5 kmh NNW 13.0 mph20.9 kmh 30.27 in1025.1 mb 0.00 in0.0 mm 0.00 in0.0 mm 0.00 in0.0 mm
03:57 AM 4.0°F-15.6°C -2.4°F-19.1°C 74% 10.0 mph WNW16.1 kmh WNW 13.0 mph20.9 kmh 30.27 in1025.1 mb 0.00 in0.0 mm 0.00 in0.0 mm 0.00 in0.0 mm
03:58 AM 4.3°F-15.4°C -1.8°F-18.8°C 75% 10.0 mph NW16.1 kmh NW 13.0 mph20.9 kmh 30.27 in1025.1 mb 0.00 in0.0 mm 0.00 in0.0 mm 0.00 in0.0 mm
03:59 AM 4.3°F-15.4°C -1.8°F-18.8°C 75% 10.0 mph WNW16.1 kmh WNW 13.0 mph20.9 kmh 30.27 in1025.1 mb 0.00 in0.0 mm 0.00 in0.0 mm 0.00 in0.0 mm
04:00 AM 4.3°F-15.4°C -1.8°F-18.8°C 75% 7.0 mph WNW11.3 kmh WNW 13.0 mph20.9 kmh 30.27 in1025.1 mb 0.00 in0.0 mm 0.00 in0.0 mm 0.00 in0.0 mm
04:01 AM 4.5°F-15.3°C -1.4°F-18.6°C 76% 6.0 mph NW9.7 kmh NW 13.0 mph20.9 kmh 30.27 in1025.1 mb 0.00 in0.0 mm 0.00 in0.0 mm 0.00 in0.0 mm
04:02 AM 4.3°F-15.4°C -1.8°F-18.8°C 75% 8.0 mph NW12.9 kmh NW 11.0 mph17.7 kmh 30.27 in1025.1 mb 0.00 in0.0 mm 0.00 in0.0 mm 0.00 in0.0 mm
04:03 AM 4.5°F-15.3°C -1.6°F-18.7°C 75% 8.0 mph WNW12.9 kmh WNW 11.0 mph17.7 kmh 30.27 in1025.1 mb 0.00 in0.0 mm 0.00 in0.0 mm 0.00 in0.0 mm
04:04 AM 4.3°F-15.4°C -1.8°F-18.8°C 75% 8.0 mph NNW12.9 kmh NNW 11.0 mph17.7 kmh 30.27 in1025.1 mb 0.00 in0.0 mm 0.00 in0.0 mm 0.00 in0.0 mm
04:05 AM 4.3°F-15.4°C -1.8°F-18.8°C 75% 7.0 mph NW11.3 kmh NW 11.0 mph17.7 kmh 30.27 in1025.1 mb 0.00 in0.0 mm 0.00 in0.0 mm 0.00 in0.0 mm
04:06 AM 4.0°F-15.6°C -2.1°F-18.9°C 75% 7.0 mph NW11.3 kmh NW 11.0 mph17.7 kmh 30.27 in1025.1 mb 0.00 in0.0 mm 0.00 in0.0 mm 0.00 in0.0 mm
04:07 AM 4.0°F-15.6°C -2.1°F-18.9°C 75% 7.0 mph NW11.3 kmh NW 11.0 mph17.7 kmh 30.27 in1025.1 mb 0.00 in0.0 mm 0.00 in0.0 mm 0.00 in0.0 mm
04:08 AM 4.0°F-15.6°C -2.4°F-19.1°C 74% 7.0 mph NNE11.3 kmh NNE 11.0 mph17.7 kmh 30.27 in1025.1 mb 0.00 in0.0 mm 0.00 in0.0 mm 0.00 in0.0 mm
04:09 AM 4.0°F-15.6°C -2.4°F-19.1°C 74% 8.0 mph NW12.9 kmh NW 10.0 mph16.1 kmh 30.27 in1025.1 mb 0.00 in0.0 mm 0.00 in0.0 mm 0.00 in0.0 mm
04:10 AM 4.0°F-15.6°C -2.4°F-19.1°C 74% 7.0 mph NW11.3 kmh NW 9.0 mph14.5 kmh 30.27 in1025.1 mb 0.00 in0.0 mm 0.00 in0.0 mm 0.00 in0.0 mm
04:11 AM 3.9°F-15.6°C -2.8°F-19.3°C 73% 9.0 mph NNE14.5 kmh NNE 10.0 mph16.1 kmh 30.27 in1025.1 mb 0.00 in0.0 mm 0.00 in0.0 mm 0.00 in0.0 mm
04:12 AM 3.9°F-15.6°C -3.4°F-19.7°C 71% 6.0 mph NNW9.7 kmh NNW 10.0 mph16.1 kmh 30.27 in1025.1 mb 0.00 in0.0 mm 0.00 in0.0 mm 0.00 in0.0 mm
04:13 AM 3.9°F-15.6°C -2.8°F-19.3°C 73% 11.0 mph NW17.7 kmh NW 11.0 mph17.7 kmh 30.27 in1025.1 mb 0.00 in0.0 mm 0.00 in0.0 mm 0.00 in0.0 mm
04:14 AM 4.0°F-15.6°C -2.7°F-19.3°C 73% 10.0 mph NNE16.1 kmh NNE 11.0 mph17.7 kmh 30.27 in1025.1 mb 0.00 in0.0 mm 0.00 in0.0 mm 0.00 in0.0 mm
04:15 AM 3.9°F-15.6°C -2.8°F-19.3°C 73% 9.0 mph NNE14.5 kmh NNE 11.0 mph17.7 kmh 30.27 in1025.1 mb 0.00 in0.0 mm 0.00 in0.0 mm 0.00 in0.0 mm
04:16 AM 3.9°F-15.6°C -2.8°F-19.3°C 73% 7.0 mph NW11.3 kmh NW 11.0 mph17.7 kmh 30.27 in1025.1 mb 0.00 in0.0 mm 0.00 in0.0 mm 0.00 in0.0 mm
04:17 AM 3.9°F-15.6°C -2.8°F-19.3°C 73% 6.0 mph WNW9.7 kmh WNW 11.0 mph17.7 kmh 30.27 in1025.1 mb 0.00 in0.0 mm 0.00 in0.0 mm 0.00 in0.0 mm
04:18 AM 4.0°F-15.6°C -2.1°F-18.9°C 75% 7.0 mph NW11.3 kmh NW 11.0 mph17.7 kmh 30.27 in1025.1 mb 0.00 in0.0 mm 0.00 in0.0 mm 0.00 in0.0 mm
04:19 AM 4.0°F-15.6°C -2.1°F-18.9°C 75% 8.0 mph WNW12.9 kmh WNW 11.0 mph17.7 kmh 30.27 in1025.1 mb 0.00 in0.0 mm 0.00 in0.0 mm 0.00 in0.0 mm
04:20 AM 4.0°F-15.6°C -2.1°F-18.9°C 75% 11.0 mph WNW17.7 kmh WNW 13.0 mph20.9 kmh 30.27 in1025.1 mb 0.00 in0.0 mm 0.00 in0.0 mm 0.00 in0.0 mm
04:21 AM 4.3°F-15.4°C -1.8°F-18.8°C 75% 11.0 mph NW17.7 kmh NW 13.0 mph20.9 kmh 30.27 in1025.1 mb 0.00 in0.0 mm 0.00 in0.0 mm 0.00 in0.0 mm
04:22 AM 4.3°F-15.4°C -1.8°F-18.8°C 75% 7.0 mph WNW11.3 kmh WNW 13.0 mph20.9 kmh 30.27 in1025.1 mb 0.00 in0.0 mm 0.00 in0.0 mm 0.00 in0.0 mm
04:23 AM 4.0°F-15.6°C -2.7°F-19.3°C 73% 7.0 mph WNW11.3 kmh WNW 13.0 mph20.9 kmh 30.27 in1025.1 mb 0.00 in0.0 mm 0.00 in0.0 mm 0.00 in0.0 mm
04:24 AM 3.9°F-15.6°C -2.8°F-19.3°C 73% 10.0 mph WNW16.1 kmh WNW 13.0 mph20.9 kmh 30.27 in1025.1 mb 0.00 in0.0 mm 0.00 in0.0 mm 0.00 in0.0 mm
04:25 AM 4.0°F-15.6°C -2.7°F-19.3°C 73% 10.0 mph WNW16.1 kmh WNW 13.0 mph20.9 kmh 30.27 in1025.1 mb 0.00 in0.0 mm 0.00 in0.0 mm 0.00 in0.0 mm
04:26 AM 4.0°F-15.6°C -2.4°F-19.1°C 74% 7.0 mph NNW11.3 kmh NNW 13.0 mph20.9 kmh 30.26 in1024.7 mb 0.00 in0.0 mm 0.00 in0.0 mm 0.00 in0.0 mm
04:27 AM 4.0°F-15.6°C -2.4°F-19.1°C 74% 11.0 mph NW17.7 kmh NW 13.0 mph20.9 kmh 30.27 in1025.1 mb 0.00 in0.0 mm 0.00 in0.0 mm 0.00 in0.0 mm
04:28 AM 4.3°F-15.4°C -1.8°F-18.8°C 75% 9.0 mph NW14.5 kmh NW 13.0 mph20.9 kmh 30.27 in1025.1 mb 0.00 in0.0 mm 0.00 in0.0 mm 0.00 in0.0 mm
04:29 AM 4.3°F-15.4°C -1.8°F-18.8°C 75% 11.0 mph NW17.7 kmh NW 13.0 mph20.9 kmh 30.27 in1025.1 mb 0.00 in0.0 mm 0.00 in0.0 mm 0.00 in0.0 mm
04:30 AM 4.3°F-15.4°C -2.1°F-18.9°C 74% 9.0 mph NW14.5 kmh NW 11.0 mph17.7 kmh 30.27 in1025.1 mb 0.00 in0.0 mm 0.00 in0.0 mm 0.00 in0.0 mm
04:31 AM 4.0°F-15.6°C -2.4°F-19.1°C 74% 8.0 mph WNW12.9 kmh WNW 11.0 mph17.7 kmh 30.27 in1025.1 mb 0.00 in0.0 mm 0.00 in0.0 mm 0.00 in0.0 mm
04:32 AM 4.0°F-15.6°C -2.4°F-19.1°C 74% 9.0 mph NW14.5 kmh NW 11.0 mph17.7 kmh 30.27 in1025.1 mb 0.00 in0.0 mm 0.00 in0.0 mm 0.00 in0.0 mm
04:33 AM 4.0°F-15.6°C -2.7°F-19.3°C 73% 11.0 mph WNW17.7 kmh WNW 11.0 mph17.7 kmh 30.27 in1025.1 mb 0.00 in0.0 mm 0.00 in0.0 mm 0.00 in0.0 mm
04:34 AM 3.9°F-15.6°C -3.4°F-19.7°C 71% 9.0 mph NW14.5 kmh NW 11.0 mph17.7 kmh 30.27 in1025.1 mb 0.00 in0.0 mm 0.00 in0.0 mm 0.00 in0.0 mm
04:35 AM 4.0°F-15.6°C -2.1°F-18.9°C 75% 7.0 mph NW11.3 kmh NW 11.0 mph17.7 kmh 30.27 in1025.1 mb 0.00 in0.0 mm 0.00 in0.0 mm 0.00 in0.0 mm
04:36 AM 4.0°F-15.6°C -2.1°F-18.9°C 75% 9.0 mph WNW14.5 kmh WNW 11.0 mph17.7 kmh 30.27 in1025.1 mb 0.00 in0.0 mm 0.00 in0.0 mm 0.00 in0.0 mm
04:37 AM 4.3°F-15.4°C -1.6°F-18.7°C 76% 9.0 mph NW14.5 kmh NW 11.0 mph17.7 kmh 30.27 in1025.1 mb 0.00 in0.0 mm 0.00 in0.0 mm 0.00 in0.0 mm
04:38 AM 4.3°F-15.4°C -1.8°F-18.8°C 75% 9.0 mph WNW14.5 kmh WNW 11.0 mph17.7 kmh 30.27 in1025.1 mb 0.00 in0.0 mm 0.00 in0.0 mm 0.00 in0.0 mm
04:39 AM 4.0°F-15.6°C -2.4°F-19.1°C 74% 10.0 mph WNW16.1 kmh WNW 11.0 mph17.7 kmh 30.27 in1025.1 mb 0.00 in0.0 mm 0.00 in0.0 mm 0.00 in0.0 mm
04:40 AM 4.3°F-15.4°C -1.8°F-18.8°C 75% 6.0 mph NNW9.7 kmh NNW 11.0 mph17.7 kmh 30.27 in1025.1 mb 0.00 in0.0 mm 0.00 in0.0 mm 0.00 in0.0 mm
04:41 AM 4.3°F-15.4°C -1.6°F-18.7°C 76% 10.0 mph NW16.1 kmh NW 11.0 mph17.7 kmh 30.27 in1025.1 mb 0.00 in0.0 mm 0.00 in0.0 mm 0.00 in0.0 mm
04:42 AM 4.3°F-15.4°C -1.8°F-18.8°C 75% 8.0 mph 12.9 kmh 11.0 mph17.7 kmh 30.27 in1025.1 mb 0.00 in0.0 mm 0.00 in0.0 mm 0.00 in0.0 mm
04:43 AM 4.3°F-15.4°C -1.8°F-18.8°C 75% 6.0 mph NW9.7 kmh NW 11.0 mph17.7 kmh 30.27 in1025.1 mb 0.00 in0.0 mm 0.00 in0.0 mm 0.00 in0.0 mm
04:44 AM 4.3°F-15.4°C -1.8°F-18.8°C 75% 10.0 mph NW16.1 kmh NW 11.0 mph17.7 kmh 30.28 in1025.4 mb 0.00 in0.0 mm 0.00 in0.0 mm 0.00 in0.0 mm
04:45 AM 4.0°F-15.6°C -2.4°F-19.1°C 74% 9.0 mph WNW14.5 kmh WNW 11.0 mph17.7 kmh 30.27 in1025.1 mb 0.00 in0.0 mm 0.00 in0.0 mm 0.00 in0.0 mm
04:46 AM 4.0°F-15.6°C -2.4°F-19.1°C 74% 10.0 mph NW16.1 kmh NW 11.0 mph17.7 kmh 30.27 in1025.1 mb 0.00 in0.0 mm 0.00 in0.0 mm 0.00 in0.0 mm
04:47 AM 4.0°F-15.6°C -2.1°F-18.9°C 75% 11.0 mph NW17.7 kmh NW 11.0 mph17.7 kmh 30.28 in1025.4 mb 0.00 in0.0 mm 0.00 in0.0 mm 0.00 in0.0 mm
04:48 AM 4.0°F-15.6°C -2.4°F-19.1°C 74% 9.0 mph NNW14.5 kmh NNW 11.0 mph17.7 kmh 30.28 in1025.4 mb 0.00 in0.0 mm 0.00 in0.0 mm 0.00 in0.0 mm
04:49 AM 4.0°F-15.6°C -2.4°F-19.1°C 74% 11.0 mph NNE17.7 kmh NNE 11.0 mph17.7 kmh 30.28 in1025.4 mb 0.00 in0.0 mm 0.00 in0.0 mm 0.00 in0.0 mm
04:50 AM 3.9°F-15.6°C -2.8°F-19.3°C 73% 9.0 mph NW14.5 kmh NW 11.0 mph17.7 kmh 30.27 in1025.1 mb 0.00 in0.0 mm 0.00 in0.0 mm 0.00 in0.0 mm
04:51 AM 4.0°F-15.6°C -2.7°F-19.3°C 73% 8.0 mph WNW12.9 kmh WNW 11.0 mph17.7 kmh 30.27 in1025.1 mb 0.00 in0.0 mm 0.00 in0.0 mm 0.00 in0.0 mm
04:52 AM 4.3°F-15.4°C -1.6°F-18.7°C 76% 8.0 mph NW12.9 kmh NW 11.0 mph17.7 kmh 30.27 in1025.1 mb 0.00 in0.0 mm 0.00 in0.0 mm 0.00 in0.0 mm
04:53 AM 4.5°F-15.3°C -0.8°F-18.2°C 78% 9.0 mph NW14.5 kmh NW 11.0 mph17.7 kmh 30.27 in1025.1 mb 0.00 in0.0 mm 0.00 in0.0 mm 0.00 in0.0 mm
04:54 AM 4.3°F-15.4°C -1.8°F-18.8°C 75% 9.0 mph WNW14.5 kmh WNW 11.0 mph17.7 kmh 30.27 in1025.1 mb 0.00 in0.0 mm 0.00 in0.0 mm 0.00 in0.0 mm
04:55 AM 4.3°F-15.4°C -1.6°F-18.7°C 76% 10.0 mph WNW16.1 kmh WNW 11.0 mph17.7 kmh 30.27 in1025.1 mb 0.00 in0.0 mm 0.00 in0.0 mm 0.00 in0.0 mm
04:56 AM 4.5°F-15.3°C -1.4°F-18.6°C 76% 9.0 mph WNW14.5 kmh WNW 11.0 mph17.7 kmh 30.27 in1025.1 mb 0.00 in0.0 mm 0.00 in0.0 mm 0.00 in0.0 mm
04:57 AM 4.3°F-15.4°C -1.8°F-18.8°C 75% 10.0 mph WNW16.1 kmh WNW 11.0 mph17.7 kmh 30.27 in1025.1 mb 0.00 in0.0 mm 0.00 in0.0 mm 0.00 in0.0 mm
04:58 AM 4.0°F-15.6°C -2.4°F-19.1°C 74% 8.0 mph NNW12.9 kmh NNW 11.0 mph17.7 kmh 30.27 in1025.1 mb 0.00 in0.0 mm 0.00 in0.0 mm 0.00 in0.0 mm
04:59 AM 4.0°F-15.6°C -2.1°F-18.9°C 75% 9.0 mph WNW14.5 kmh WNW 11.0 mph17.7 kmh 30.27 in1025.1 mb 0.00 in0.0 mm 0.00 in0.0 mm 0.00 in0.0 mm
05:00 AM 4.0°F-15.6°C -2.1°F-18.9°C 75% 8.0 mph WNW12.9 kmh WNW 11.0 mph17.7 kmh 30.27 in1025.1 mb 0.00 in0.0 mm 0.00 in0.0 mm 0.00 in0.0 mm
05:01 AM 4.0°F-15.6°C -2.1°F-18.9°C 75% 8.0 mph WNW12.9 kmh WNW 11.0 mph17.7 kmh 30.28 in1025.4 mb 0.00 in0.0 mm 0.00 in0.0 mm 0.00 in0.0 mm
05:02 AM 4.0°F-15.6°C -2.1°F-18.9°C 75% 8.0 mph WNW12.9 kmh WNW 11.0 mph17.7 kmh 30.28 in1025.4 mb 0.00 in0.0 mm 0.00 in0.0 mm 0.00 in0.0 mm
05:03 AM 3.9°F-15.6°C -2.2°F-19.0°C 75% 8.0 mph NW12.9 kmh NW 11.0 mph17.7 kmh 30.28 in1025.4 mb 0.00 in0.0 mm 0.00 in0.0 mm 0.00 in0.0 mm
05:04 AM 3.9°F-15.6°C -2.2°F-19.0°C 75% 9.0 mph NNW14.5 kmh NNW 11.0 mph17.7 kmh 30.28 in1025.4 mb 0.00 in0.0 mm 0.00 in0.0 mm 0.00 in0.0 mm
05:05 AM 4.0°F-15.6°C -2.1°F-18.9°C 75% 11.0 mph WNW17.7 kmh WNW 11.0 mph17.7 kmh 30.28 in1025.4 mb 0.00 in0.0 mm 0.00 in0.0 mm 0.00 in0.0 mm
05:06 AM 3.9°F-15.6°C -2.2°F-19.0°C 75% 9.0 mph WNW14.5 kmh WNW 11.0 mph17.7 kmh 30.28 in1025.4 mb 0.00 in0.0 mm 0.00 in0.0 mm 0.00 in0.0 mm
05:07 AM 3.9°F-15.6°C -2.5°F-19.2°C 74% 8.0 mph WNW12.9 kmh WNW 11.0 mph17.7 kmh 30.28 in1025.4 mb 0.00 in0.0 mm 0.00 in0.0 mm 0.00 in0.0 mm
05:08 AM 3.9°F-15.6°C -2.2°F-19.0°C 75% 8.0 mph NW12.9 kmh NW 11.0 mph17.7 kmh 30.28 in1025.4 mb 0.00 in0.0 mm 0.00 in0.0 mm 0.00 in0.0 mm
05:09 AM 4.0°F-15.6°C -2.1°F-18.9°C 75% 7.0 mph WNW11.3 kmh WNW 11.0 mph17.7 kmh 30.28 in1025.4 mb 0.00 in0.0 mm 0.00 in0.0 mm 0.00 in0.0 mm
05:10 AM 3.9°F-15.6°C -2.5°F-19.2°C 74% 8.0 mph NNW12.9 kmh NNW 11.0 mph17.7 kmh 30.28 in1025.4 mb 0.00 in0.0 mm 0.00 in0.0 mm 0.00 in0.0 mm
05:11 AM 3.9°F-15.6°C -2.5°F-19.2°C 74% 10.0 mph NNW16.1 kmh NNW 11.0 mph17.7 kmh 30.28 in1025.4 mb 0.00 in0.0 mm 0.00 in0.0 mm 0.00 in0.0 mm
05:12 AM 3.7°F-15.7°C -2.7°F-19.3°C 74% 9.0 mph NNW14.5 kmh NNW 11.0 mph17.7 kmh 30.28 in1025.4 mb 0.00 in0.0 mm 0.00 in0.0 mm 0.00 in0.0 mm
05:14 AM 3.5°F-15.8°C -3.2°F-19.6°C 73% 7.0 mph WNW11.3 kmh WNW 11.0 mph17.7 kmh 30.28 in1025.4 mb 0.00 in0.0 mm 0.00 in0.0 mm 0.00 in0.0 mm
05:15 AM 3.7°F-15.7°C -2.4°F-19.1°C 75% 8.0 mph W12.9 kmh W 11.0 mph17.7 kmh 30.28 in1025.4 mb 0.00 in0.0 mm 0.00 in0.0 mm 0.00 in0.0 mm
05:16 AM 3.9°F-15.6°C -2.2°F-19.0°C 75% 6.0 mph NW9.7 kmh NW 11.0 mph17.7 kmh 30.28 in1025.4 mb 0.00 in0.0 mm 0.00 in0.0 mm 0.00 in0.0 mm
05:17 AM 3.5°F-15.8°C -3.2°F-19.6°C 73% 8.0 mph WNW12.9 kmh WNW 10.0 mph16.1 kmh 30.28 in1025.4 mb 0.00 in0.0 mm 0.00 in0.0 mm 0.00 in0.0 mm
05:18 AM 3.5°F-15.8°C -3.8°F-19.9°C 71% 7.0 mph WNW11.3 kmh WNW 10.0 mph16.1 kmh 30.28 in1025.4 mb 0.00 in0.0 mm 0.00 in0.0 mm 0.00 in0.0 mm
05:19 AM 3.4°F-15.9°C -3.8°F-19.9°C 71% 10.0 mph NW16.1 kmh NW 12.0 mph19.3 kmh 30.28 in1025.4 mb 0.00 in0.0 mm 0.00 in0.0 mm 0.00 in0.0 mm
05:20 AM 3.4°F-15.9°C -3.3°F-19.6°C 73% 5.0 mph 8.0 kmh 12.0 mph19.3 kmh 30.29 in1025.7 mb 0.00 in0.0 mm 0.00 in0.0 mm 0.00 in0.0 mm
05:21 AM 3.5°F-15.8°C -2.6°F-19.2°C 75% 7.0 mph WNW11.3 kmh WNW 12.0 mph19.3 kmh 30.28 in1025.4 mb 0.00 in0.0 mm 0.00 in0.0 mm 0.00 in0.0 mm
05:22 AM 3.7°F-15.7°C -2.2°F-19.0°C 76% 6.0 mph WNW9.7 kmh WNW 12.0 mph19.3 kmh 30.28 in1025.4 mb 0.00 in0.0 mm 0.00 in0.0 mm 0.00 in0.0 mm
05:23 AM 3.7°F-15.7°C -2.2°F-19.0°C 76% 6.0 mph WNW9.7 kmh WNW 12.0 mph19.3 kmh 30.28 in1025.4 mb 0.00 in0.0 mm 0.00 in0.0 mm 0.00 in0.0 mm
05:24 AM 3.7°F-15.7°C -2.2°F-19.0°C 76% 6.0 mph NW9.7 kmh NW 12.0 mph19.3 kmh 30.28 in1025.4 mb 0.00 in0.0 mm 0.00 in0.0 mm 0.00 in0.0 mm
05:25 AM 3.7°F-15.7°C -2.4°F-19.1°C 75% 7.0 mph NW11.3 kmh NW 12.0 mph19.3 kmh 30.28 in1025.4 mb 0.00 in0.0 mm 0.00 in0.0 mm 0.00 in0.0 mm
05:26 AM 3.5°F-15.8°C -2.6°F-19.2°C 75% 8.0 mph WNW12.9 kmh WNW 12.0 mph19.3 kmh 30.29 in1025.7 mb 0.00 in0.0 mm 0.00 in0.0 mm 0.00 in0.0 mm
05:27 AM 3.5°F-15.8°C -2.9°F-19.4°C 74% 7.0 mph WNW11.3 kmh WNW 12.0 mph19.3 kmh 30.29 in1025.7 mb 0.00 in0.0 mm 0.00 in0.0 mm 0.00 in0.0 mm
05:28 AM 3.7°F-15.7°C -2.4°F-19.1°C 75% 9.0 mph WNW14.5 kmh WNW 12.0 mph19.3 kmh 30.29 in1025.7 mb 0.00 in0.0 mm 0.00 in0.0 mm 0.00 in0.0 mm
05:29 AM 3.5°F-15.8°C -2.6°F-19.2°C 75% 10.0 mph WNW16.1 kmh WNW 11.0 mph17.7 kmh 30.29 in1025.7 mb 0.00 in0.0 mm 0.00 in0.0 mm 0.00 in0.0 mm
05:30 AM 3.5°F-15.8°C -2.9°F-19.4°C 74% 8.0 mph NW12.9 kmh NW 11.0 mph17.7 kmh 30.29 in1025.7 mb 0.00 in0.0 mm 0.00 in0.0 mm 0.00 in0.0 mm
05:31 AM 3.5°F-15.8°C -2.6°F-19.2°C 75% 7.0 mph WNW11.3 kmh WNW 11.0 mph17.7 kmh 30.29 in1025.7 mb 0.00 in0.0 mm 0.00 in0.0 mm 0.00 in0.0 mm
05:32 AM 3.4°F-15.9°C -3.3°F-19.6°C 73% 8.0 mph W12.9 kmh W 11.0 mph17.7 kmh 30.29 in1025.7 mb 0.00 in0.0 mm 0.00 in0.0 mm 0.00 in0.0 mm
05:33 AM 3.1°F-16.1°C -4.1°F-20.1°C 71% 8.0 mph WNW12.9 kmh WNW 11.0 mph17.7 kmh 30.29 in1025.7 mb 0.00 in0.0 mm 0.00 in0.0 mm 0.00 in0.0 mm
05:34 AM 3.4°F-15.9°C -3.0°F-19.4°C 74% 8.0 mph WNW12.9 kmh WNW 13.0 mph20.9 kmh 30.29 in1025.7 mb 0.00 in0.0 mm 0.00 in0.0 mm 0.00 in0.0 mm
05:35 AM 3.4°F-15.9°C -3.0°F-19.4°C 74% 10.0 mph NW16.1 kmh NW 13.0 mph20.9 kmh 30.29 in1025.7 mb 0.00 in0.0 mm 0.00 in0.0 mm 0.00 in0.0 mm
05:36 AM 3.4°F-15.9°C -3.3°F-19.6°C 73% 10.0 mph NNW16.1 kmh NNW 13.0 mph20.9 kmh 30.28 in1025.4 mb 0.00 in0.0 mm 0.00 in0.0 mm 0.00 in0.0 mm
05:37 AM 3.1°F-16.1°C -3.6°F-19.8°C 73% 9.0 mph WNW14.5 kmh WNW 13.0 mph20.9 kmh 30.29 in1025.7 mb 0.00 in0.0 mm 0.00 in0.0 mm 0.00 in0.0 mm
05:38 AM 3.4°F-15.9°C -3.0°F-19.4°C 74% 10.0 mph WNW16.1 kmh WNW 13.0 mph20.9 kmh 30.28 in1025.4 mb 0.00 in0.0 mm 0.00 in0.0 mm 0.00 in0.0 mm
05:39 AM 3.4°F-15.9°C -2.7°F-19.3°C 75% 9.0 mph NW14.5 kmh NW 13.0 mph20.9 kmh 30.29 in1025.7 mb 0.00 in0.0 mm 0.00 in0.0 mm 0.00 in0.0 mm
05:40 AM 3.4°F-15.9°C -2.7°F-19.3°C 75% 11.0 mph WNW17.7 kmh WNW 13.0 mph20.9 kmh 30.29 in1025.7 mb 0.00 in0.0 mm 0.00 in0.0 mm 0.00 in0.0 mm
05:41 AM 3.5°F-15.8°C -2.6°F-19.2°C 75% 12.0 mph NW19.3 kmh NW 13.0 mph20.9 kmh 30.29 in1025.7 mb 0.00 in0.0 mm 0.00 in0.0 mm 0.00 in0.0 mm
05:42 AM 3.5°F-15.8°C -2.6°F-19.2°C 75% 13.0 mph NW20.9 kmh NW 13.0 mph20.9 kmh 30.29 in1025.7 mb 0.00 in0.0 mm 0.00 in0.0 mm 0.00 in0.0 mm
05:43 AM 3.4°F-15.9°C -3.3°F-19.6°C 73% 7.0 mph WNW11.3 kmh WNW 13.0 mph20.9 kmh 30.29 in1025.7 mb 0.00 in0.0 mm 0.00 in0.0 mm 0.00 in0.0 mm
05:44 AM 3.5°F-15.8°C -2.6°F-19.2°C 75% 4.0 mph NNW6.4 kmh NNW 13.0 mph20.9 kmh 30.29 in1025.7 mb 0.00 in0.0 mm 0.00 in0.0 mm 0.00 in0.0 mm
05:45 AM 3.7°F-15.7°C -2.2°F-19.0°C 76% 8.0 mph NNW12.9 kmh NNW 13.0 mph20.9 kmh 30.29 in1025.7 mb 0.00 in0.0 mm 0.00 in0.0 mm 0.00 in0.0 mm
05:46 AM 3.5°F-15.8°C -2.6°F-19.2°C 75% 9.0 mph NNW14.5 kmh NNW 13.0 mph20.9 kmh 30.29 in1025.7 mb 0.00 in0.0 mm 0.00 in0.0 mm 0.00 in0.0 mm
05:47 AM 3.5°F-15.8°C -2.6°F-19.2°C 75% 9.0 mph WNW14.5 kmh WNW 13.0 mph20.9 kmh 30.29 in1025.7 mb 0.00 in0.0 mm 0.00 in0.0 mm 0.00 in0.0 mm
05:48 AM 3.5°F-15.8°C -1.8°F-18.8°C 78% 12.0 mph 19.3 kmh 13.0 mph20.9 kmh 30.29 in1025.7 mb 0.00 in0.0 mm 0.00 in0.0 mm 0.00 in0.0 mm
05:49 AM 3.5°F-15.8°C -2.6°F-19.2°C 75% 9.0 mph WNW14.5 kmh WNW 13.0 mph20.9 kmh 30.29 in1025.7 mb 0.00 in0.0 mm 0.00 in0.0 mm 0.00 in0.0 mm
05:50 AM 3.5°F-15.8°C -2.6°F-19.2°C 75% 9.0 mph NW14.5 kmh NW 13.0 mph20.9 kmh 30.29 in1025.7 mb 0.00 in0.0 mm 0.00 in0.0 mm 0.00 in0.0 mm
05:51 AM 3.4°F-15.9°C -3.0°F-19.4°C 74% 5.0 mph NNW8.0 kmh NNW 13.0 mph20.9 kmh 30.29 in1025.7 mb 0.00 in0.0 mm 0.00 in0.0 mm 0.00 in0.0 mm
05:52 AM 3.5°F-15.8°C -2.6°F-19.2°C 75% 7.0 mph NW11.3 kmh NW 13.0 mph20.9 kmh 30.29 in1025.7 mb 0.00 in0.0 mm 0.00 in0.0 mm 0.00 in0.0 mm
05:53 AM 3.7°F-15.7°C -1.6°F-18.7°C 78% 6.0 mph NNW9.7 kmh NNW 13.0 mph20.9 kmh 30.29 in1025.7 mb 0.00 in0.0 mm 0.00 in0.0 mm 0.00 in0.0 mm
05:54 AM 3.7°F-15.7°C -1.6°F-18.7°C 78% 7.0 mph WNW11.3 kmh WNW 13.0 mph20.9 kmh 30.29 in1025.7 mb 0.00 in0.0 mm 0.00 in0.0 mm 0.00 in0.0 mm
05:55 AM 3.5°F-15.8°C -2.6°F-19.2°C 75% 9.0 mph NW14.5 kmh NW 13.0 mph20.9 kmh 30.29 in1025.7 mb 0.00 in0.0 mm 0.00 in0.0 mm 0.00 in0.0 mm
05:56 AM 3.4°F-15.9°C -3.0°F-19.4°C 74% 9.0 mph W14.5 kmh W 13.0 mph20.9 kmh 30.29 in1025.7 mb 0.00 in0.0 mm 0.00 in0.0 mm 0.00 in0.0 mm
05:57 AM 3.4°F-15.9°C -3.0°F-19.4°C 74% 12.0 mph WNW19.3 kmh WNW 13.0 mph20.9 kmh 30.29 in1025.7 mb 0.00 in0.0 mm 0.00 in0.0 mm 0.00 in0.0 mm
05:58 AM 3.4°F-15.9°C -2.7°F-19.3°C 75% 10.0 mph WNW16.1 kmh WNW 13.0 mph20.9 kmh 30.29 in1025.7 mb 0.00 in0.0 mm 0.00 in0.0 mm 0.00 in0.0 mm
05:59 AM 3.4°F-15.9°C -2.7°F-19.3°C 75% 6.0 mph NW9.7 kmh NW 13.0 mph20.9 kmh 30.29 in1025.7 mb 0.00 in0.0 mm 0.00 in0.0 mm 0.00 in0.0 mm
06:00 AM 3.1°F-16.1°C -3.0°F-19.4°C 75% 9.0 mph NNW14.5 kmh NNW 13.0 mph20.9 kmh 30.29 in1025.7 mb 0.00 in0.0 mm 0.00 in0.0 mm 0.00 in0.0 mm
06:01 AM 3.1°F-16.1°C -3.3°F-19.6°C 74% 11.0 mph NNW17.7 kmh NNW 13.0 mph20.9 kmh 30.29 in1025.7 mb 0.00 in0.0 mm 0.00 in0.0 mm 0.00 in0.0 mm
06:02 AM 3.1°F-16.1°C -3.0°F-19.4°C 75% 9.0 mph NNW14.5 kmh NNW 13.0 mph20.9 kmh 30.29 in1025.7 mb 0.00 in0.0 mm 0.00 in0.0 mm 0.00 in0.0 mm
06:03 AM 3.0°F-16.1°C -3.4°F-19.7°C 74% 9.0 mph NW14.5 kmh NW 13.0 mph20.9 kmh 30.30 in1026.1 mb 0.00 in0.0 mm 0.00 in0.0 mm 0.00 in0.0 mm
06:04 AM 3.0°F-16.1°C -3.4°F-19.7°C 74% 9.0 mph NW14.5 kmh NW 13.0 mph20.9 kmh 30.29 in1025.7 mb 0.00 in0.0 mm 0.00 in0.0 mm 0.00 in0.0 mm
06:05 AM 3.0°F-16.1°C -3.4°F-19.7°C 74% 9.0 mph WNW14.5 kmh WNW 13.0 mph20.9 kmh 30.29 in1025.7 mb 0.00 in0.0 mm 0.00 in0.0 mm 0.00 in0.0 mm
06:06 AM 3.0°F-16.1°C -3.7°F-19.8°C 73% 7.0 mph WNW11.3 kmh WNW 12.0 mph19.3 kmh 30.29 in1025.7 mb 0.00 in0.0 mm 0.00 in0.0 mm 0.00 in0.0 mm
06:07 AM 3.0°F-16.1°C -3.7°F-19.8°C 73% 8.0 mph W12.9 kmh W 11.0 mph17.7 kmh 30.29 in1025.7 mb 0.00 in0.0 mm 0.00 in0.0 mm 0.00 in0.0 mm
06:08 AM 3.1°F-16.1°C -3.0°F-19.4°C 75% 7.0 mph WNW11.3 kmh WNW 11.0 mph17.7 kmh 30.29 in1025.7 mb 0.00 in0.0 mm 0.00 in0.0 mm 0.00 in0.0 mm
06:09 AM 3.1°F-16.1°C -3.3°F-19.6°C 74% 8.0 mph NW12.9 kmh NW 11.0 mph17.7 kmh 30.29 in1025.7 mb 0.00 in0.0 mm 0.00 in0.0 mm 0.00 in0.0 mm
06:10 AM 3.0°F-16.1°C -3.1°F-19.5°C 75% 7.0 mph WNW11.3 kmh WNW 11.0 mph17.7 kmh 30.29 in1025.7 mb 0.00 in0.0 mm 0.00 in0.0 mm 0.00 in0.0 mm
06:11 AM 3.1°F-16.1°C -3.0°F-19.4°C 75% 8.0 mph NW12.9 kmh NW 11.0 mph17.7 kmh 30.29 in1025.7 mb 0.00 in0.0 mm 0.00 in0.0 mm 0.00 in0.0 mm
06:12 AM 3.4°F-15.9°C -2.4°F-19.1°C 76% 8.0 mph 12.9 kmh 11.0 mph17.7 kmh 30.29 in1025.7 mb 0.00 in0.0 mm 0.00 in0.0 mm 0.00 in0.0 mm
06:13 AM 3.5°F-15.8°C -1.5°F-18.6°C 79% 10.0 mph NNW16.1 kmh NNW 11.0 mph17.7 kmh 30.29 in1025.7 mb 0.00 in0.0 mm 0.00 in0.0 mm 0.00 in0.0 mm
06:14 AM 3.7°F-15.7°C -1.1°F-18.4°C 80% 9.0 mph NNW14.5 kmh NNW 13.0 mph20.9 kmh 30.29 in1025.7 mb 0.00 in0.0 mm 0.00 in0.0 mm 0.00 in0.0 mm
06:15 AM 3.4°F-15.9°C -2.7°F-19.3°C 75% 9.0 mph NW14.5 kmh NW 13.0 mph20.9 kmh 30.30 in1026.1 mb 0.00 in0.0 mm 0.00 in0.0 mm 0.00 in0.0 mm
06:16 AM 3.4°F-15.9°C -2.7°F-19.3°C 75% 9.0 mph NW14.5 kmh NW 13.0 mph20.9 kmh 30.30 in1026.1 mb 0.00 in0.0 mm 0.00 in0.0 mm 0.00 in0.0 mm
06:17 AM 3.4°F-15.9°C -2.4°F-19.1°C 76% 8.0 mph NW12.9 kmh NW 13.0 mph20.9 kmh 30.30 in1026.1 mb 0.00 in0.0 mm 0.00 in0.0 mm 0.00 in0.0 mm
06:18 AM 3.1°F-16.1°C -3.0°F-19.4°C 75% 11.0 mph W17.7 kmh W 13.0 mph20.9 kmh 30.29 in1025.7 mb 0.00 in0.0 mm 0.00 in0.0 mm 0.00 in0.0 mm
06:19 AM 3.1°F-16.1°C -3.0°F-19.4°C 75% 10.0 mph NNW16.1 kmh NNW 13.0 mph20.9 kmh 30.29 in1025.7 mb 0.00 in0.0 mm 0.00 in0.0 mm 0.00 in0.0 mm
06:20 AM 3.1°F-16.1°C -3.3°F-19.6°C 74% 9.0 mph WNW14.5 kmh WNW 13.0 mph20.9 kmh 30.29 in1025.7 mb 0.00 in0.0 mm 0.00 in0.0 mm 0.00 in0.0 mm
06:21 AM 3.1°F-16.1°C -3.0°F-19.4°C 75% 8.0 mph WNW12.9 kmh WNW 13.0 mph20.9 kmh 30.30 in1026.1 mb 0.00 in0.0 mm 0.00 in0.0 mm 0.00 in0.0 mm
06:23 AM 3.1°F-16.1°C -3.0°F-19.4°C 75% 11.0 mph WNW17.7 kmh WNW 13.0 mph20.9 kmh 30.30 in1026.1 mb 0.00 in0.0 mm 0.00 in0.0 mm 0.00 in0.0 mm
06:24 AM 3.1°F-16.1°C -3.0°F-19.4°C 75% 8.0 mph NW12.9 kmh NW 11.0 mph17.7 kmh 30.29 in1025.7 mb 0.00 in0.0 mm 0.00 in0.0 mm 0.00 in0.0 mm
06:25 AM 3.5°F-15.8°C -1.3°F-18.5°C 80% 12.0 mph NW19.3 kmh NW 12.0 mph19.3 kmh 30.29 in1025.7 mb 0.00 in0.0 mm 0.00 in0.0 mm 0.00 in0.0 mm
06:26 AM 3.4°F-15.9°C -1.9°F-18.8°C 78% 12.0 mph WNW19.3 kmh WNW 12.0 mph19.3 kmh 30.29 in1025.7 mb 0.00 in0.0 mm 0.00 in0.0 mm 0.00 in0.0 mm
06:27 AM 3.0°F-16.1°C -3.1°F-19.5°C 75% 10.0 mph NW16.1 kmh NW 13.0 mph20.9 kmh 30.29 in1025.7 mb 0.00 in0.0 mm 0.00 in0.0 mm 0.00 in0.0 mm
06:28 AM 3.1°F-16.1°C -2.7°F-19.3°C 76% 11.0 mph NW17.7 kmh NW 13.0 mph20.9 kmh 30.29 in1025.7 mb 0.00 in0.0 mm 0.00 in0.0 mm 0.00 in0.0 mm
06:29 AM 3.0°F-16.1°C -3.1°F-19.5°C 75% 10.0 mph NW16.1 kmh NW 13.0 mph20.9 kmh 30.30 in1026.1 mb 0.00 in0.0 mm 0.00 in0.0 mm 0.00 in0.0 mm
06:30 AM 3.0°F-16.1°C -3.1°F-19.5°C 75% 9.0 mph NNW14.5 kmh NNW 13.0 mph20.9 kmh 30.29 in1025.7 mb 0.00 in0.0 mm 0.00 in0.0 mm 0.00 in0.0 mm
06:31 AM 3.0°F-16.1°C -3.4°F-19.7°C 74% 12.0 mph NNW19.3 kmh NNW 13.0 mph20.9 kmh 30.29 in1025.7 mb 0.00 in0.0 mm 0.00 in0.0 mm 0.00 in0.0 mm
06:32 AM 3.1°F-16.1°C -2.7°F-19.3°C 76% 10.0 mph NW16.1 kmh NW 13.0 mph20.9 kmh 30.29 in1025.7 mb 0.00 in0.0 mm 0.00 in0.0 mm 0.00 in0.0 mm
06:33 AM 3.1°F-16.1°C -2.2°F-19.0°C 78% 9.0 mph W14.5 kmh W 13.0 mph20.9 kmh 30.30 in1026.1 mb 0.00 in0.0 mm 0.00 in0.0 mm 0.00 in0.0 mm
06:34 AM 3.1°F-16.1°C -2.7°F-19.3°C 76% 11.0 mph NW17.7 kmh NW 13.0 mph20.9 kmh 30.30 in1026.1 mb 0.00 in0.0 mm 0.00 in0.0 mm 0.00 in0.0 mm
06:35 AM 3.4°F-15.9°C -1.6°F-18.7°C 79% 11.0 mph WNW17.7 kmh WNW 13.0 mph20.9 kmh 30.30 in1026.1 mb 0.00 in0.0 mm 0.00 in0.0 mm 0.00 in0.0 mm
06:36 AM 3.4°F-15.9°C -1.6°F-18.7°C 79% 11.0 mph WNW17.7 kmh WNW 13.0 mph20.9 kmh 30.30 in1026.1 mb 0.00 in0.0 mm 0.00 in0.0 mm 0.00 in0.0 mm
06:37 AM 3.4°F-15.9°C -2.4°F-19.1°C 76% 10.0 mph NW16.1 kmh NW 13.0 mph20.9 kmh 30.30 in1026.1 mb 0.00 in0.0 mm 0.00 in0.0 mm 0.00 in0.0 mm
06:38 AM 3.1°F-16.1°C -3.0°F-19.4°C 75% 8.0 mph NW12.9 kmh NW 13.0 mph20.9 kmh 30.30 in1026.1 mb 0.00 in0.0 mm 0.00 in0.0 mm 0.00 in0.0 mm
06:39 AM 3.1°F-16.1°C -2.7°F-19.3°C 76% 13.0 mph NW20.9 kmh NW 13.0 mph20.9 kmh 30.30 in1026.1 mb 0.00 in0.0 mm 0.00 in0.0 mm 0.00 in0.0 mm
06:40 AM 3.1°F-16.1°C -2.7°F-19.3°C 76% 10.0 mph NW16.1 kmh NW 13.0 mph20.9 kmh 30.30 in1026.1 mb 0.00 in0.0 mm 0.00 in0.0 mm 0.00 in0.0 mm
06:41 AM 3.1°F-16.1°C -2.7°F-19.3°C 76% 10.0 mph NW16.1 kmh NW 13.0 mph20.9 kmh 30.30 in1026.1 mb 0.00 in0.0 mm 0.00 in0.0 mm 0.00 in0.0 mm
06:42 AM 3.1°F-16.1°C -2.7°F-19.3°C 76% 9.0 mph NNW14.5 kmh NNW 13.0 mph20.9 kmh 30.30 in1026.1 mb 0.00 in0.0 mm 0.00 in0.0 mm 0.00 in0.0 mm
06:43 AM 3.1°F-16.1°C -2.7°F-19.3°C 76% 7.0 mph NW11.3 kmh NW 13.0 mph20.9 kmh 30.30 in1026.1 mb 0.00 in0.0 mm 0.00 in0.0 mm 0.00 in0.0 mm
06:44 AM 2.7°F-16.3°C -3.7°F-19.8°C 74% 8.0 mph NW12.9 kmh NW 13.0 mph20.9 kmh 30.30 in1026.1 mb 0.00 in0.0 mm 0.00 in0.0 mm 0.00 in0.0 mm
06:45 AM 2.7°F-16.3°C -3.4°F-19.7°C 75% 10.0 mph WNW16.1 kmh WNW 13.0 mph20.9 kmh 30.30 in1026.1 mb 0.00 in0.0 mm 0.00 in0.0 mm 0.00 in0.0 mm
06:46 AM 2.7°F-16.3°C -3.4°F-19.7°C 75% 10.0 mph NW16.1 kmh NW 13.0 mph20.9 kmh 30.30 in1026.1 mb 0.00 in0.0 mm 0.00 in0.0 mm 0.00 in0.0 mm
06:47 AM 3.0°F-16.1°C -2.8°F-19.3°C 76% 9.0 mph WNW14.5 kmh WNW 13.0 mph20.9 kmh 30.30 in1026.1 mb 0.00 in0.0 mm 0.00 in0.0 mm 0.00 in0.0 mm
06:48 AM 3.0°F-16.1°C -3.1°F-19.5°C 75% 10.0 mph WNW16.1 kmh WNW 13.0 mph20.9 kmh 30.30 in1026.1 mb 0.00 in0.0 mm 0.00 in0.0 mm 0.00 in0.0 mm
06:49 AM 3.0°F-16.1°C -3.4°F-19.7°C 74% 11.0 mph WNW17.7 kmh WNW 13.0 mph20.9 kmh 30.30 in1026.1 mb 0.00 in0.0 mm 0.00 in0.0 mm 0.00 in0.0 mm
06:50 AM 3.0°F-16.1°C -2.8°F-19.3°C 76% 9.0 mph WNW14.5 kmh WNW 13.0 mph20.9 kmh 30.30 in1026.1 mb 0.00 in0.0 mm 0.00 in0.0 mm 0.00 in0.0 mm
06:51 AM 3.0°F-16.1°C -2.8°F-19.3°C 76% 11.0 mph NW17.7 kmh NW 15.0 mph24.1 kmh 30.30 in1026.1 mb 0.00 in0.0 mm 0.00 in0.0 mm 0.00 in0.0 mm
06:52 AM 3.0°F-16.1°C -2.3°F-19.1°C 78% 9.0 mph NW14.5 kmh NW 15.0 mph24.1 kmh 30.30 in1026.1 mb 0.00 in0.0 mm 0.00 in0.0 mm 0.00 in0.0 mm
06:53 AM 3.1°F-16.1°C -1.7°F-18.7°C 80% 11.0 mph NW17.7 kmh NW 15.0 mph24.1 kmh 30.30 in1026.1 mb 0.00 in0.0 mm 0.00 in0.0 mm 0.00 in0.0 mm
06:54 AM 3.1°F-16.1°C -2.2°F-19.0°C 78% 11.0 mph NW17.7 kmh NW 15.0 mph24.1 kmh 30.30 in1026.1 mb 0.00 in0.0 mm 0.00 in0.0 mm 0.00 in0.0 mm
06:55 AM 3.0°F-16.1°C -3.1°F-19.5°C 75% 9.0 mph WNW14.5 kmh WNW 15.0 mph24.1 kmh 30.30 in1026.1 mb 0.00 in0.0 mm 0.00 in0.0 mm 0.00 in0.0 mm
06:56 AM 3.0°F-16.1°C -2.8°F-19.3°C 76% 10.0 mph WNW16.1 kmh WNW 15.0 mph24.1 kmh 30.30 in1026.1 mb 0.00 in0.0 mm 0.00 in0.0 mm 0.00 in0.0 mm
06:57 AM 3.1°F-16.1°C -1.9°F-18.8°C 79% 7.0 mph NNW11.3 kmh NNW 15.0 mph24.1 kmh 30.30 in1026.1 mb 0.00 in0.0 mm 0.00 in0.0 mm 0.00 in0.0 mm
06:58 AM 3.4°F-15.9°C -1.4°F-18.6°C 80% 8.0 mph NNW12.9 kmh NNW 15.0 mph24.1 kmh 30.30 in1026.1 mb 0.00 in0.0 mm 0.00 in0.0 mm 0.00 in0.0 mm
06:59 AM 3.4°F-15.9°C -1.4°F-18.6°C 80% 11.0 mph NNW17.7 kmh NNW 15.0 mph24.1 kmh 30.30 in1026.1 mb 0.00 in0.0 mm 0.00 in0.0 mm 0.00 in0.0 mm
07:00 AM 3.1°F-16.1°C -2.2°F-19.0°C 78% 10.0 mph W16.1 kmh W 15.0 mph24.1 kmh 30.30 in1026.1 mb 0.00 in0.0 mm 0.00 in0.0 mm 0.00 in0.0 mm
07:01 AM 3.1°F-16.1°C -2.2°F-19.0°C 78% 11.0 mph W17.7 kmh W 15.0 mph24.1 kmh 30.30 in1026.1 mb 0.00 in0.0 mm 0.00 in0.0 mm 0.00 in0.0 mm
07:02 AM 3.0°F-16.1°C -2.8°F-19.3°C 76% 7.0 mph WNW11.3 kmh WNW 11.0 mph17.7 kmh 30.30 in1026.1 mb 0.00 in0.0 mm 0.00 in0.0 mm 0.00 in0.0 mm
07:03 AM 3.0°F-16.1°C -2.8°F-19.3°C 76% 11.0 mph NW17.7 kmh NW 11.0 mph17.7 kmh 30.30 in1026.1 mb 0.00 in0.0 mm 0.00 in0.0 mm 0.00 in0.0 mm
07:04 AM 3.1°F-16.1°C -1.9°F-18.8°C 79% 11.0 mph NW17.7 kmh NW 11.0 mph17.7 kmh 30.30 in1026.1 mb 0.00 in0.0 mm 0.00 in0.0 mm 0.00 in0.0 mm
07:05 AM 3.1°F-16.1°C -1.9°F-18.8°C 79% 7.0 mph NW11.3 kmh NW 11.0 mph17.7 kmh 30.30 in1026.1 mb 0.00 in0.0 mm 0.00 in0.0 mm 0.00 in0.0 mm
07:06 AM 2.7°F-16.3°C -3.4°F-19.7°C 75% 9.0 mph NW14.5 kmh NW 12.0 mph19.3 kmh 30.30 in1026.1 mb 0.00 in0.0 mm 0.00 in0.0 mm 0.00 in0.0 mm
07:07 AM 3.0°F-16.1°C -2.8°F-19.3°C 76% 8.0 mph WNW12.9 kmh WNW 12.0 mph19.3 kmh 30.30 in1026.1 mb 0.00 in0.0 mm 0.00 in0.0 mm 0.00 in0.0 mm
07:08 AM 3.0°F-16.1°C -2.8°F-19.3°C 76% 11.0 mph NNW17.7 kmh NNW 12.0 mph19.3 kmh 30.31 in1026.4 mb 0.00 in0.0 mm 0.00 in0.0 mm 0.00 in0.0 mm
07:09 AM 3.0°F-16.1°C -2.8°F-19.3°C 76% 8.0 mph NNW12.9 kmh NNW 12.0 mph19.3 kmh 30.30 in1026.1 mb 0.00 in0.0 mm 0.00 in0.0 mm 0.00 in0.0 mm
07:10 AM 2.7°F-16.3°C -3.4°F-19.7°C 75% 6.0 mph WNW9.7 kmh WNW 12.0 mph19.3 kmh 30.30 in1026.1 mb 0.00 in0.0 mm 0.00 in0.0 mm 0.00 in0.0 mm
07:11 AM 2.7°F-16.3°C -3.4°F-19.7°C 75% 11.0 mph WNW17.7 kmh WNW 12.0 mph19.3 kmh 30.31 in1026.4 mb 0.00 in0.0 mm 0.00 in0.0 mm 0.00 in0.0 mm
07:12 AM 2.7°F-16.3°C -3.4°F-19.7°C 75% 8.0 mph WNW12.9 kmh WNW 12.0 mph19.3 kmh 30.31 in1026.4 mb 0.00 in0.0 mm 0.00 in0.0 mm 0.00 in0.0 mm
07:13 AM 2.7°F-16.3°C -3.4°F-19.7°C 75% 10.0 mph WNW16.1 kmh WNW 12.0 mph19.3 kmh 30.30 in1026.1 mb 0.00 in0.0 mm 0.00 in0.0 mm 0.00 in0.0 mm
07:14 AM 2.7°F-16.3°C -3.4°F-19.7°C 75% 8.0 mph NW12.9 kmh NW 12.0 mph19.3 kmh 30.30 in1026.1 mb 0.00 in0.0 mm 0.00 in0.0 mm 0.00 in0.0 mm
07:15 AM 2.7°F-16.3°C -3.4°F-19.7°C 75% 8.0 mph NW12.9 kmh NW 12.0 mph19.3 kmh 30.30 in1026.1 mb 0.00 in0.0 mm 0.00 in0.0 mm 0.00 in0.0 mm
07:16 AM 2.7°F-16.3°C -3.4°F-19.7°C 75% 9.0 mph NW14.5 kmh NW 11.0 mph17.7 kmh 30.30 in1026.1 mb 0.00 in0.0 mm 0.00 in0.0 mm 0.00 in0.0 mm
07:17 AM 2.7°F-16.3°C -3.4°F-19.7°C 75% 9.0 mph WNW14.5 kmh WNW 11.0 mph17.7 kmh 30.30 in1026.1 mb 0.00 in0.0 mm 0.00 in0.0 mm 0.00 in0.0 mm
07:18 AM 2.7°F-16.3°C -3.4°F-19.7°C 75% 7.0 mph WNW11.3 kmh WNW 11.0 mph17.7 kmh 30.30 in1026.1 mb 0.00 in0.0 mm 0.00 in0.0 mm 0.00 in0.0 mm
07:19 AM 2.7°F-16.3°C -3.4°F-19.7°C 75% 10.0 mph NW16.1 kmh NW 11.0 mph17.7 kmh 30.31 in1026.4 mb 0.00 in0.0 mm 0.00 in0.0 mm 0.00 in0.0 mm
07:20 AM 2.7°F-16.3°C -3.4°F-19.7°C 75% 6.0 mph 9.7 kmh 11.0 mph17.7 kmh 30.31 in1026.4 mb 0.00 in0.0 mm 0.00 in0.0 mm 0.00 in0.0 mm
07:21 AM 2.7°F-16.3°C -3.4°F-19.7°C 75% 5.0 mph NNE8.0 kmh NNE 11.0 mph17.7 kmh 30.31 in1026.4 mb 0.00 in0.0 mm 0.00 in0.0 mm 0.00 in0.0 mm
07:22 AM 2.7°F-16.3°C -3.1°F-19.5°C 76% 4.0 mph NNE6.4 kmh NNE 11.0 mph17.7 kmh 30.31 in1026.4 mb 0.00 in0.0 mm 0.00 in0.0 mm 0.00 in0.0 mm
07:23 AM 2.7°F-16.3°C -2.6°F-19.2°C 78% 8.0 mph WNW12.9 kmh WNW 11.0 mph17.7 kmh 30.31 in1026.4 mb 0.00 in0.0 mm 0.00 in0.0 mm 0.00 in0.0 mm
07:24 AM 2.7°F-16.3°C -2.3°F-19.1°C 79% 9.0 mph NW14.5 kmh NW 11.0 mph17.7 kmh 30.31 in1026.4 mb 0.00 in0.0 mm 0.00 in0.0 mm 0.00 in0.0 mm
07:25 AM 3.0°F-16.1°C -2.3°F-19.1°C 78% 4.0 mph NW6.4 kmh NW 11.0 mph17.7 kmh 30.31 in1026.4 mb 0.00 in0.0 mm 0.00 in0.0 mm 0.00 in0.0 mm
07:26 AM 2.7°F-16.3°C -3.4°F-19.7°C 75% 6.0 mph WNW9.7 kmh WNW 11.0 mph17.7 kmh 30.31 in1026.4 mb 0.00 in0.0 mm 0.00 in0.0 mm 0.00 in0.0 mm
07:27 AM 2.7°F-16.3°C -3.4°F-19.7°C 75% 6.0 mph NNW9.7 kmh NNW 11.0 mph17.7 kmh 30.31 in1026.4 mb 0.00 in0.0 mm 0.00 in0.0 mm 0.00 in0.0 mm
07:28 AM 2.7°F-16.3°C -3.4°F-19.7°C 75% 12.0 mph WNW19.3 kmh WNW 12.0 mph19.3 kmh 30.31 in1026.4 mb 0.00 in0.0 mm 0.00 in0.0 mm 0.00 in0.0 mm
07:29 AM 2.5°F-16.4°C -3.6°F-19.8°C 75% 8.0 mph WNW12.9 kmh WNW 12.0 mph19.3 kmh 30.31 in1026.4 mb 0.00 in0.0 mm 0.00 in0.0 mm 0.00 in0.0 mm
07:30 AM 2.7°F-16.3°C -3.4°F-19.7°C 75% 8.0 mph NW12.9 kmh NW 12.0 mph19.3 kmh 30.31 in1026.4 mb 0.00 in0.0 mm 0.00 in0.0 mm 0.00 in0.0 mm
07:31 AM 2.7°F-16.3°C -3.4°F-19.7°C 75% 9.0 mph NW14.5 kmh NW 12.0 mph19.3 kmh 30.31 in1026.4 mb 0.00 in0.0 mm 0.00 in0.0 mm 0.00 in0.0 mm
07:32 AM 2.7°F-16.3°C -3.4°F-19.7°C 75% 13.0 mph NW20.9 kmh NW 13.0 mph20.9 kmh 30.31 in1026.4 mb 0.00 in0.0 mm 0.00 in0.0 mm 0.00 in0.0 mm
07:33 AM 3.0°F-16.1°C -2.3°F-19.1°C 78% 9.0 mph WNW14.5 kmh WNW 13.0 mph20.9 kmh 30.31 in1026.4 mb 0.00 in0.0 mm 0.00 in0.0 mm 0.00 in0.0 mm
07:34 AM 3.0°F-16.1°C -2.3°F-19.1°C 78% 8.0 mph NW12.9 kmh NW 13.0 mph20.9 kmh 30.31 in1026.4 mb 0.00 in0.0 mm 0.00 in0.0 mm 0.00 in0.0 mm
07:35 AM 2.7°F-16.3°C -3.1°F-19.5°C 76% 10.0 mph NW16.1 kmh NW 13.0 mph20.9 kmh 30.31 in1026.4 mb 0.00 in0.0 mm 0.00 in0.0 mm 0.00 in0.0 mm
07:36 AM 3.0°F-16.1°C -2.3°F-19.1°C 78% 8.0 mph WNW12.9 kmh WNW 13.0 mph20.9 kmh 30.31 in1026.4 mb 0.00 in0.0 mm 0.00 in0.0 mm 0.00 in0.0 mm
07:37 AM 3.1°F-16.1°C -1.7°F-18.7°C 80% 8.0 mph WNW12.9 kmh WNW 13.0 mph20.9 kmh 30.31 in1026.4 mb 0.00 in0.0 mm 0.00 in0.0 mm 0.00 in0.0 mm
07:38 AM 3.1°F-16.1°C -1.4°F-18.6°C 81% 9.0 mph WNW14.5 kmh WNW 13.0 mph20.9 kmh 30.31 in1026.4 mb 0.00 in0.0 mm 0.00 in0.0 mm 0.00 in0.0 mm
07:39 AM 3.1°F-16.1°C -1.4°F-18.6°C 81% 9.0 mph WNW14.5 kmh WNW 13.0 mph20.9 kmh 30.31 in1026.4 mb 0.00 in0.0 mm 0.00 in0.0 mm 0.00 in0.0 mm
07:40 AM 3.0°F-16.1°C -2.0°F-18.9°C 79% 10.0 mph WNW16.1 kmh WNW 13.0 mph20.9 kmh 30.31 in1026.4 mb 0.00 in0.0 mm 0.00 in0.0 mm 0.00 in0.0 mm
07:41 AM 2.7°F-16.3°C -3.4°F-19.7°C 75% 9.0 mph WNW14.5 kmh WNW 13.0 mph20.9 kmh 30.31 in1026.4 mb 0.00 in0.0 mm 0.00 in0.0 mm 0.00 in0.0 mm
07:42 AM 3.0°F-16.1°C -2.3°F-19.1°C 78% 9.0 mph WNW14.5 kmh WNW 13.0 mph20.9 kmh 30.31 in1026.4 mb 0.00 in0.0 mm 0.00 in0.0 mm 0.00 in0.0 mm
07:43 AM 3.0°F-16.1°C -2.3°F-19.1°C 78% 11.0 mph NNE17.7 kmh NNE 12.0 mph19.3 kmh 30.31 in1026.4 mb 0.00 in0.0 mm 0.00 in0.0 mm 0.00 in0.0 mm
07:44 AM 3.0°F-16.1°C -2.3°F-19.1°C 78% 10.0 mph NNW16.1 kmh NNW 12.0 mph19.3 kmh 30.31 in1026.4 mb 0.00 in0.0 mm 0.00 in0.0 mm 0.00 in0.0 mm
07:45 AM 3.0°F-16.1°C -2.3°F-19.1°C 78% 5.0 mph WSW8.0 kmh WSW 12.0 mph19.3 kmh 30.31 in1026.4 mb 0.00 in0.0 mm 0.00 in0.0 mm 0.00 in0.0 mm
07:46 AM 3.0°F-16.1°C -2.8°F-19.3°C 76% 12.0 mph NW19.3 kmh NW 12.0 mph19.3 kmh 30.31 in1026.4 mb 0.00 in0.0 mm 0.00 in0.0 mm 0.00 in0.0 mm
07:47 AM 2.7°F-16.3°C -3.4°F-19.7°C 75% 10.0 mph WNW16.1 kmh WNW 12.0 mph19.3 kmh 30.31 in1026.4 mb 0.00 in0.0 mm 0.00 in0.0 mm 0.00 in0.0 mm
07:48 AM 3.1°F-16.1°C -1.7°F-18.7°C 80% 9.0 mph NW14.5 kmh NW 12.0 mph19.3 kmh 30.31 in1026.4 mb 0.00 in0.0 mm 0.00 in0.0 mm 0.00 in0.0 mm
07:49 AM 3.1°F-16.1°C -1.7°F-18.7°C 80% 9.0 mph WNW14.5 kmh WNW 12.0 mph19.3 kmh 30.31 in1026.4 mb 0.00 in0.0 mm 0.00 in0.0 mm 0.00 in0.0 mm
07:50 AM 3.0°F-16.1°C -2.3°F-19.1°C 78% 8.0 mph WNW12.9 kmh WNW 13.0 mph20.9 kmh 30.31 in1026.4 mb 0.00 in0.0 mm 0.00 in0.0 mm 0.00 in0.0 mm
07:51 AM 2.7°F-16.3°C -3.1°F-19.5°C 76% 7.0 mph NNW11.3 kmh NNW 13.0 mph20.9 kmh 30.31 in1026.4 mb 0.00 in0.0 mm 0.00 in0.0 mm 0.00 in0.0 mm
07:52 AM 2.7°F-16.3°C -3.4°F-19.7°C 75% 9.0 mph NNW14.5 kmh NNW 13.0 mph20.9 kmh 30.31 in1026.4 mb 0.00 in0.0 mm 0.00 in0.0 mm 0.00 in0.0 mm
07:53 AM 2.7°F-16.3°C -3.1°F-19.5°C 76% 11.0 mph NW17.7 kmh NW 13.0 mph20.9 kmh 30.31 in1026.4 mb 0.00 in0.0 mm 0.00 in0.0 mm 0.00 in0.0 mm
07:54 AM 3.0°F-16.1°C -2.0°F-18.9°C 79% 11.0 mph WNW17.7 kmh WNW 14.0 mph22.5 kmh 30.31 in1026.4 mb 0.00 in0.0 mm 0.00 in0.0 mm 0.00 in0.0 mm
07:55 AM 3.1°F-16.1°C -1.7°F-18.7°C 80% 11.0 mph WNW17.7 kmh WNW 14.0 mph22.5 kmh 30.31 in1026.4 mb 0.00 in0.0 mm 0.00 in0.0 mm 0.00 in0.0 mm
07:56 AM 3.4°F-15.9°C -1.1°F-18.4°C 81% 8.0 mph NW12.9 kmh NW 14.0 mph22.5 kmh 30.32 in1026.8 mb 0.00 in0.0 mm 0.00 in0.0 mm 0.00 in0.0 mm
07:57 AM 3.5°F-15.8°C -1.0°F-18.3°C 81% 8.0 mph NNW12.9 kmh NNW 14.0 mph22.5 kmh 30.31 in1026.4 mb 0.00 in0.0 mm 0.00 in0.0 mm 0.00 in0.0 mm
07:58 AM 3.4°F-15.9°C -1.4°F-18.6°C 80% 12.0 mph WNW19.3 kmh WNW 14.0 mph22.5 kmh 30.31 in1026.4 mb 0.00 in0.0 mm 0.00 in0.0 mm 0.00 in0.0 mm
07:59 AM 3.0°F-16.1°C -2.3°F-19.1°C 78% 8.0 mph NNW12.9 kmh NNW 14.0 mph22.5 kmh 30.31 in1026.4 mb 0.00 in0.0 mm 0.00 in0.0 mm 0.00 in0.0 mm
08:00 AM 3.0°F-16.1°C -3.1°F-19.5°C 75% 9.0 mph NNE14.5 kmh NNE 14.0 mph22.5 kmh 30.31 in1026.4 mb 0.00 in0.0 mm 0.00 in0.0 mm 0.00 in0.0 mm
08:01 AM 3.0°F-16.1°C -3.1°F-19.5°C 75% 9.0 mph W14.5 kmh W 14.0 mph22.5 kmh 30.31 in1026.4 mb 0.00 in0.0 mm 0.00 in0.0 mm 0.00 in0.0 mm
08:02 AM 3.0°F-16.1°C -2.3°F-19.1°C 78% 5.0 mph 8.0 kmh 14.0 mph22.5 kmh 30.31 in1026.4 mb 0.00 in0.0 mm 0.00 in0.0 mm 0.00 in0.0 mm
08:03 AM 3.0°F-16.1°C -2.3°F-19.1°C 78% 13.0 mph NNW20.9 kmh NNW 14.0 mph22.5 kmh 30.31 in1026.4 mb 0.00 in0.0 mm 0.00 in0.0 mm 0.00 in0.0 mm
08:04 AM 3.0°F-16.1°C -2.3°F-19.1°C 78% 8.0 mph NW12.9 kmh NW 13.0 mph20.9 kmh 30.31 in1026.4 mb 0.00 in0.0 mm 0.00 in0.0 mm 0.00 in0.0 mm
08:05 AM 3.1°F-16.1°C -1.7°F-18.7°C 80% 7.0 mph NW11.3 kmh NW 13.0 mph20.9 kmh 30.31 in1026.4 mb 0.00 in0.0 mm 0.00 in0.0 mm 0.00 in0.0 mm
08:06 AM 3.4°F-15.9°C -1.1°F-18.4°C 81% 7.0 mph NW11.3 kmh NW 13.0 mph20.9 kmh 30.31 in1026.4 mb 0.00 in0.0 mm 0.00 in0.0 mm 0.00 in0.0 mm
08:07 AM 3.1°F-16.1°C -2.2°F-19.0°C 78% 10.0 mph WNW16.1 kmh WNW 13.0 mph20.9 kmh 30.31 in1026.4 mb 0.00 in0.0 mm 0.00 in0.0 mm 0.00 in0.0 mm
08:08 AM 3.1°F-16.1°C -2.7°F-19.3°C 76% 8.0 mph NW12.9 kmh NW 13.0 mph20.9 kmh 30.31 in1026.4 mb 0.00 in0.0 mm 0.00 in0.0 mm 0.00 in0.0 mm
08:09 AM 3.0°F-16.1°C -3.1°F-19.5°C 75% 9.0 mph NNE14.5 kmh NNE 13.0 mph20.9 kmh 30.31 in1026.4 mb 0.00 in0.0 mm 0.00 in0.0 mm 0.00 in0.0 mm
08:10 AM 2.7°F-16.3°C -3.7°F-19.8°C 74% 6.0 mph NW9.7 kmh NW 13.0 mph20.9 kmh 30.31 in1026.4 mb 0.00 in0.0 mm 0.00 in0.0 mm 0.00 in0.0 mm
08:11 AM 2.7°F-16.3°C -3.4°F-19.7°C 75% 7.0 mph NW11.3 kmh NW 13.0 mph20.9 kmh 30.31 in1026.4 mb 0.00 in0.0 mm 0.00 in0.0 mm 0.00 in0.0 mm
08:12 AM 2.7°F-16.3°C -3.1°F-19.5°C 76% 10.0 mph NW16.1 kmh NW 13.0 mph20.9 kmh 30.31 in1026.4 mb 0.00 in0.0 mm 0.00 in0.0 mm 0.00 in0.0 mm
08:13 AM 2.7°F-16.3°C -3.1°F-19.5°C 76% 9.0 mph NNW14.5 kmh NNW 13.0 mph20.9 kmh 30.31 in1026.4 mb 0.00 in0.0 mm 0.00 in0.0 mm 0.00 in0.0 mm
08:14 AM 3.0°F-16.1°C -3.1°F-19.5°C 75% 11.0 mph NW17.7 kmh NW 13.0 mph20.9 kmh 30.31 in1026.4 mb 0.00 in0.0 mm 0.00 in0.0 mm 0.00 in0.0 mm
08:15 AM 3.0°F-16.1°C -2.8°F-19.3°C 76% 13.0 mph NW20.9 kmh NW 14.0 mph22.5 kmh 30.31 in1026.4 mb 0.00 in0.0 mm 0.00 in0.0 mm 0.00 in0.0 mm
08:16 AM 3.0°F-16.1°C -2.8°F-19.3°C 76% 9.0 mph NW14.5 kmh NW 14.0 mph22.5 kmh 30.31 in1026.4 mb 0.00 in0.0 mm 0.00 in0.0 mm 0.00 in0.0 mm
08:17 AM 3.0°F-16.1°C -3.1°F-19.5°C 75% 12.0 mph NNW19.3 kmh NNW 14.0 mph22.5 kmh 30.31 in1026.4 mb 0.00 in0.0 mm 0.00 in0.0 mm 0.00 in0.0 mm
08:18 AM 3.0°F-16.1°C -3.1°F-19.5°C 75% 11.0 mph NW17.7 kmh NW 14.0 mph22.5 kmh 30.31 in1026.4 mb 0.00 in0.0 mm 0.00 in0.0 mm 0.00 in0.0 mm
08:19 AM 3.1°F-16.1°C -2.7°F-19.3°C 76% 7.0 mph NW11.3 kmh NW 14.0 mph22.5 kmh 30.31 in1026.4 mb 0.00 in0.0 mm 0.00 in0.0 mm 0.00 in0.0 mm
08:20 AM 3.1°F-16.1°C -2.7°F-19.3°C 76% 13.0 mph WNW20.9 kmh WNW 14.0 mph22.5 kmh 30.31 in1026.4 mb 0.00 in0.0 mm 0.00 in0.0 mm 0.00 in0.0 mm
08:21 AM 3.1°F-16.1°C -2.7°F-19.3°C 76% 12.0 mph WNW19.3 kmh WNW 14.0 mph22.5 kmh 30.31 in1026.4 mb 0.00 in0.0 mm 0.00 in0.0 mm 0.00 in0.0 mm
08:22 AM 3.1°F-16.1°C -3.0°F-19.4°C 75% 9.0 mph NNW14.5 kmh NNW 14.0 mph22.5 kmh 30.31 in1026.4 mb 0.00 in0.0 mm 0.00 in0.0 mm 0.00 in0.0 mm
08:23 AM 3.1°F-16.1°C -3.0°F-19.4°C 75% 10.0 mph 16.1 kmh 14.0 mph22.5 kmh 30.31 in1026.4 mb 0.00 in0.0 mm 0.00 in0.0 mm 0.00 in0.0 mm
08:24 AM 3.4°F-15.9°C -1.6°F-18.7°C 79% 7.0 mph NNE11.3 kmh NNE 14.0 mph22.5 kmh 30.32 in1026.8 mb 0.00 in0.0 mm 0.00 in0.0 mm 0.00 in0.0 mm
08:25 AM 3.4°F-15.9°C -1.9°F-18.8°C 78% 6.0 mph NNW9.7 kmh NNW 13.0 mph20.9 kmh 30.31 in1026.4 mb 0.00 in0.0 mm 0.00 in0.0 mm 0.00 in0.0 mm
08:26 AM 3.1°F-16.1°C -3.0°F-19.4°C 75% 11.0 mph NNW17.7 kmh NNW 13.0 mph20.9 kmh 30.31 in1026.4 mb 0.00 in0.0 mm 0.00 in0.0 mm 0.00 in0.0 mm
08:27 AM 3.1°F-16.1°C -3.0°F-19.4°C 75% 15.0 mph WNW24.1 kmh WNW 15.0 mph24.1 kmh 30.32 in1026.8 mb 0.00 in0.0 mm 0.00 in0.0 mm 0.00 in0.0 mm
08:28 AM 3.1°F-16.1°C -3.0°F-19.4°C 75% 14.0 mph WNW22.5 kmh WNW 15.0 mph24.1 kmh 30.32 in1026.8 mb 0.00 in0.0 mm 0.00 in0.0 mm 0.00 in0.0 mm
08:29 AM 3.1°F-16.1°C -3.0°F-19.4°C 75% 8.0 mph NW12.9 kmh NW 15.0 mph24.1 kmh 30.32 in1026.8 mb 0.00 in0.0 mm 0.00 in0.0 mm 0.00 in0.0 mm
08:30 AM 3.1°F-16.1°C -3.0°F-19.4°C 75% 12.0 mph WNW19.3 kmh WNW 15.0 mph24.1 kmh 30.31 in1026.4 mb 0.00 in0.0 mm 0.00 in0.0 mm 0.00 in0.0 mm
08:31 AM 3.5°F-15.8°C -1.8°F-18.8°C 78% 10.0 mph WNW16.1 kmh WNW 15.0 mph24.1 kmh 30.32 in1026.8 mb 0.00 in0.0 mm 0.00 in0.0 mm 0.00 in0.0 mm
08:32 AM 3.7°F-15.7°C -1.6°F-18.7°C 78% 6.0 mph NW9.7 kmh NW 15.0 mph24.1 kmh 30.31 in1026.4 mb 0.00 in0.0 mm 0.00 in0.0 mm 0.00 in0.0 mm
08:33 AM 3.5°F-15.8°C -2.6°F-19.2°C 75% 11.0 mph NW17.7 kmh NW 15.0 mph24.1 kmh 30.32 in1026.8 mb 0.00 in0.0 mm 0.00 in0.0 mm 0.00 in0.0 mm
08:34 AM 3.7°F-15.7°C -2.2°F-19.0°C 76% 8.0 mph NW12.9 kmh NW 15.0 mph24.1 kmh 30.31 in1026.4 mb 0.00 in0.0 mm 0.00 in0.0 mm 0.00 in0.0 mm
08:35 AM 3.7°F-15.7°C -1.6°F-18.7°C 78% 9.0 mph NW14.5 kmh NW 15.0 mph24.1 kmh 30.32 in1026.8 mb 0.00 in0.0 mm 0.00 in0.0 mm 0.00 in0.0 mm
08:36 AM 3.5°F-15.8°C -2.3°F-19.1°C 76% 13.0 mph WNW20.9 kmh WNW 15.0 mph24.1 kmh 30.32 in1026.8 mb 0.00 in0.0 mm 0.00 in0.0 mm 0.00 in0.0 mm
08:37 AM 3.5°F-15.8°C -2.6°F-19.2°C 75% 14.0 mph NNW22.5 kmh NNW 15.0 mph24.1 kmh 30.32 in1026.8 mb 0.00 in0.0 mm 0.00 in0.0 mm 0.00 in0.0 mm
08:38 AM 3.7°F-15.7°C -2.2°F-19.0°C 76% 7.0 mph NW11.3 kmh NW 15.0 mph24.1 kmh 30.32 in1026.8 mb 0.00 in0.0 mm 0.00 in0.0 mm 0.00 in0.0 mm
08:39 AM 3.9°F-15.6°C -1.2°F-18.4°C 79% 9.0 mph NW14.5 kmh NW 15.0 mph24.1 kmh 30.32 in1026.8 mb 0.00 in0.0 mm 0.00 in0.0 mm 0.00 in0.0 mm
08:40 AM 4.0°F-15.6°C -0.8°F-18.2°C 80% 8.0 mph NNW12.9 kmh NNW 15.0 mph24.1 kmh 30.32 in1026.8 mb 0.00 in0.0 mm 0.00 in0.0 mm 0.00 in0.0 mm
08:41 AM 4.0°F-15.6°C -1.1°F-18.4°C 79% 7.0 mph NNW11.3 kmh NNW 15.0 mph24.1 kmh 30.32 in1026.8 mb 0.00 in0.0 mm 0.00 in0.0 mm 0.00 in0.0 mm
08:42 AM 3.9°F-15.6°C -2.0°F-18.9°C 76% 9.0 mph NW14.5 kmh NW 14.0 mph22.5 kmh 30.32 in1026.8 mb 0.00 in0.0 mm 0.00 in0.0 mm 0.00 in0.0 mm
08:43 AM 3.9°F-15.6°C -2.0°F-18.9°C 76% 7.0 mph NW11.3 kmh NW 14.0 mph22.5 kmh 30.32 in1026.8 mb 0.00 in0.0 mm 0.00 in0.0 mm 0.00 in0.0 mm
08:44 AM 3.9°F-15.6°C -2.2°F-19.0°C 75% 9.0 mph NW14.5 kmh NW 14.0 mph22.5 kmh 30.32 in1026.8 mb 0.00 in0.0 mm 0.00 in0.0 mm 0.00 in0.0 mm
08:45 AM 3.7°F-15.7°C -2.7°F-19.3°C 74% 9.0 mph NW14.5 kmh NW 14.0 mph22.5 kmh 30.32 in1026.8 mb 0.00 in0.0 mm 0.00 in0.0 mm 0.00 in0.0 mm
08:46 AM 3.7°F-15.7°C -2.7°F-19.3°C 74% 7.0 mph NW11.3 kmh NW 14.0 mph22.5 kmh 30.32 in1026.8 mb 0.00 in0.0 mm 0.00 in0.0 mm 0.00 in0.0 mm
08:47 AM 3.9°F-15.6°C -2.8°F-19.3°C 73% 15.0 mph WNW24.1 kmh WNW 15.0 mph24.1 kmh 30.32 in1026.8 mb 0.00 in0.0 mm 0.00 in0.0 mm 0.00 in0.0 mm
08:48 AM 4.0°F-15.6°C -2.1°F-18.9°C 75% 8.0 mph NNW12.9 kmh NNW 15.0 mph24.1 kmh 30.32 in1026.8 mb 0.00 in0.0 mm 0.00 in0.0 mm 0.00 in0.0 mm
08:49 AM 4.3°F-15.4°C -1.8°F-18.8°C 75% 11.0 mph NW17.7 kmh NW 15.0 mph24.1 kmh 30.32 in1026.8 mb 0.00 in0.0 mm 0.00 in0.0 mm 0.00 in0.0 mm
08:50 AM 4.5°F-15.3°C -1.6°F-18.7°C 75% 8.0 mph NW12.9 kmh NW 15.0 mph24.1 kmh 30.32 in1026.8 mb 0.00 in0.0 mm 0.00 in0.0 mm 0.00 in0.0 mm
08:51 AM 4.5°F-15.3°C -1.9°F-18.8°C 74% 10.0 mph NNW16.1 kmh NNW 15.0 mph24.1 kmh 30.32 in1026.8 mb 0.00 in0.0 mm 0.00 in0.0 mm 0.00 in0.0 mm
08:52 AM 4.5°F-15.3°C -2.2°F-19.0°C 73% 12.0 mph NNW19.3 kmh NNW 15.0 mph24.1 kmh 30.32 in1026.8 mb 0.00 in0.0 mm 0.00 in0.0 mm 0.00 in0.0 mm
08:53 AM 4.5°F-15.3°C -2.8°F-19.3°C 71% 13.0 mph NW20.9 kmh NW 15.0 mph24.1 kmh 30.32 in1026.8 mb 0.00 in0.0 mm 0.00 in0.0 mm 0.00 in0.0 mm
08:54 AM 4.8°F-15.1°C -1.4°F-18.6°C 75% 9.0 mph NW14.5 kmh NW 15.0 mph24.1 kmh 30.32 in1026.8 mb 0.00 in0.0 mm 0.00 in0.0 mm 0.00 in0.0 mm
08:55 AM 4.8°F-15.1°C -1.4°F-18.6°C 75% 9.0 mph 14.5 kmh 15.0 mph24.1 kmh 30.32 in1026.8 mb 0.00 in0.0 mm 0.00 in0.0 mm 0.00 in0.0 mm
08:56 AM 4.8°F-15.1°C -1.6°F-18.7°C 74% 9.0 mph NW14.5 kmh NW 15.0 mph24.1 kmh 30.33 in1027.1 mb 0.00 in0.0 mm 0.00 in0.0 mm 0.00 in0.0 mm
08:57 AM 4.5°F-15.3°C -2.2°F-19.0°C 73% 6.0 mph NW9.7 kmh NW 15.0 mph24.1 kmh 30.33 in1027.1 mb 0.00 in0.0 mm 0.00 in0.0 mm 0.00 in0.0 mm
08:58 AM 4.8°F-15.1°C -1.6°F-18.7°C 74% 11.0 mph NW17.7 kmh NW 15.0 mph24.1 kmh 30.33 in1027.1 mb 0.00 in0.0 mm 0.00 in0.0 mm 0.00 in0.0 mm
08:59 AM 5.0°F-15.0°C -1.4°F-18.6°C 74% 10.0 mph WNW16.1 kmh WNW 15.0 mph24.1 kmh 30.33 in1027.1 mb 0.00 in0.0 mm 0.00 in0.0 mm 0.00 in0.0 mm
09:00 AM 5.0°F-15.0°C -1.2°F-18.4°C 75% 8.0 mph NW12.9 kmh NW 15.0 mph24.1 kmh 30.33 in1027.1 mb 0.00 in0.0 mm 0.00 in0.0 mm 0.00 in0.0 mm
09:01 AM 5.1°F-14.9°C -1.3°F-18.5°C 74% 9.0 mph NNE14.5 kmh NNE 15.0 mph24.1 kmh 30.32 in1026.8 mb 0.00 in0.0 mm 0.00 in0.0 mm 0.00 in0.0 mm
09:02 AM 5.1°F-14.9°C -1.3°F-18.5°C 74% 11.0 mph NW17.7 kmh NW 15.0 mph24.1 kmh 30.33 in1027.1 mb 0.00 in0.0 mm 0.00 in0.0 mm 0.00 in0.0 mm
09:03 AM 5.4°F-14.8°C -1.1°F-18.4°C 74% 11.0 mph NW17.7 kmh NW 13.0 mph20.9 kmh 30.33 in1027.1 mb 0.00 in0.0 mm 0.00 in0.0 mm 0.00 in0.0 mm
09:04 AM 5.4°F-14.8°C -1.1°F-18.4°C 74% 11.0 mph NW17.7 kmh NW 12.0 mph19.3 kmh 30.33 in1027.1 mb 0.00 in0.0 mm 0.00 in0.0 mm 0.00 in0.0 mm
09:05 AM 5.5°F-14.7°C -1.0°F-18.3°C 74% 13.0 mph WNW20.9 kmh WNW 13.0 mph20.9 kmh 30.33 in1027.1 mb 0.00 in0.0 mm 0.00 in0.0 mm 0.00 in0.0 mm
09:06 AM 5.5°F-14.7°C -0.7°F-18.2°C 75% 16.0 mph WNW25.7 kmh WNW 16.0 mph25.7 kmh 30.33 in1027.1 mb 0.00 in0.0 mm 0.00 in0.0 mm 0.00 in0.0 mm
09:07 AM 5.5°F-14.7°C -0.7°F-18.2°C 75% 16.0 mph WNW25.7 kmh WNW 16.0 mph25.7 kmh 30.33 in1027.1 mb 0.00 in0.0 mm 0.00 in0.0 mm 0.00 in0.0 mm
09:08 AM 5.4°F-14.8°C -1.1°F-18.4°C 74% 13.0 mph NW20.9 kmh NW 16.0 mph25.7 kmh 30.33 in1027.1 mb 0.00 in0.0 mm 0.00 in0.0 mm 0.00 in0.0 mm
09:09 AM 5.4°F-14.8°C -1.1°F-18.4°C 74% 13.0 mph WNW20.9 kmh WNW 16.0 mph25.7 kmh 30.33 in1027.1 mb 0.00 in0.0 mm 0.00 in0.0 mm 0.00 in0.0 mm
09:10 AM 5.5°F-14.7°C -1.0°F-18.3°C 74% 16.0 mph NW25.7 kmh NW 16.0 mph25.7 kmh 30.32 in1026.8 mb 0.00 in0.0 mm 0.00 in0.0 mm 0.00 in0.0 mm
09:11 AM 5.4°F-14.8°C -1.9°F-18.8°C 71% 12.0 mph NW19.3 kmh NW 16.0 mph25.7 kmh 30.33 in1027.1 mb 0.00 in0.0 mm 0.00 in0.0 mm 0.00 in0.0 mm
09:12 AM 5.4°F-14.8°C -1.9°F-18.8°C 71% 12.0 mph NW19.3 kmh NW 16.0 mph25.7 kmh 30.32 in1026.8 mb 0.00 in0.0 mm 0.00 in0.0 mm 0.00 in0.0 mm
09:13 AM 5.1°F-14.9°C -2.8°F-19.3°C 69% 10.0 mph NW16.1 kmh NW 16.0 mph25.7 kmh 30.33 in1027.1 mb 0.00 in0.0 mm 0.00 in0.0 mm 0.00 in0.0 mm
09:14 AM 5.1°F-14.9°C -2.8°F-19.3°C 69% 14.0 mph NW22.5 kmh NW 16.0 mph25.7 kmh 30.33 in1027.1 mb 0.00 in0.0 mm 0.00 in0.0 mm 0.00 in0.0 mm
09:15 AM 5.1°F-14.9°C -2.5°F-19.2°C 70% 10.0 mph WNW16.1 kmh WNW 16.0 mph25.7 kmh 30.34 in1027.4 mb 0.00 in0.0 mm 0.00 in0.0 mm 0.00 in0.0 mm
09:16 AM 5.4°F-14.8°C -2.2°F-19.0°C 70% 10.0 mph NW16.1 kmh NW 16.0 mph25.7 kmh 30.33 in1027.1 mb 0.00 in0.0 mm 0.00 in0.0 mm 0.00 in0.0 mm
09:17 AM 5.5°F-14.7°C -1.8°F-18.8°C 71% 9.0 mph NW14.5 kmh NW 16.0 mph25.7 kmh 30.33 in1027.1 mb 0.00 in0.0 mm 0.00 in0.0 mm 0.00 in0.0 mm
09:18 AM 5.5°F-14.7°C -1.8°F-18.8°C 71% 7.0 mph NNW11.3 kmh NNW 16.0 mph25.7 kmh 30.33 in1027.1 mb 0.00 in0.0 mm 0.00 in0.0 mm 0.00 in0.0 mm
09:19 AM 5.5°F-14.7°C -1.8°F-18.8°C 71% 7.0 mph NW11.3 kmh NW 16.0 mph25.7 kmh 30.33 in1027.1 mb 0.00 in0.0 mm 0.00 in0.0 mm 0.00 in0.0 mm
09:20 AM 5.9°F-14.5°C -1.4°F-18.6°C 71% 8.0 mph NW12.9 kmh NW 15.0 mph24.1 kmh 30.33 in1027.1 mb 0.00 in0.0 mm 0.00 in0.0 mm 0.00 in0.0 mm
09:21 AM 5.9°F-14.5°C -1.7°F-18.7°C 70% 11.0 mph WNW17.7 kmh WNW 14.0 mph22.5 kmh 30.33 in1027.1 mb 0.00 in0.0 mm 0.00 in0.0 mm 0.00 in0.0 mm
09:22 AM 5.9°F-14.5°C -2.0°F-18.9°C 69% 10.0 mph WNW16.1 kmh WNW 14.0 mph22.5 kmh 30.33 in1027.1 mb 0.00 in0.0 mm 0.00 in0.0 mm 0.00 in0.0 mm
09:23 AM 6.1°F-14.4°C -1.8°F-18.8°C 69% 8.0 mph WNW12.9 kmh WNW 14.0 mph22.5 kmh 30.33 in1027.1 mb 0.00 in0.0 mm 0.00 in0.0 mm 0.00 in0.0 mm
09:24 AM 6.1°F-14.4°C -1.8°F-18.8°C 69% 9.0 mph WNW14.5 kmh WNW 14.0 mph22.5 kmh 30.33 in1027.1 mb 0.00 in0.0 mm 0.00 in0.0 mm 0.00 in0.0 mm
09:25 AM 6.3°F-14.3°C -1.3°F-18.5°C 70% 13.0 mph NW20.9 kmh NW 14.0 mph22.5 kmh 30.33 in1027.1 mb 0.00 in0.0 mm 0.00 in0.0 mm 0.00 in0.0 mm
09:26 AM 6.3°F-14.3°C -1.3°F-18.5°C 70% 11.0 mph NW17.7 kmh NW 14.0 mph22.5 kmh 30.33 in1027.1 mb 0.00 in0.0 mm 0.00 in0.0 mm 0.00 in0.0 mm
09:27 AM 6.1°F-14.4°C -1.8°F-18.8°C 69% 10.0 mph WNW16.1 kmh WNW 14.0 mph22.5 kmh 30.33 in1027.1 mb 0.00 in0.0 mm 0.00 in0.0 mm 0.00 in0.0 mm
09:28 AM 6.3°F-14.3°C -1.1°F-18.4°C 71% 10.0 mph NW16.1 kmh NW 14.0 mph22.5 kmh 30.33 in1027.1 mb 0.00 in0.0 mm 0.00 in0.0 mm 0.00 in0.0 mm
09:29 AM 6.3°F-14.3°C -1.1°F-18.4°C 71% 12.0 mph WNW19.3 kmh WNW 14.0 mph22.5 kmh 30.33 in1027.1 mb 0.00 in0.0 mm 0.00 in0.0 mm 0.00 in0.0 mm
09:30 AM 6.5°F-14.2°C -1.2°F-18.4°C 70% 11.0 mph W17.7 kmh W 14.0 mph22.5 kmh 30.33 in1027.1 mb 0.00 in0.0 mm 0.00 in0.0 mm 0.00 in0.0 mm
09:31 AM 6.8°F-14.0°C 0.0°F-17.8°C 73% 11.0 mph WNW17.7 kmh WNW 14.0 mph22.5 kmh 30.33 in1027.1 mb 0.00 in0.0 mm 0.00 in0.0 mm 0.00 in0.0 mm
09:32 AM 6.8°F-14.0°C -0.9°F-18.3°C 70% 9.0 mph NW14.5 kmh NW 16.0 mph25.7 kmh 30.33 in1027.1 mb 0.00 in0.0 mm 0.00 in0.0 mm 0.00 in0.0 mm
09:33 AM 6.5°F-14.2°C -1.2°F-18.4°C 70% 10.0 mph WNW16.1 kmh WNW 16.0 mph25.7 kmh 30.33 in1027.1 mb 0.00 in0.0 mm 0.00 in0.0 mm 0.00 in0.0 mm
09:34 AM 6.5°F-14.2°C -1.5°F-18.6°C 69% 10.0 mph NW16.1 kmh NW 16.0 mph25.7 kmh 30.33 in1027.1 mb 0.00 in0.0 mm 0.00 in0.0 mm 0.00 in0.0 mm
09:35 AM 6.8°F-14.0°C -0.9°F-18.3°C 70% 7.0 mph 11.3 kmh 16.0 mph25.7 kmh 30.34 in1027.4 mb 0.00 in0.0 mm 0.00 in0.0 mm 0.00 in0.0 mm
09:36 AM 7.1°F-13.8°C -0.6°F-18.1°C 70% 14.0 mph NNW22.5 kmh NNW 16.0 mph25.7 kmh 30.34 in1027.4 mb 0.00 in0.0 mm 0.00 in0.0 mm 0.00 in0.0 mm
09:37 AM 7.0°F-13.9°C -0.7°F-18.2°C 70% 9.0 mph WNW14.5 kmh WNW 16.0 mph25.7 kmh 30.33 in1027.1 mb 0.00 in0.0 mm 0.00 in0.0 mm 0.00 in0.0 mm
09:38 AM 6.8°F-14.0°C -0.9°F-18.3°C 70% 9.0 mph NW14.5 kmh NW 16.0 mph25.7 kmh 30.33 in1027.1 mb 0.00 in0.0 mm 0.00 in0.0 mm 0.00 in0.0 mm
09:39 AM 6.5°F-14.2°C -1.2°F-18.4°C 70% 13.0 mph NW20.9 kmh NW 16.0 mph25.7 kmh 30.33 in1027.1 mb 0.00 in0.0 mm 0.00 in0.0 mm 0.00 in0.0 mm
09:40 AM 6.3°F-14.3°C -2.0°F-18.9°C 68% 5.0 mph NE8.0 kmh NE 16.0 mph25.7 kmh 30.33 in1027.1 mb 0.00 in0.0 mm 0.00 in0.0 mm 0.00 in0.0 mm
09:41 AM 6.3°F-14.3°C -2.9°F-19.4°C 65% 10.0 mph NE16.1 kmh NE 16.0 mph25.7 kmh 30.33 in1027.1 mb 0.00 in0.0 mm 0.00 in0.0 mm 0.00 in0.0 mm
09:42 AM 6.5°F-14.2°C -2.7°F-19.3°C 65% 12.0 mph NW19.3 kmh NW 15.0 mph24.1 kmh 30.34 in1027.4 mb 0.00 in0.0 mm 0.00 in0.0 mm 0.00 in0.0 mm
09:43 AM 6.5°F-14.2°C -2.7°F-19.3°C 65% 9.0 mph NE14.5 kmh NE 15.0 mph24.1 kmh 30.33 in1027.1 mb 0.00 in0.0 mm 0.00 in0.0 mm 0.00 in0.0 mm
09:44 AM 6.8°F-14.0°C -2.4°F-19.1°C 65% 12.0 mph NW19.3 kmh NW 15.0 mph24.1 kmh 30.34 in1027.4 mb 0.00 in0.0 mm 0.00 in0.0 mm 0.00 in0.0 mm
09:45 AM 7.1°F-13.8°C -2.1°F-18.9°C 65% 10.0 mph NW16.1 kmh NW 15.0 mph24.1 kmh 30.33 in1027.1 mb 0.00 in0.0 mm 0.00 in0.0 mm 0.00 in0.0 mm
09:46 AM 7.1°F-13.8°C -0.9°F-18.3°C 69% 10.0 mph NW16.1 kmh NW 15.0 mph24.1 kmh 30.34 in1027.4 mb 0.00 in0.0 mm 0.00 in0.0 mm 0.00 in0.0 mm
09:47 AM 7.1°F-13.8°C -1.2°F-18.4°C 68% 15.0 mph WNW24.1 kmh WNW 15.0 mph24.1 kmh 30.34 in1027.4 mb 0.00 in0.0 mm 0.00 in0.0 mm 0.00 in0.0 mm
09:48 AM 7.0°F-13.9°C -2.2°F-19.0°C 65% 12.0 mph WNW19.3 kmh WNW 15.0 mph24.1 kmh 30.34 in1027.4 mb 0.00 in0.0 mm 0.00 in0.0 mm 0.00 in0.0 mm
09:49 AM 6.8°F-14.0°C -3.1°F-19.5°C 63% 11.0 mph WNW17.7 kmh WNW 15.0 mph24.1 kmh 30.34 in1027.4 mb 0.00 in0.0 mm 0.00 in0.0 mm 0.00 in0.0 mm
09:50 AM 6.8°F-14.0°C -3.1°F-19.5°C 63% 6.0 mph WNW9.7 kmh WNW 15.0 mph24.1 kmh 30.34 in1027.4 mb 0.00 in0.0 mm 0.00 in0.0 mm 0.00 in0.0 mm
09:51 AM 7.3°F-13.7°C -1.6°F-18.7°C 66% 12.0 mph WNW19.3 kmh WNW 15.0 mph24.1 kmh 30.34 in1027.4 mb 0.00 in0.0 mm 0.00 in0.0 mm 0.00 in0.0 mm
09:52 AM 7.5°F-13.6°C -1.4°F-18.6°C 66% 7.0 mph NNW11.3 kmh NNW 15.0 mph24.1 kmh 30.34 in1027.4 mb 0.00 in0.0 mm 0.00 in0.0 mm 0.00 in0.0 mm
09:53 AM 7.5°F-13.6°C -1.8°F-18.8°C 65% 8.0 mph NW12.9 kmh NW 15.0 mph24.1 kmh 30.34 in1027.4 mb 0.00 in0.0 mm 0.00 in0.0 mm 0.00 in0.0 mm
09:54 AM 7.5°F-13.6°C -1.8°F-18.8°C 65% 11.0 mph WNW17.7 kmh WNW 15.0 mph24.1 kmh 30.34 in1027.4 mb 0.00 in0.0 mm 0.00 in0.0 mm 0.00 in0.0 mm
09:55 AM 7.5°F-13.6°C -1.8°F-18.8°C 65% 9.0 mph NW14.5 kmh NW 15.0 mph24.1 kmh 30.33 in1027.1 mb 0.00 in0.0 mm 0.00 in0.0 mm 0.00 in0.0 mm
09:56 AM 7.5°F-13.6°C -1.8°F-18.8°C 65% 16.0 mph WNW25.7 kmh WNW 16.0 mph25.7 kmh 30.34 in1027.4 mb 0.00 in0.0 mm 0.00 in0.0 mm 0.00 in0.0 mm
09:57 AM 7.5°F-13.6°C -1.8°F-18.8°C 65% 13.0 mph NW20.9 kmh NW 16.0 mph25.7 kmh 30.34 in1027.4 mb 0.00 in0.0 mm 0.00 in0.0 mm 0.00 in0.0 mm
09:58 AM 7.3°F-13.7°C -2.0°F-18.9°C 65% 11.0 mph NW17.7 kmh NW 16.0 mph25.7 kmh 30.34 in1027.4 mb 0.00 in0.0 mm 0.00 in0.0 mm 0.00 in0.0 mm
09:59 AM 7.6°F-13.6°C -0.4°F-18.0°C 69% 8.0 mph W12.9 kmh W 16.0 mph25.7 kmh 30.34 in1027.4 mb 0.00 in0.0 mm 0.00 in0.0 mm 0.00 in0.0 mm
10:00 AM 7.6°F-13.6°C -0.7°F-18.2°C 68% 8.0 mph WNW12.9 kmh WNW 16.0 mph25.7 kmh 30.34 in1027.4 mb 0.00 in0.0 mm 0.00 in0.0 mm 0.00 in0.0 mm
10:01 AM 7.6°F-13.6°C -0.7°F-18.2°C 68% 12.0 mph NW19.3 kmh NW 16.0 mph25.7 kmh 30.34 in1027.4 mb 0.00 in0.0 mm 0.00 in0.0 mm 0.00 in0.0 mm
10:02 AM 7.6°F-13.6°C -1.7°F-18.7°C 65% 10.0 mph NNW16.1 kmh NNW 16.0 mph25.7 kmh 30.34 in1027.4 mb 0.00 in0.0 mm 0.00 in0.0 mm 0.00 in0.0 mm
10:03 AM 7.6°F-13.6°C -1.7°F-18.7°C 65% 13.0 mph NW20.9 kmh NW 16.0 mph25.7 kmh 30.34 in1027.4 mb 0.00 in0.0 mm 0.00 in0.0 mm 0.00 in0.0 mm
10:04 AM 7.6°F-13.6°C -1.7°F-18.7°C 65% 14.0 mph NW22.5 kmh NW 16.0 mph25.7 kmh 30.34 in1027.4 mb 0.00 in0.0 mm 0.00 in0.0 mm 0.00 in0.0 mm
10:05 AM 7.6°F-13.6°C -1.7°F-18.7°C 65% 12.0 mph NW19.3 kmh NW 16.0 mph25.7 kmh 30.34 in1027.4 mb 0.00 in0.0 mm 0.00 in0.0 mm 0.00 in0.0 mm
10:06 AM 7.9°F-13.4°C -1.4°F-18.6°C 65% 7.0 mph NW11.3 kmh NW 16.0 mph25.7 kmh 30.34 in1027.4 mb 0.00 in0.0 mm 0.00 in0.0 mm 0.00 in0.0 mm
10:07 AM 8.1°F-13.3°C -0.9°F-18.3°C 66% 12.0 mph NW19.3 kmh NW 14.0 mph22.5 kmh 30.34 in1027.4 mb 0.00 in0.0 mm 0.00 in0.0 mm 0.00 in0.0 mm
10:08 AM 8.1°F-13.3°C -0.9°F-18.3°C 66% 11.0 mph WNW17.7 kmh WNW 14.0 mph22.5 kmh 30.34 in1027.4 mb 0.00 in0.0 mm 0.00 in0.0 mm 0.00 in0.0 mm
10:09 AM 8.1°F-13.3°C -1.9°F-18.8°C 63% 15.0 mph WNW24.1 kmh WNW 15.0 mph24.1 kmh 30.34 in1027.4 mb 0.00 in0.0 mm 0.00 in0.0 mm 0.00 in0.0 mm
10:10 AM 7.9°F-13.4°C -2.0°F-18.9°C 63% 7.0 mph NW11.3 kmh NW 15.0 mph24.1 kmh 30.34 in1027.4 mb 0.00 in0.0 mm 0.00 in0.0 mm 0.00 in0.0 mm
10:11 AM 7.9°F-13.4°C -1.4°F-18.6°C 65% 8.0 mph W12.9 kmh W 15.0 mph24.1 kmh 30.34 in1027.4 mb 0.00 in0.0 mm 0.00 in0.0 mm 0.00 in0.0 mm
10:12 AM 8.1°F-13.3°C -1.9°F-18.8°C 63% 10.0 mph WNW16.1 kmh WNW 15.0 mph24.1 kmh 30.34 in1027.4 mb 0.00 in0.0 mm 0.00 in0.0 mm 0.00 in0.0 mm
10:13 AM 8.1°F-13.3°C -1.2°F-18.4°C 65% 11.0 mph NW17.7 kmh NW 15.0 mph24.1 kmh 30.34 in1027.4 mb 0.00 in0.0 mm 0.00 in0.0 mm 0.00 in0.0 mm
10:14 AM 8.1°F-13.3°C -1.2°F-18.4°C 65% 12.0 mph NW19.3 kmh NW 15.0 mph24.1 kmh 30.34 in1027.4 mb 0.00 in0.0 mm 0.00 in0.0 mm 0.00 in0.0 mm
10:15 AM 8.1°F-13.3°C -0.9°F-18.3°C 66% 15.0 mph NW24.1 kmh NW 15.0 mph24.1 kmh 30.34 in1027.4 mb 0.00 in0.0 mm 0.00 in0.0 mm 0.00 in0.0 mm
10:16 AM 8.1°F-13.3°C -1.2°F-18.4°C 65% 11.0 mph 17.7 kmh 15.0 mph24.1 kmh 30.34 in1027.4 mb 0.00 in0.0 mm 0.00 in0.0 mm 0.00 in0.0 mm
10:17 AM 8.1°F-13.3°C -1.2°F-18.4°C 65% 11.0 mph NW17.7 kmh NW 15.0 mph24.1 kmh 30.34 in1027.4 mb 0.00 in0.0 mm 0.00 in0.0 mm 0.00 in0.0 mm
10:18 AM 8.1°F-13.3°C -1.2°F-18.4°C 65% 11.0 mph NW17.7 kmh NW 15.0 mph24.1 kmh 30.34 in1027.4 mb 0.00 in0.0 mm 0.00 in0.0 mm 0.00 in0.0 mm
10:19 AM 8.6°F-13.0°C 0.2°F-17.7°C 68% 7.0 mph W11.3 kmh W 15.0 mph24.1 kmh 30.34 in1027.4 mb 0.00 in0.0 mm 0.00 in0.0 mm 0.00 in0.0 mm
10:20 AM 8.8°F-12.9°C 0.8°F-17.3°C 69% 10.0 mph W16.1 kmh W 15.0 mph24.1 kmh 30.34 in1027.4 mb 0.00 in0.0 mm 0.00 in0.0 mm 0.00 in0.0 mm
10:21 AM 9.0°F-12.8°C 1.2°F-17.1°C 70% 11.0 mph WNW17.7 kmh WNW 15.0 mph24.1 kmh 30.34 in1027.4 mb 0.00 in0.0 mm 0.00 in0.0 mm 0.00 in0.0 mm
10:22 AM 8.8°F-12.9°C -0.2°F-17.9°C 66% 7.0 mph WNW11.3 kmh WNW 15.0 mph24.1 kmh 30.34 in1027.4 mb 0.00 in0.0 mm 0.00 in0.0 mm 0.00 in0.0 mm
10:23 AM 9.1°F-12.7°C 0.7°F-17.4°C 68% 10.0 mph WNW16.1 kmh WNW 15.0 mph24.1 kmh 30.33 in1027.1 mb 0.00 in0.0 mm 0.00 in0.0 mm 0.00 in0.0 mm
10:24 AM 9.1°F-12.7°C 1.0°F-17.2°C 69% 7.0 mph NNW11.3 kmh NNW 15.0 mph24.1 kmh 30.33 in1027.1 mb 0.00 in0.0 mm 0.00 in0.0 mm 0.00 in0.0 mm
10:25 AM 9.1°F-12.7°C 0.7°F-17.4°C 68% 10.0 mph NW16.1 kmh NW 14.0 mph22.5 kmh 30.33 in1027.1 mb 0.00 in0.0 mm 0.00 in0.0 mm 0.00 in0.0 mm
10:26 AM 9.3°F-12.6°C 0.9°F-17.3°C 68% 6.0 mph NNW9.7 kmh NNW 12.0 mph19.3 kmh 30.33 in1027.1 mb 0.00 in0.0 mm 0.00 in0.0 mm 0.00 in0.0 mm
10:27 AM 9.1°F-12.7°C -0.2°F-17.9°C 65% 8.0 mph NNE12.9 kmh NNE 12.0 mph19.3 kmh 30.33 in1027.1 mb 0.00 in0.0 mm 0.00 in0.0 mm 0.00 in0.0 mm
10:28 AM 9.0°F-12.8°C -1.0°F-18.3°C 63% 9.0 mph NW14.5 kmh NW 12.0 mph19.3 kmh 30.34 in1027.4 mb 0.00 in0.0 mm 0.00 in0.0 mm 0.00 in0.0 mm
10:29 AM 9.3°F-12.6°C 0.3°F-17.6°C 66% 10.0 mph WNW16.1 kmh WNW 12.0 mph19.3 kmh 30.33 in1027.1 mb 0.00 in0.0 mm 0.00 in0.0 mm 0.00 in0.0 mm
10:30 AM 9.3°F-12.6°C -0.7°F-18.2°C 63% 8.0 mph NW12.9 kmh NW 12.0 mph19.3 kmh 30.34 in1027.4 mb 0.00 in0.0 mm 0.00 in0.0 mm 0.00 in0.0 mm
10:31 AM 9.3°F-12.6°C -1.4°F-18.6°C 61% 8.0 mph NW12.9 kmh NW 12.0 mph19.3 kmh 30.33 in1027.1 mb 0.00 in0.0 mm 0.00 in0.0 mm 0.00 in0.0 mm
10:32 AM 9.5°F-12.5°C -0.5°F-18.1°C 63% 11.0 mph WNW17.7 kmh WNW 11.0 mph17.7 kmh 30.33 in1027.1 mb 0.00 in0.0 mm 0.00 in0.0 mm 0.00 in0.0 mm
10:33 AM 9.5°F-12.5°C 0.5°F-17.5°C 66% 17.0 mph NW27.4 kmh NW 17.0 mph27.4 kmh 30.32 in1026.8 mb 0.00 in0.0 mm 0.00 in0.0 mm 0.00 in0.0 mm
10:34 AM 9.5°F-12.5°C 1.4°F-17.0°C 69% 15.0 mph NW24.1 kmh NW 17.0 mph27.4 kmh 30.33 in1027.1 mb 0.00 in0.0 mm 0.00 in0.0 mm 0.00 in0.0 mm
10:35 AM 9.5°F-12.5°C 1.4°F-17.0°C 69% 9.0 mph WNW14.5 kmh WNW 17.0 mph27.4 kmh 30.33 in1027.1 mb 0.00 in0.0 mm 0.00 in0.0 mm 0.00 in0.0 mm
10:36 AM 9.1°F-12.7°C -0.9°F-18.3°C 63% 10.0 mph NW16.1 kmh NW 17.0 mph27.4 kmh 30.34 in1027.4 mb 0.00 in0.0 mm 0.00 in0.0 mm 0.00 in0.0 mm
10:37 AM 9.1°F-12.7°C -0.9°F-18.3°C 63% 7.0 mph NW11.3 kmh NW 17.0 mph27.4 kmh 30.33 in1027.1 mb 0.00 in0.0 mm 0.00 in0.0 mm 0.00 in0.0 mm
10:38 AM 9.1°F-12.7°C -0.9°F-18.3°C 63% 9.0 mph NW14.5 kmh NW 17.0 mph27.4 kmh 30.33 in1027.1 mb 0.00 in0.0 mm 0.00 in0.0 mm 0.00 in0.0 mm
10:39 AM 9.3°F-12.6°C 0.0°F-17.8°C 65% 5.0 mph NNE8.0 kmh NNE 17.0 mph27.4 kmh 30.33 in1027.1 mb 0.00 in0.0 mm 0.00 in0.0 mm 0.00 in0.0 mm
10:40 AM 9.3°F-12.6°C -0.7°F-18.2°C 63% 9.0 mph 14.5 kmh 17.0 mph27.4 kmh 30.33 in1027.1 mb 0.00 in0.0 mm 0.00 in0.0 mm 0.00 in0.0 mm
10:41 AM 9.3°F-12.6°C -1.4°F-18.6°C 61% 10.0 mph NW16.1 kmh NW 17.0 mph27.4 kmh 30.33 in1027.1 mb 0.00 in0.0 mm 0.00 in0.0 mm 0.00 in0.0 mm
10:42 AM 9.3°F-12.6°C -1.4°F-18.6°C 61% 12.0 mph WNW19.3 kmh WNW 17.0 mph27.4 kmh 30.33 in1027.1 mb 0.00 in0.0 mm 0.00 in0.0 mm 0.00 in0.0 mm
10:43 AM 9.5°F-12.5°C -1.2°F-18.4°C 61% 8.0 mph WNW12.9 kmh WNW 17.0 mph27.4 kmh 30.33 in1027.1 mb 0.00 in0.0 mm 0.00 in0.0 mm 0.00 in0.0 mm
10:44 AM 9.5°F-12.5°C -0.5°F-18.1°C 63% 8.0 mph W12.9 kmh W 15.0 mph24.1 kmh 30.33 in1027.1 mb 0.00 in0.0 mm 0.00 in0.0 mm 0.00 in0.0 mm
10:45 AM 9.6°F-12.4°C 0.2°F-17.7°C 65% 14.0 mph WNW22.5 kmh WNW 14.0 mph22.5 kmh 30.33 in1027.1 mb 0.00 in0.0 mm 0.00 in0.0 mm 0.00 in0.0 mm
10:46 AM 9.3°F-12.6°C -0.7°F-18.2°C 63% 16.0 mph NW25.7 kmh NW 16.0 mph25.7 kmh 30.33 in1027.1 mb 0.00 in0.0 mm 0.00 in0.0 mm 0.00 in0.0 mm
10:47 AM 9.3°F-12.6°C -0.7°F-18.2°C 63% 11.0 mph NNW17.7 kmh NNW 16.0 mph25.7 kmh 30.33 in1027.1 mb 0.00 in0.0 mm 0.00 in0.0 mm 0.00 in0.0 mm
10:48 AM 9.3°F-12.6°C -1.4°F-18.6°C 61% 10.0 mph WNW16.1 kmh WNW 16.0 mph25.7 kmh 30.33 in1027.1 mb 0.00 in0.0 mm 0.00 in0.0 mm 0.00 in0.0 mm
10:49 AM 9.3°F-12.6°C -1.4°F-18.6°C 61% 8.0 mph WNW12.9 kmh WNW 16.0 mph25.7 kmh 30.32 in1026.8 mb 0.00 in0.0 mm 0.00 in0.0 mm 0.00 in0.0 mm
10:50 AM 9.3°F-12.6°C -1.4°F-18.6°C 61% 8.0 mph NW12.9 kmh NW 16.0 mph25.7 kmh 30.33 in1027.1 mb 0.00 in0.0 mm 0.00 in0.0 mm 0.00 in0.0 mm
10:51 AM 9.3°F-12.6°C -1.8°F-18.8°C 60% 5.0 mph W8.0 kmh W 16.0 mph25.7 kmh 30.33 in1027.1 mb 0.00 in0.0 mm 0.00 in0.0 mm 0.00 in0.0 mm
10:52 AM 9.5°F-12.5°C -1.2°F-18.4°C 61% 11.0 mph 17.7 kmh 16.0 mph25.7 kmh 30.33 in1027.1 mb 0.00 in0.0 mm 0.00 in0.0 mm 0.00 in0.0 mm
10:53 AM 9.6°F-12.4°C -1.1°F-18.4°C 61% 6.0 mph WNW9.7 kmh WNW 16.0 mph25.7 kmh 30.32 in1026.8 mb 0.00 in0.0 mm 0.00 in0.0 mm 0.00 in0.0 mm
10:54 AM 9.6°F-12.4°C -1.5°F-18.6°C 60% 7.0 mph WNW11.3 kmh WNW 16.0 mph25.7 kmh 30.33 in1027.1 mb 0.00 in0.0 mm 0.00 in0.0 mm 0.00 in0.0 mm
10:55 AM 10.0°F-12.2°C 0.0°F-17.8°C 63% 11.0 mph W17.7 kmh W 16.0 mph25.7 kmh 30.32 in1026.8 mb 0.00 in0.0 mm 0.00 in0.0 mm 0.00 in0.0 mm
10:56 AM 9.8°F-12.3°C -0.2°F-17.9°C 63% 15.0 mph WNW24.1 kmh WNW 16.0 mph25.7 kmh 30.33 in1027.1 mb 0.00 in0.0 mm 0.00 in0.0 mm 0.00 in0.0 mm
10:57 AM 9.8°F-12.3°C -0.2°F-17.9°C 63% 17.0 mph WNW27.4 kmh WNW 17.0 mph27.4 kmh 30.33 in1027.1 mb 0.00 in0.0 mm 0.00 in0.0 mm 0.00 in0.0 mm
10:58 AM 9.8°F-12.3°C 0.4°F-17.6°C 65% 12.0 mph WNW19.3 kmh WNW 17.0 mph27.4 kmh 30.33 in1027.1 mb 0.00 in0.0 mm 0.00 in0.0 mm 0.00 in0.0 mm
10:59 AM 9.8°F-12.3°C -0.2°F-17.9°C 63% 11.0 mph WNW17.7 kmh WNW 17.0 mph27.4 kmh 30.33 in1027.1 mb 0.00 in0.0 mm 0.00 in0.0 mm 0.00 in0.0 mm
11:00 AM 9.8°F-12.3°C -0.2°F-17.9°C 63% 11.0 mph NW17.7 kmh NW 17.0 mph27.4 kmh 30.33 in1027.1 mb 0.00 in0.0 mm 0.00 in0.0 mm 0.00 in0.0 mm
11:01 AM 9.6°F-12.4°C -1.1°F-18.4°C 61% 12.0 mph NW19.3 kmh NW 17.0 mph27.4 kmh 30.32 in1026.8 mb 0.00 in0.0 mm 0.00 in0.0 mm 0.00 in0.0 mm
11:02 AM 9.6°F-12.4°C -1.1°F-18.4°C 61% 11.0 mph WNW17.7 kmh WNW 17.0 mph27.4 kmh 30.32 in1026.8 mb 0.00 in0.0 mm 0.00 in0.0 mm 0.00 in0.0 mm
11:03 AM 9.5°F-12.5°C -1.2°F-18.4°C 61% 12.0 mph NW19.3 kmh NW 17.0 mph27.4 kmh 30.32 in1026.8 mb 0.00 in0.0 mm 0.00 in0.0 mm 0.00 in0.0 mm
11:04 AM 9.5°F-12.5°C -1.2°F-18.4°C 61% 12.0 mph NW19.3 kmh NW 17.0 mph27.4 kmh 30.32 in1026.8 mb 0.00 in0.0 mm 0.00 in0.0 mm 0.00 in0.0 mm
11:05 AM 9.6°F-12.4°C -1.5°F-18.6°C 60% 10.0 mph NW16.1 kmh NW 17.0 mph27.4 kmh 30.32 in1026.8 mb 0.00 in0.0 mm 0.00 in0.0 mm 0.00 in0.0 mm
11:06 AM 9.8°F-12.3°C -0.9°F-18.3°C 61% 12.0 mph WNW19.3 kmh WNW 17.0 mph27.4 kmh 30.32 in1026.8 mb 0.00 in0.0 mm 0.00 in0.0 mm 0.00 in0.0 mm
11:07 AM 10.1°F-12.2°C 0.7°F-17.4°C 65% 5.0 mph NW8.0 kmh NW 17.0 mph27.4 kmh 30.32 in1026.8 mb 0.00 in0.0 mm 0.00 in0.0 mm 0.00 in0.0 mm
11:08 AM 10.3°F-12.1°C 0.2°F-17.7°C 63% 13.0 mph NW20.9 kmh NW 14.0 mph22.5 kmh 30.32 in1026.8 mb 0.00 in0.0 mm 0.00 in0.0 mm 0.00 in0.0 mm
11:09 AM 10.3°F-12.1°C 0.2°F-17.7°C 63% 9.0 mph NW14.5 kmh NW 14.0 mph22.5 kmh 30.32 in1026.8 mb 0.00 in0.0 mm 0.00 in0.0 mm 0.00 in0.0 mm
11:10 AM 10.8°F-11.8°C 0.7°F-17.4°C 63% 9.0 mph NNW14.5 kmh NNW 14.0 mph22.5 kmh 30.32 in1026.8 mb 0.00 in0.0 mm 0.00 in0.0 mm 0.00 in0.0 mm
11:11 AM 10.6°F-11.9°C 0.5°F-17.5°C 63% 6.0 mph NW9.7 kmh NW 14.0 mph22.5 kmh 30.31 in1026.4 mb 0.00 in0.0 mm 0.00 in0.0 mm 0.00 in0.0 mm
11:12 AM 10.8°F-11.8°C 1.4°F-17.0°C 65% 9.0 mph NW14.5 kmh NW 14.0 mph22.5 kmh 30.32 in1026.8 mb 0.00 in0.0 mm 0.00 in0.0 mm 0.00 in0.0 mm
11:13 AM 10.6°F-11.9°C 0.5°F-17.5°C 63% 11.0 mph NW17.7 kmh NW 14.0 mph22.5 kmh 30.31 in1026.4 mb 0.00 in0.0 mm 0.00 in0.0 mm 0.00 in0.0 mm
11:14 AM 10.6°F-11.9°C 0.5°F-17.5°C 63% 11.0 mph NW17.7 kmh NW 14.0 mph22.5 kmh 30.32 in1026.8 mb 0.00 in0.0 mm 0.00 in0.0 mm 0.00 in0.0 mm
11:15 AM 10.6°F-11.9°C -0.2°F-17.9°C 61% 10.0 mph NW16.1 kmh NW 14.0 mph22.5 kmh 30.31 in1026.4 mb 0.00 in0.0 mm 0.00 in0.0 mm 0.00 in0.0 mm
11:16 AM 10.6°F-11.9°C -0.2°F-17.9°C 61% 11.0 mph W17.7 kmh W 14.0 mph22.5 kmh 30.31 in1026.4 mb 0.00 in0.0 mm 0.00 in0.0 mm 0.00 in0.0 mm
11:17 AM 10.8°F-11.8°C 0.0°F-17.8°C 61% 9.0 mph WNW14.5 kmh WNW 14.0 mph22.5 kmh 30.31 in1026.4 mb 0.00 in0.0 mm 0.00 in0.0 mm 0.00 in0.0 mm
11:18 AM 10.8°F-11.8°C 0.0°F-17.8°C 61% 7.0 mph NW11.3 kmh NW 13.0 mph20.9 kmh 30.31 in1026.4 mb 0.00 in0.0 mm 0.00 in0.0 mm 0.00 in0.0 mm
11:19 AM 10.8°F-11.8°C 0.0°F-17.8°C 61% 12.0 mph W19.3 kmh W 12.0 mph19.3 kmh 30.31 in1026.4 mb 0.00 in0.0 mm 0.00 in0.0 mm 0.00 in0.0 mm
11:20 AM 10.8°F-11.8°C 0.0°F-17.8°C 61% 15.0 mph WNW24.1 kmh WNW 15.0 mph24.1 kmh 30.31 in1026.4 mb 0.00 in0.0 mm 0.00 in0.0 mm 0.00 in0.0 mm
11:21 AM 10.8°F-11.8°C 0.0°F-17.8°C 61% 8.0 mph NW12.9 kmh NW 15.0 mph24.1 kmh 30.31 in1026.4 mb 0.00 in0.0 mm 0.00 in0.0 mm 0.00 in0.0 mm
11:22 AM 10.8°F-11.8°C 0.7°F-17.4°C 63% 10.0 mph NW16.1 kmh NW 15.0 mph24.1 kmh 30.31 in1026.4 mb 0.00 in0.0 mm 0.00 in0.0 mm 0.00 in0.0 mm
11:23 AM 10.8°F-11.8°C 0.0°F-17.8°C 61% 10.0 mph NW16.1 kmh NW 15.0 mph24.1 kmh 30.31 in1026.4 mb 0.00 in0.0 mm 0.00 in0.0 mm 0.00 in0.0 mm
11:24 AM 10.8°F-11.8°C -0.3°F-17.9°C 60% 7.0 mph NW11.3 kmh NW 15.0 mph24.1 kmh 30.31 in1026.4 mb 0.00 in0.0 mm 0.00 in0.0 mm 0.00 in0.0 mm
11:25 AM 11.2°F-11.6°C 0.4°F-17.6°C 61% 9.0 mph NNW14.5 kmh NNW 15.0 mph24.1 kmh 30.31 in1026.4 mb 0.00 in0.0 mm 0.00 in0.0 mm 0.00 in0.0 mm
11:26 AM 11.1°F-11.6°C 0.3°F-17.6°C 61% 14.0 mph NW22.5 kmh NW 15.0 mph24.1 kmh 30.31 in1026.4 mb 0.00 in0.0 mm 0.00 in0.0 mm 0.00 in0.0 mm
11:27 AM 11.1°F-11.6°C 0.3°F-17.6°C 61% 12.0 mph NW19.3 kmh NW 16.0 mph25.7 kmh 30.31 in1026.4 mb 0.00 in0.0 mm 0.00 in0.0 mm 0.00 in0.0 mm
11:28 AM 11.1°F-11.6°C 0.3°F-17.6°C 61% 9.0 mph W14.5 kmh W 16.0 mph25.7 kmh 30.31 in1026.4 mb 0.00 in0.0 mm 0.00 in0.0 mm 0.00 in0.0 mm
11:29 AM 11.1°F-11.6°C 0.3°F-17.6°C 61% 8.0 mph NW12.9 kmh NW 16.0 mph25.7 kmh 30.30 in1026.1 mb 0.00 in0.0 mm 0.00 in0.0 mm 0.00 in0.0 mm
11:30 AM 11.1°F-11.6°C -0.1°F-17.8°C 60% 10.0 mph NW16.1 kmh NW 16.0 mph25.7 kmh 30.30 in1026.1 mb 0.00 in0.0 mm 0.00 in0.0 mm 0.00 in0.0 mm
11:31 AM 11.2°F-11.6°C 0.4°F-17.6°C 61% 9.0 mph NW14.5 kmh NW 16.0 mph25.7 kmh 30.30 in1026.1 mb 0.00 in0.0 mm 0.00 in0.0 mm 0.00 in0.0 mm
11:32 AM 11.6°F-11.3°C 1.5°F-16.9°C 63% 8.0 mph WNW12.9 kmh WNW 16.0 mph25.7 kmh 30.31 in1026.4 mb 0.00 in0.0 mm 0.00 in0.0 mm 0.00 in0.0 mm
11:33 AM 11.6°F-11.3°C 1.5°F-16.9°C 63% 11.0 mph NW17.7 kmh NW 16.0 mph25.7 kmh 30.30 in1026.1 mb 0.00 in0.0 mm 0.00 in0.0 mm 0.00 in0.0 mm
11:34 AM 11.4°F-11.4°C -0.5°F-18.1°C 58% 11.0 mph W17.7 kmh W 16.0 mph25.7 kmh 30.30 in1026.1 mb 0.00 in0.0 mm 0.00 in0.0 mm 0.00 in0.0 mm
11:35 AM 11.4°F-11.4°C -0.1°F-17.8°C 59% 9.0 mph NW14.5 kmh NW 16.0 mph25.7 kmh 30.30 in1026.1 mb 0.00 in0.0 mm 0.00 in0.0 mm 0.00 in0.0 mm
11:36 AM 11.6°F-11.3°C 0.8°F-17.3°C 61% 9.0 mph NW14.5 kmh NW 16.0 mph25.7 kmh 30.31 in1026.4 mb 0.00 in0.0 mm 0.00 in0.0 mm 0.00 in0.0 mm
11:37 AM 11.8°F-11.2°C 1.7°F-16.8°C 63% 6.0 mph WNW9.7 kmh WNW 13.0 mph20.9 kmh 30.30 in1026.1 mb 0.00 in0.0 mm 0.00 in0.0 mm 0.00 in0.0 mm
11:38 AM 12.2°F-11.0°C 2.7°F-16.3°C 65% 10.0 mph WNW16.1 kmh WNW 12.0 mph19.3 kmh 30.30 in1026.1 mb 0.00 in0.0 mm 0.00 in0.0 mm 0.00 in0.0 mm
11:39 AM 12.2°F-11.0°C 1.3°F-17.1°C 61% 8.0 mph NW12.9 kmh NW 12.0 mph19.3 kmh 30.31 in1026.4 mb 0.00 in0.0 mm 0.00 in0.0 mm 0.00 in0.0 mm
11:40 AM 12.2°F-11.0°C 1.3°F-17.1°C 61% 7.0 mph WNW11.3 kmh WNW 12.0 mph19.3 kmh 30.30 in1026.1 mb 0.00 in0.0 mm 0.00 in0.0 mm 0.00 in0.0 mm
11:41 AM 12.2°F-11.0°C 1.3°F-17.1°C 61% 9.0 mph WNW14.5 kmh WNW 12.0 mph19.3 kmh 30.30 in1026.1 mb 0.00 in0.0 mm 0.00 in0.0 mm 0.00 in0.0 mm
11:42 AM 12.0°F-11.1°C 0.8°F-17.3°C 60% 9.0 mph WNW14.5 kmh WNW 12.0 mph19.3 kmh 30.31 in1026.4 mb 0.00 in0.0 mm 0.00 in0.0 mm 0.00 in0.0 mm
11:43 AM 12.0°F-11.1°C 0.8°F-17.3°C 60% 6.0 mph WNW9.7 kmh WNW 12.0 mph19.3 kmh 30.30 in1026.1 mb 0.00 in0.0 mm 0.00 in0.0 mm 0.00 in0.0 mm
11:44 AM 12.4°F-10.9°C 1.5°F-16.9°C 61% 9.0 mph WNW14.5 kmh WNW 12.0 mph19.3 kmh 30.30 in1026.1 mb 0.00 in0.0 mm 0.00 in0.0 mm 0.00 in0.0 mm
11:45 AM 12.4°F-10.9°C 1.5°F-16.9°C 61% 11.0 mph NW17.7 kmh NW 11.0 mph17.7 kmh 30.30 in1026.1 mb 0.00 in0.0 mm 0.00 in0.0 mm 0.00 in0.0 mm
11:46 AM 12.4°F-10.9°C 1.5°F-16.9°C 61% 6.0 mph WNW9.7 kmh WNW 11.0 mph17.7 kmh 30.30 in1026.1 mb 0.00 in0.0 mm 0.00 in0.0 mm 0.00 in0.0 mm
11:47 AM 12.4°F-10.9°C -0.3°F-17.9°C 56% 9.0 mph WNW14.5 kmh WNW 11.0 mph17.7 kmh 30.30 in1026.1 mb 0.00 in0.0 mm 0.00 in0.0 mm 0.00 in0.0 mm
11:48 AM 12.2°F-11.0°C -0.9°F-18.3°C 55% 10.0 mph WNW16.1 kmh WNW 11.0 mph17.7 kmh 30.30 in1026.1 mb 0.00 in0.0 mm 0.00 in0.0 mm 0.00 in0.0 mm
11:49 AM 12.0°F-11.1°C -1.5°F-18.6°C 54% 8.0 mph W12.9 kmh W 11.0 mph17.7 kmh 30.30 in1026.1 mb 0.00 in0.0 mm 0.00 in0.0 mm 0.00 in0.0 mm
11:50 AM 12.0°F-11.1°C -1.5°F-18.6°C 54% 8.0 mph NW12.9 kmh NW 11.0 mph17.7 kmh 30.30 in1026.1 mb 0.00 in0.0 mm 0.00 in0.0 mm 0.00 in0.0 mm
11:51 AM 12.4°F-10.9°C 0.4°F-17.6°C 58% 9.0 mph NW14.5 kmh NW 11.0 mph17.7 kmh 30.30 in1026.1 mb 0.00 in0.0 mm 0.00 in0.0 mm 0.00 in0.0 mm
11:52 AM 12.5°F-10.8°C 1.3°F-17.1°C 60% 7.0 mph NW11.3 kmh NW 11.0 mph17.7 kmh 30.30 in1026.1 mb 0.00 in0.0 mm 0.00 in0.0 mm 0.00 in0.0 mm
11:53 AM 12.5°F-10.8°C 1.3°F-17.1°C 60% 5.0 mph NW8.0 kmh NW 11.0 mph17.7 kmh 30.30 in1026.1 mb 0.00 in0.0 mm 0.00 in0.0 mm 0.00 in0.0 mm
11:54 AM 12.8°F-10.7°C 1.9°F-16.7°C 61% 9.0 mph NNW14.5 kmh NNW 11.0 mph17.7 kmh 30.30 in1026.1 mb 0.00 in0.0 mm 0.00 in0.0 mm 0.00 in0.0 mm
11:55 AM 12.8°F-10.7°C 1.9°F-16.7°C 61% 10.0 mph NW16.1 kmh NW 11.0 mph17.7 kmh 30.29 in1025.7 mb 0.00 in0.0 mm 0.00 in0.0 mm 0.00 in0.0 mm
11:56 AM 12.8°F-10.7°C 0.8°F-17.3°C 58% 8.0 mph NW12.9 kmh NW 11.0 mph17.7 kmh 30.30 in1026.1 mb 0.00 in0.0 mm 0.00 in0.0 mm 0.00 in0.0 mm
11:57 AM 12.6°F-10.8°C -0.1°F-17.8°C 56% 14.0 mph W22.5 kmh W 14.0 mph22.5 kmh 30.29 in1025.7 mb 0.00 in0.0 mm 0.00 in0.0 mm 0.00 in0.0 mm
11:58 AM 12.4°F-10.9°C -0.7°F-18.2°C 55% 8.0 mph NW12.9 kmh NW 14.0 mph22.5 kmh 30.29 in1025.7 mb 0.00 in0.0 mm 0.00 in0.0 mm 0.00 in0.0 mm
11:59 AM 12.4°F-10.9°C -0.7°F-18.2°C 55% 11.0 mph W17.7 kmh W 14.0 mph22.5 kmh 30.29 in1025.7 mb 0.00 in0.0 mm 0.00 in0.0 mm 0.00 in0.0 mm
12:00 PM 12.4°F-10.9°C -0.7°F-18.2°C 55% 11.0 mph W17.7 kmh W 14.0 mph22.5 kmh 30.29 in1025.7 mb 0.00 in0.0 mm 0.00 in0.0 mm 0.00 in0.0 mm
12:01 PM 12.6°F-10.8°C -0.1°F-17.8°C 56% 10.0 mph WNW16.1 kmh WNW 14.0 mph22.5 kmh 30.29 in1025.7 mb 0.00 in0.0 mm 0.00 in0.0 mm 0.00 in0.0 mm
12:02 PM 12.6°F-10.8°C 0.6°F-17.4°C 58% 12.0 mph NW19.3 kmh NW 14.0 mph22.5 kmh 30.29 in1025.7 mb 0.00 in0.0 mm 0.00 in0.0 mm 0.00 in0.0 mm
12:03 PM 12.5°F-10.8°C 0.5°F-17.5°C 58% 11.0 mph NW17.7 kmh NW 16.0 mph25.7 kmh 30.29 in1025.7 mb 0.00 in0.0 mm 0.00 in0.0 mm 0.00 in0.0 mm
12:04 PM 12.5°F-10.8°C -0.6°F-18.1°C 55% 10.0 mph WNW16.1 kmh WNW 16.0 mph25.7 kmh 30.29 in1025.7 mb 0.00 in0.0 mm 0.00 in0.0 mm 0.00 in0.0 mm
12:05 PM 12.5°F-10.8°C -0.2°F-17.9°C 56% 10.0 mph NW16.1 kmh NW 16.0 mph25.7 kmh 30.29 in1025.7 mb 0.00 in0.0 mm 0.00 in0.0 mm 0.00 in0.0 mm
12:06 PM 12.5°F-10.8°C -1.0°F-18.3°C 54% 8.0 mph WNW12.9 kmh WNW 16.0 mph25.7 kmh 30.29 in1025.7 mb 0.00 in0.0 mm 0.00 in0.0 mm 0.00 in0.0 mm
12:07 PM 12.6°F-10.8°C -0.5°F-18.1°C 55% 10.0 mph NW16.1 kmh NW 16.0 mph25.7 kmh 30.29 in1025.7 mb 0.00 in0.0 mm 0.00 in0.0 mm 0.00 in0.0 mm
12:08 PM 12.8°F-10.7°C -0.3°F-17.9°C 55% 11.0 mph NW17.7 kmh NW 16.0 mph25.7 kmh 30.29 in1025.7 mb 0.00 in0.0 mm 0.00 in0.0 mm 0.00 in0.0 mm
12:09 PM 12.8°F-10.7°C -0.3°F-17.9°C 55% 13.0 mph NW20.9 kmh NW 16.0 mph25.7 kmh 30.29 in1025.7 mb 0.00 in0.0 mm 0.00 in0.0 mm 0.00 in0.0 mm
12:10 PM 13.1°F-10.5°C 1.1°F-17.2°C 58% 11.0 mph WNW17.7 kmh WNW 16.0 mph25.7 kmh 30.29 in1025.7 mb 0.00 in0.0 mm 0.00 in0.0 mm 0.00 in0.0 mm
12:11 PM 13.1°F-10.5°C 1.1°F-17.2°C 58% 13.0 mph WNW20.9 kmh WNW 16.0 mph25.7 kmh 30.29 in1025.7 mb 0.00 in0.0 mm 0.00 in0.0 mm 0.00 in0.0 mm
12:12 PM 13.1°F-10.5°C 1.1°F-17.2°C 58% 11.0 mph WNW17.7 kmh WNW 16.0 mph25.7 kmh 30.29 in1025.7 mb 0.00 in0.0 mm 0.00 in0.0 mm 0.00 in0.0 mm
12:13 PM 12.8°F-10.7°C -0.3°F-17.9°C 55% 9.0 mph WNW14.5 kmh WNW 13.0 mph20.9 kmh 30.29 in1025.7 mb 0.00 in0.0 mm 0.00 in0.0 mm 0.00 in0.0 mm
12:14 PM 12.8°F-10.7°C -0.3°F-17.9°C 55% 10.0 mph WNW16.1 kmh WNW 13.0 mph20.9 kmh 30.29 in1025.7 mb 0.00 in0.0 mm 0.00 in0.0 mm 0.00 in0.0 mm
12:15 PM 13.3°F-10.4°C 1.7°F-16.8°C 59% 13.0 mph NW20.9 kmh NW 13.0 mph20.9 kmh 30.29 in1025.7 mb 0.00 in0.0 mm 0.00 in0.0 mm 0.00 in0.0 mm
12:16 PM 13.3°F-10.4°C 2.4°F-16.4°C 61% 12.0 mph WNW19.3 kmh WNW 13.0 mph20.9 kmh 30.29 in1025.7 mb 0.00 in0.0 mm 0.00 in0.0 mm 0.00 in0.0 mm
12:17 PM 13.3°F-10.4°C 2.4°F-16.4°C 61% 11.0 mph WNW17.7 kmh WNW 13.0 mph20.9 kmh 30.29 in1025.7 mb 0.00 in0.0 mm 0.00 in0.0 mm 0.00 in0.0 mm
12:18 PM 13.1°F-10.5°C -0.1°F-17.8°C 55% 11.0 mph WNW17.7 kmh WNW 13.0 mph20.9 kmh 30.29 in1025.7 mb 0.00 in0.0 mm 0.00 in0.0 mm 0.00 in0.0 mm
12:19 PM 13.3°F-10.4°C 0.5°F-17.5°C 56% 10.0 mph WNW16.1 kmh WNW 13.0 mph20.9 kmh 30.29 in1025.7 mb 0.00 in0.0 mm 0.00 in0.0 mm 0.00 in0.0 mm
12:20 PM 13.1°F-10.5°C -0.1°F-17.8°C 55% 12.0 mph NW19.3 kmh NW 13.0 mph20.9 kmh 30.29 in1025.7 mb 0.00 in0.0 mm 0.00 in0.0 mm 0.00 in0.0 mm
12:21 PM 13.1°F-10.5°C 0.3°F-17.6°C 56% 11.0 mph WNW17.7 kmh WNW 13.0 mph20.9 kmh 30.29 in1025.7 mb 0.00 in0.0 mm 0.00 in0.0 mm 0.00 in0.0 mm
12:22 PM 13.1°F-10.5°C -0.1°F-17.8°C 55% 7.0 mph NNW11.3 kmh NNW 13.0 mph20.9 kmh 30.29 in1025.7 mb 0.00 in0.0 mm 0.00 in0.0 mm 0.00 in0.0 mm
12:23 PM 13.3°F-10.4°C 0.1°F-17.7°C 55% 10.0 mph WNW16.1 kmh WNW 13.0 mph20.9 kmh 30.29 in1025.7 mb 0.00 in0.0 mm 0.00 in0.0 mm 0.00 in0.0 mm
12:24 PM 13.3°F-10.4°C -0.3°F-17.9°C 54% 7.0 mph NNW11.3 kmh NNW 13.0 mph20.9 kmh 30.29 in1025.7 mb 0.00 in0.0 mm 0.00 in0.0 mm 0.00 in0.0 mm
12:25 PM 13.6°F-10.2°C 0.4°F-17.6°C 55% 5.0 mph NW8.0 kmh NW 13.0 mph20.9 kmh 30.28 in1025.4 mb 0.00 in0.0 mm 0.00 in0.0 mm 0.00 in0.0 mm
12:26 PM 14.3°F-9.8°C 3.0°F-16.1°C 60% 11.0 mph NNE17.7 kmh NNE 12.0 mph19.3 kmh 30.29 in1025.7 mb 0.00 in0.0 mm 0.00 in0.0 mm 0.00 in0.0 mm
12:27 PM 14.3°F-9.8°C 1.5°F-16.9°C 56% 16.0 mph WNW25.7 kmh WNW 16.0 mph25.7 kmh 30.29 in1025.7 mb 0.00 in0.0 mm 0.00 in0.0 mm 0.00 in0.0 mm
12:28 PM 14.5°F-9.7°C 2.4°F-16.4°C 58% 10.0 mph NW16.1 kmh NW 16.0 mph25.7 kmh 30.29 in1025.7 mb 0.00 in0.0 mm 0.00 in0.0 mm 0.00 in0.0 mm
12:29 PM 14.7°F-9.6°C 3.0°F-16.1°C 59% 12.0 mph WNW19.3 kmh WNW 16.0 mph25.7 kmh 30.28 in1025.4 mb 0.00 in0.0 mm 0.00 in0.0 mm 0.00 in0.0 mm
12:30 PM 14.7°F-9.6°C 1.8°F-16.8°C 56% 9.0 mph NNE14.5 kmh NNE 16.0 mph25.7 kmh 30.29 in1025.7 mb 0.00 in0.0 mm 0.00 in0.0 mm 0.00 in0.0 mm
12:31 PM 14.7°F-9.6°C 1.8°F-16.8°C 56% 9.0 mph 14.5 kmh 16.0 mph25.7 kmh 30.28 in1025.4 mb 0.00 in0.0 mm 0.00 in0.0 mm 0.00 in0.0 mm
12:32 PM 14.5°F-9.7°C 1.3°F-17.1°C 55% 13.0 mph WNW20.9 kmh WNW 16.0 mph25.7 kmh 30.28 in1025.4 mb 0.00 in0.0 mm 0.00 in0.0 mm 0.00 in0.0 mm
12:33 PM 14.3°F-9.8°C 0.7°F-17.4°C 54% 13.0 mph WNW20.9 kmh WNW 17.0 mph27.4 kmh 30.28 in1025.4 mb 0.00 in0.0 mm 0.00 in0.0 mm 0.00 in0.0 mm
12:34 PM 14.1°F-9.9°C -0.8°F-18.2°C 51% 10.0 mph NNW16.1 kmh NNW 17.0 mph27.4 kmh 30.28 in1025.4 mb 0.00 in0.0 mm 0.00 in0.0 mm 0.00 in0.0 mm
12:35 PM 14.1°F-9.9°C 0.5°F-17.5°C 54% 10.0 mph NNE16.1 kmh NNE 17.0 mph27.4 kmh 30.28 in1025.4 mb 0.00 in0.0 mm 0.00 in0.0 mm 0.00 in0.0 mm
12:36 PM 14.1°F-9.9°C 0.5°F-17.5°C 54% 10.0 mph NW16.1 kmh NW 17.0 mph27.4 kmh 30.28 in1025.4 mb 0.00 in0.0 mm 0.00 in0.0 mm 0.00 in0.0 mm
12:37 PM 14.1°F-9.9°C 0.5°F-17.5°C 54% 11.0 mph NW17.7 kmh NW 17.0 mph27.4 kmh 30.28 in1025.4 mb 0.00 in0.0 mm 0.00 in0.0 mm 0.00 in0.0 mm
12:38 PM 14.3°F-9.8°C 1.1°F-17.2°C 55% 8.0 mph W12.9 kmh W 17.0 mph27.4 kmh 30.28 in1025.4 mb 0.00 in0.0 mm 0.00 in0.0 mm 0.00 in0.0 mm
12:39 PM 14.5°F-9.7°C 1.3°F-17.1°C 55% 9.0 mph NNW14.5 kmh NNW 17.0 mph27.4 kmh 30.28 in1025.4 mb 0.00 in0.0 mm 0.00 in0.0 mm 0.00 in0.0 mm
12:40 PM 14.7°F-9.6°C 1.0°F-17.2°C 54% 16.0 mph WNW25.7 kmh WNW 17.0 mph27.4 kmh 30.28 in1025.4 mb 0.00 in0.0 mm 0.00 in0.0 mm 0.00 in0.0 mm
12:41 PM 14.7°F-9.6°C 1.4°F-17.0°C 55% 12.0 mph WNW19.3 kmh WNW 17.0 mph27.4 kmh 30.28 in1025.4 mb 0.00 in0.0 mm 0.00 in0.0 mm 0.00 in0.0 mm
12:42 PM 14.7°F-9.6°C 2.6°F-16.3°C 58% 13.0 mph WNW20.9 kmh WNW 17.0 mph27.4 kmh 30.28 in1025.4 mb 0.00 in0.0 mm 0.00 in0.0 mm 0.00 in0.0 mm
12:43 PM 14.5°F-9.7°C 1.3°F-17.1°C 55% 13.0 mph WNW20.9 kmh WNW 16.0 mph25.7 kmh 30.28 in1025.4 mb 0.00 in0.0 mm 0.00 in0.0 mm 0.00 in0.0 mm
12:44 PM 14.3°F-9.8°C 1.1°F-17.2°C 55% 13.0 mph WNW20.9 kmh WNW 16.0 mph25.7 kmh 30.28 in1025.4 mb 0.00 in0.0 mm 0.00 in0.0 mm 0.00 in0.0 mm
12:45 PM 14.5°F-9.7°C 1.3°F-17.1°C 55% 13.0 mph NW20.9 kmh NW 16.0 mph25.7 kmh 30.27 in1025.1 mb 0.00 in0.0 mm 0.00 in0.0 mm 0.00 in0.0 mm
12:46 PM 14.5°F-9.7°C 1.3°F-17.1°C 55% 13.0 mph WNW20.9 kmh WNW 16.0 mph25.7 kmh 30.28 in1025.4 mb 0.00 in0.0 mm 0.00 in0.0 mm 0.00 in0.0 mm
12:47 PM 14.5°F-9.7°C 0.8°F-17.3°C 54% 10.0 mph WNW16.1 kmh WNW 18.0 mph29.0 kmh 30.27 in1025.1 mb 0.00 in0.0 mm 0.00 in0.0 mm 0.00 in0.0 mm
12:48 PM 14.7°F-9.6°C 1.4°F-17.0°C 55% 16.0 mph NNW25.7 kmh NNW 18.0 mph29.0 kmh 30.28 in1025.4 mb 0.00 in0.0 mm 0.00 in0.0 mm 0.00 in0.0 mm
12:49 PM 14.9°F-9.5°C 1.6°F-16.9°C 55% 12.0 mph NW19.3 kmh NW 18.0 mph29.0 kmh 30.28 in1025.4 mb 0.00 in0.0 mm 0.00 in0.0 mm 0.00 in0.0 mm
12:50 PM 15.0°F-9.4°C 2.1°F-16.6°C 56% 12.0 mph W19.3 kmh W 18.0 mph29.0 kmh 30.28 in1025.4 mb 0.00 in0.0 mm 0.00 in0.0 mm 0.00 in0.0 mm
12:51 PM 15.0°F-9.4°C 1.7°F-16.8°C 55% 9.0 mph NNW14.5 kmh NNW 18.0 mph29.0 kmh 30.28 in1025.4 mb 0.00 in0.0 mm 0.00 in0.0 mm 0.00 in0.0 mm
12:52 PM 15.0°F-9.4°C 1.7°F-16.8°C 55% 15.0 mph NNW24.1 kmh NNW 18.0 mph29.0 kmh 30.28 in1025.4 mb 0.00 in0.0 mm 0.00 in0.0 mm 0.00 in0.0 mm
12:53 PM 14.9°F-9.5°C 1.2°F-17.1°C 54% 17.0 mph NW27.4 kmh NW 18.0 mph29.0 kmh 30.28 in1025.4 mb 0.00 in0.0 mm 0.00 in0.0 mm 0.00 in0.0 mm
12:54 PM 14.9°F-9.5°C 1.2°F-17.1°C 54% 7.0 mph 11.3 kmh 18.0 mph29.0 kmh 30.28 in1025.4 mb 0.00 in0.0 mm 0.00 in0.0 mm 0.00 in0.0 mm
12:55 PM 15.0°F-9.4°C 1.7°F-16.8°C 55% 11.0 mph NW17.7 kmh NW 18.0 mph29.0 kmh 30.27 in1025.1 mb 0.00 in0.0 mm 0.00 in0.0 mm 0.00 in0.0 mm
12:56 PM 15.0°F-9.4°C 1.7°F-16.8°C 55% 15.0 mph 24.1 kmh 18.0 mph29.0 kmh 30.27 in1025.1 mb 0.00 in0.0 mm 0.00 in0.0 mm 0.00 in0.0 mm
12:57 PM 15.0°F-9.4°C 1.7°F-16.8°C 55% 12.0 mph NW19.3 kmh NW 17.0 mph27.4 kmh 30.28 in1025.4 mb 0.00 in0.0 mm 0.00 in0.0 mm 0.00 in0.0 mm
12:58 PM 14.9°F-9.5°C 0.8°F-17.3°C 53% 10.0 mph NNW16.1 kmh NNW 17.0 mph27.4 kmh 30.28 in1025.4 mb 0.00 in0.0 mm 0.00 in0.0 mm 0.00 in0.0 mm
12:59 PM 15.0°F-9.4°C 1.7°F-16.8°C 55% 15.0 mph NNW24.1 kmh NNW 17.0 mph27.4 kmh 30.28 in1025.4 mb 0.00 in0.0 mm 0.00 in0.0 mm 0.00 in0.0 mm
01:00 PM 14.9°F-9.5°C 1.2°F-17.1°C 54% 7.0 mph NNW11.3 kmh NNW 17.0 mph27.4 kmh 30.28 in1025.4 mb 0.00 in0.0 mm 0.00 in0.0 mm 0.00 in0.0 mm
01:01 PM 15.0°F-9.4°C 1.7°F-16.8°C 55% 8.0 mph NE12.9 kmh NE 17.0 mph27.4 kmh 30.27 in1025.1 mb 0.00 in0.0 mm 0.00 in0.0 mm 0.00 in0.0 mm
01:02 PM 15.0°F-9.4°C 0.9°F-17.3°C 53% 13.0 mph NW20.9 kmh NW 17.0 mph27.4 kmh 30.27 in1025.1 mb 0.00 in0.0 mm 0.00 in0.0 mm 0.00 in0.0 mm
01:03 PM 15.0°F-9.4°C 0.9°F-17.3°C 53% 11.0 mph NW17.7 kmh NW 17.0 mph27.4 kmh 30.27 in1025.1 mb 0.00 in0.0 mm 0.00 in0.0 mm 0.00 in0.0 mm
01:04 PM 15.2°F-9.3°C 1.9°F-16.7°C 55% 12.0 mph NW19.3 kmh NW 16.0 mph25.7 kmh 30.28 in1025.4 mb 0.00 in0.0 mm 0.00 in0.0 mm 0.00 in0.0 mm
01:05 PM 15.0°F-9.4°C 0.9°F-17.3°C 53% 12.0 mph WNW19.3 kmh WNW 16.0 mph25.7 kmh 30.27 in1025.1 mb 0.00 in0.0 mm 0.00 in0.0 mm 0.00 in0.0 mm
01:06 PM 15.0°F-9.4°C 0.9°F-17.3°C 53% 10.0 mph NNE16.1 kmh NNE 16.0 mph25.7 kmh 30.27 in1025.1 mb 0.00 in0.0 mm 0.00 in0.0 mm 0.00 in0.0 mm
01:07 PM 15.0°F-9.4°C 0.9°F-17.3°C 53% 14.0 mph NW22.5 kmh NW 16.0 mph25.7 kmh 30.27 in1025.1 mb 0.00 in0.0 mm 0.00 in0.0 mm 0.00 in0.0 mm
01:08 PM 15.0°F-9.4°C 0.1°F-17.7°C 51% 10.0 mph NW16.1 kmh NW 16.0 mph25.7 kmh 30.27 in1025.1 mb 0.00 in0.0 mm 0.00 in0.0 mm 0.00 in0.0 mm
01:09 PM 15.0°F-9.4°C 0.1°F-17.7°C 51% 9.0 mph 14.5 kmh 16.0 mph25.7 kmh 30.27 in1025.1 mb 0.00 in0.0 mm 0.00 in0.0 mm 0.00 in0.0 mm
01:10 PM 14.9°F-9.5°C -0.5°F-18.1°C 50% 10.0 mph WNW16.1 kmh WNW 16.0 mph25.7 kmh 30.28 in1025.4 mb 0.00 in0.0 mm 0.00 in0.0 mm 0.00 in0.0 mm
01:11 PM 15.2°F-9.3°C 1.1°F-17.2°C 53% 10.0 mph NW16.1 kmh NW 16.0 mph25.7 kmh 30.27 in1025.1 mb 0.00 in0.0 mm 0.00 in0.0 mm 0.00 in0.0 mm
01:12 PM 15.3°F-9.3°C 2.0°F-16.7°C 55% 11.0 mph NNW17.7 kmh NNW 16.0 mph25.7 kmh 30.27 in1025.1 mb 0.00 in0.0 mm 0.00 in0.0 mm 0.00 in0.0 mm
01:13 PM 15.3°F-9.3°C 1.2°F-17.1°C 53% 16.0 mph NNW25.7 kmh NNW 16.0 mph25.7 kmh 30.27 in1025.1 mb 0.00 in0.0 mm 0.00 in0.0 mm 0.00 in0.0 mm
01:14 PM 15.3°F-9.3°C 2.4°F-16.4°C 56% 13.0 mph WNW20.9 kmh WNW 16.0 mph25.7 kmh 30.28 in1025.4 mb 0.00 in0.0 mm 0.00 in0.0 mm 0.00 in0.0 mm
01:15 PM 15.3°F-9.3°C 2.4°F-16.4°C 56% 16.0 mph W25.7 kmh W 16.0 mph25.7 kmh 30.27 in1025.1 mb 0.00 in0.0 mm 0.00 in0.0 mm 0.00 in0.0 mm
01:16 PM 15.2°F-9.3°C 1.9°F-16.7°C 55% 17.0 mph NW27.4 kmh NW 19.0 mph30.6 kmh 30.28 in1025.4 mb 0.00 in0.0 mm 0.00 in0.0 mm 0.00 in0.0 mm
01:17 PM 15.0°F-9.4°C 1.7°F-16.8°C 55% 13.0 mph WNW20.9 kmh WNW 19.0 mph30.6 kmh 30.27 in1025.1 mb 0.00 in0.0 mm 0.00 in0.0 mm 0.00 in0.0 mm
01:18 PM 15.0°F-9.4°C 0.9°F-17.3°C 53% 15.0 mph WNW24.1 kmh WNW 19.0 mph30.6 kmh 30.27 in1025.1 mb 0.00 in0.0 mm 0.00 in0.0 mm 0.00 in0.0 mm
01:19 PM 15.0°F-9.4°C 0.9°F-17.3°C 53% 13.0 mph NW20.9 kmh NW 19.0 mph30.6 kmh 30.27 in1025.1 mb 0.00 in0.0 mm 0.00 in0.0 mm 0.00 in0.0 mm
01:20 PM 15.0°F-9.4°C 0.9°F-17.3°C 53% 15.0 mph NNW24.1 kmh NNW 19.0 mph30.6 kmh 30.27 in1025.1 mb 0.00 in0.0 mm 0.00 in0.0 mm 0.00 in0.0 mm
01:21 PM 15.2°F-9.3°C 0.2°F-17.7°C 51% 11.0 mph NW17.7 kmh NW 19.0 mph30.6 kmh 30.27 in1025.1 mb 0.00 in0.0 mm 0.00 in0.0 mm 0.00 in0.0 mm
01:22 PM 15.3°F-9.3°C 1.2°F-17.1°C 53% 12.0 mph WNW19.3 kmh WNW 19.0 mph30.6 kmh 30.27 in1025.1 mb 0.00 in0.0 mm 0.00 in0.0 mm 0.00 in0.0 mm
01:23 PM 15.6°F-9.1°C 1.9°F-16.7°C 54% 10.0 mph NW16.1 kmh NW 19.0 mph30.6 kmh 30.27 in1025.1 mb 0.00 in0.0 mm 0.00 in0.0 mm 0.00 in0.0 mm
01:24 PM 15.6°F-9.1°C 1.5°F-16.9°C 53% 13.0 mph WNW20.9 kmh WNW 19.0 mph30.6 kmh 30.27 in1025.1 mb 0.00 in0.0 mm 0.00 in0.0 mm 0.00 in0.0 mm
01:25 PM 15.6°F-9.1°C 1.5°F-16.9°C 53% 13.0 mph WNW20.9 kmh WNW 19.0 mph30.6 kmh 30.27 in1025.1 mb 0.00 in0.0 mm 0.00 in0.0 mm 0.00 in0.0 mm
01:26 PM 15.3°F-9.3°C 0.3°F-17.6°C 51% 15.0 mph WNW24.1 kmh WNW 15.0 mph24.1 kmh 30.27 in1025.1 mb 0.00 in0.0 mm 0.00 in0.0 mm 0.00 in0.0 mm
01:27 PM 15.6°F-9.1°C 2.3°F-16.5°C 55% 14.0 mph WNW22.5 kmh WNW 15.0 mph24.1 kmh 30.27 in1025.1 mb 0.00 in0.0 mm 0.00 in0.0 mm 0.00 in0.0 mm
01:28 PM 15.6°F-9.1°C 2.3°F-16.5°C 55% 15.0 mph W24.1 kmh W 15.0 mph24.1 kmh 30.27 in1025.1 mb 0.00 in0.0 mm 0.00 in0.0 mm 0.00 in0.0 mm
01:29 PM 15.3°F-9.3°C 2.0°F-16.7°C 55% 16.0 mph W25.7 kmh W 16.0 mph25.7 kmh 30.27 in1025.1 mb 0.00 in0.0 mm 0.00 in0.0 mm 0.00 in0.0 mm
01:30 PM 15.2°F-9.3°C 1.9°F-16.7°C 55% 18.0 mph W29.0 kmh W 18.0 mph29.0 kmh 30.28 in1025.4 mb 0.00 in0.0 mm 0.00 in0.0 mm 0.00 in0.0 mm
01:31 PM 15.0°F-9.4°C 1.3°F-17.1°C 54% 17.0 mph WNW27.4 kmh WNW 20.0 mph32.2 kmh 30.27 in1025.1 mb 0.00 in0.0 mm 0.00 in0.0 mm 0.00 in0.0 mm
01:32 PM 15.0°F-9.4°C 0.9°F-17.3°C 53% 19.0 mph WNW30.6 kmh WNW 21.0 mph33.8 kmh 30.27 in1025.1 mb 0.00 in0.0 mm 0.00 in0.0 mm 0.00 in0.0 mm
01:33 PM 14.9°F-9.5°C 1.2°F-17.1°C 54% 20.0 mph NW32.2 kmh NW 21.0 mph33.8 kmh 30.27 in1025.1 mb 0.00 in0.0 mm 0.00 in0.0 mm 0.00 in0.0 mm
01:34 PM 14.7°F-9.6°C 0.6°F-17.4°C 53% 16.0 mph W25.7 kmh W 23.0 mph37.0 kmh 30.27 in1025.1 mb 0.00 in0.0 mm 0.00 in0.0 mm 0.00 in0.0 mm
01:35 PM 14.7°F-9.6°C 0.6°F-17.4°C 53% 15.0 mph NW24.1 kmh NW 23.0 mph37.0 kmh 30.27 in1025.1 mb 0.00 in0.0 mm 0.00 in0.0 mm 0.00 in0.0 mm
01:36 PM 15.0°F-9.4°C 1.7°F-16.8°C 55% 15.0 mph NW24.1 kmh NW 23.0 mph37.0 kmh 30.27 in1025.1 mb 0.00 in0.0 mm 0.00 in0.0 mm 0.00 in0.0 mm
01:37 PM 15.0°F-9.4°C 1.7°F-16.8°C 55% 15.0 mph NW24.1 kmh NW 23.0 mph37.0 kmh 30.27 in1025.1 mb 0.00 in0.0 mm 0.00 in0.0 mm 0.00 in0.0 mm
01:38 PM 15.2°F-9.3°C 1.9°F-16.7°C 55% 13.0 mph NW20.9 kmh NW 23.0 mph37.0 kmh 30.27 in1025.1 mb 0.00 in0.0 mm 0.00 in0.0 mm 0.00 in0.0 mm
01:39 PM 15.2°F-9.3°C 1.9°F-16.7°C 55% 13.0 mph NW20.9 kmh NW 23.0 mph37.0 kmh 30.27 in1025.1 mb 0.00 in0.0 mm 0.00 in0.0 mm 0.00 in0.0 mm
01:40 PM 15.2°F-9.3°C 1.9°F-16.7°C 55% 13.0 mph WNW20.9 kmh WNW 23.0 mph37.0 kmh 30.27 in1025.1 mb 0.00 in0.0 mm 0.00 in0.0 mm 0.00 in0.0 mm
01:41 PM 15.2°F-9.3°C 1.1°F-17.2°C 53% 12.0 mph NNW19.3 kmh NNW 23.0 mph37.0 kmh 30.27 in1025.1 mb 0.00 in0.0 mm 0.00 in0.0 mm 0.00 in0.0 mm
01:42 PM 15.2°F-9.3°C 1.1°F-17.2°C 53% 11.0 mph NW17.7 kmh NW 23.0 mph37.0 kmh 30.27 in1025.1 mb 0.00 in0.0 mm 0.00 in0.0 mm 0.00 in0.0 mm
01:43 PM 15.3°F-9.3°C 0.3°F-17.6°C 51% 17.0 mph NW27.4 kmh NW 23.0 mph37.0 kmh 30.27 in1025.1 mb 0.00 in0.0 mm 0.00 in0.0 mm 0.00 in0.0 mm
01:44 PM 15.3°F-9.3°C 1.2°F-17.1°C 53% 15.0 mph WNW24.1 kmh WNW 18.0 mph29.0 kmh 30.28 in1025.4 mb 0.00 in0.0 mm 0.00 in0.0 mm 0.00 in0.0 mm
01:45 PM 15.3°F-9.3°C 1.2°F-17.1°C 53% 17.0 mph NW27.4 kmh NW 19.0 mph30.6 kmh 30.27 in1025.1 mb 0.00 in0.0 mm 0.00 in0.0 mm 0.00 in0.0 mm
01:46 PM 15.3°F-9.3°C 1.6°F-16.9°C 54% 16.0 mph NW25.7 kmh NW 19.0 mph30.6 kmh 30.27 in1025.1 mb 0.00 in0.0 mm 0.00 in0.0 mm 0.00 in0.0 mm
01:47 PM 15.3°F-9.3°C 2.0°F-16.7°C 55% 15.0 mph NNW24.1 kmh NNW 19.0 mph30.6 kmh 30.27 in1025.1 mb 0.00 in0.0 mm 0.00 in0.0 mm 0.00 in0.0 mm
01:48 PM 15.3°F-9.3°C 1.2°F-17.1°C 53% 17.0 mph NW27.4 kmh NW 19.0 mph30.6 kmh 30.27 in1025.1 mb 0.00 in0.0 mm 0.00 in0.0 mm 0.00 in0.0 mm
01:49 PM 15.3°F-9.3°C 1.2°F-17.1°C 53% 17.0 mph WNW27.4 kmh WNW 19.0 mph30.6 kmh 30.27 in1025.1 mb 0.00 in0.0 mm 0.00 in0.0 mm 0.00 in0.0 mm
01:50 PM 15.2°F-9.3°C 1.1°F-17.2°C 53% 13.0 mph NW20.9 kmh NW 19.0 mph30.6 kmh 30.27 in1025.1 mb 0.00 in0.0 mm 0.00 in0.0 mm 0.00 in0.0 mm
01:51 PM 15.6°F-9.1°C 1.9°F-16.7°C 54% 19.0 mph WNW30.6 kmh WNW 19.0 mph30.6 kmh 30.27 in1025.1 mb 0.00 in0.0 mm 0.00 in0.0 mm 0.00 in0.0 mm
01:52 PM 15.6°F-9.1°C 1.9°F-16.7°C 54% 18.0 mph NW29.0 kmh NW 19.0 mph30.6 kmh 30.27 in1025.1 mb 0.00 in0.0 mm 0.00 in0.0 mm 0.00 in0.0 mm
01:53 PM 15.6°F-9.1°C 1.9°F-16.7°C 54% 16.0 mph WNW25.7 kmh WNW 19.0 mph30.6 kmh 30.27 in1025.1 mb 0.00 in0.0 mm 0.00 in0.0 mm 0.00 in0.0 mm
01:54 PM 15.8°F-9.0°C 2.1°F-16.6°C 54% 13.0 mph WNW20.9 kmh WNW 19.0 mph30.6 kmh 30.28 in1025.4 mb 0.00 in0.0 mm 0.00 in0.0 mm 0.00 in0.0 mm
01:55 PM 15.9°F-8.9°C 1.7°F-16.8°C 53% 12.0 mph WNW19.3 kmh WNW 19.0 mph30.6 kmh 30.27 in1025.1 mb 0.00 in0.0 mm 0.00 in0.0 mm 0.00 in0.0 mm
01:56 PM 15.8°F-9.0°C 0.4°F-17.6°C 50% 16.0 mph WNW25.7 kmh WNW 19.0 mph30.6 kmh 30.27 in1025.1 mb 0.00 in0.0 mm 0.00 in0.0 mm 0.00 in0.0 mm
01:57 PM 15.6°F-9.1°C 0.2°F-17.7°C 50% 14.0 mph NW22.5 kmh NW 19.0 mph30.6 kmh 30.27 in1025.1 mb 0.00 in0.0 mm 0.00 in0.0 mm 0.00 in0.0 mm
01:58 PM 15.6°F-9.1°C 0.2°F-17.7°C 50% 12.0 mph NW19.3 kmh NW 19.0 mph30.6 kmh 30.27 in1025.1 mb 0.00 in0.0 mm 0.00 in0.0 mm 0.00 in0.0 mm
01:59 PM 15.6°F-9.1°C 0.2°F-17.7°C 50% 6.0 mph NW9.7 kmh NW 19.0 mph30.6 kmh 30.27 in1025.1 mb 0.00 in0.0 mm 0.00 in0.0 mm 0.00 in0.0 mm
02:00 PM 15.8°F-9.0°C -0.5°F-18.1°C 48% 13.0 mph NNW20.9 kmh NNW 19.0 mph30.6 kmh 30.27 in1025.1 mb 0.00 in0.0 mm 0.00 in0.0 mm 0.00 in0.0 mm
02:01 PM 15.8°F-9.0°C -0.5°F-18.1°C 48% 9.0 mph NNW14.5 kmh NNW 19.0 mph30.6 kmh 30.26 in1024.7 mb 0.00 in0.0 mm 0.00 in0.0 mm 0.00 in0.0 mm
02:02 PM 16.2°F-8.8°C 0.7°F-17.4°C 50% 15.0 mph NW24.1 kmh NW 17.0 mph27.4 kmh 30.27 in1025.1 mb 0.00 in0.0 mm 0.00 in0.0 mm 0.00 in0.0 mm
02:03 PM 16.2°F-8.8°C 1.2°F-17.1°C 51% 12.0 mph WNW19.3 kmh WNW 17.0 mph27.4 kmh 30.26 in1024.7 mb 0.00 in0.0 mm 0.00 in0.0 mm 0.00 in0.0 mm
02:04 PM 16.2°F-8.8°C 1.2°F-17.1°C 51% 14.0 mph WNW22.5 kmh WNW 17.0 mph27.4 kmh 30.27 in1025.1 mb 0.00 in0.0 mm 0.00 in0.0 mm 0.00 in0.0 mm
02:05 PM 16.2°F-8.8°C 0.7°F-17.4°C 50% 12.0 mph WNW19.3 kmh WNW 17.0 mph27.4 kmh 30.27 in1025.1 mb 0.00 in0.0 mm 0.00 in0.0 mm 0.00 in0.0 mm
02:06 PM 16.2°F-8.8°C 1.2°F-17.1°C 51% 10.0 mph WNW16.1 kmh WNW 17.0 mph27.4 kmh 30.27 in1025.1 mb 0.00 in0.0 mm 0.00 in0.0 mm 0.00 in0.0 mm
02:07 PM 16.7°F-8.5°C 2.9°F-16.2°C 54% 15.0 mph NW24.1 kmh NW 17.0 mph27.4 kmh 30.27 in1025.1 mb 0.00 in0.0 mm 0.00 in0.0 mm 0.00 in0.0 mm
02:08 PM 16.7°F-8.5°C 2.5°F-16.4°C 53% 10.0 mph WNW16.1 kmh WNW 15.0 mph24.1 kmh 30.27 in1025.1 mb 0.00 in0.0 mm 0.00 in0.0 mm 0.00 in0.0 mm
02:09 PM 16.7°F-8.5°C 2.5°F-16.4°C 53% 13.0 mph NNW20.9 kmh NNW 15.0 mph24.1 kmh 30.26 in1024.7 mb 0.00 in0.0 mm 0.00 in0.0 mm 0.00 in0.0 mm
02:10 PM 16.9°F-8.4°C 2.7°F-16.3°C 53% 13.0 mph WNW20.9 kmh WNW 20.0 mph32.2 kmh 30.28 in1025.4 mb 0.00 in0.0 mm 0.00 in0.0 mm 0.00 in0.0 mm
02:11 PM 16.4°F-8.7°C 0.9°F-17.3°C 50% 15.0 mph WNW24.1 kmh WNW 20.0 mph32.2 kmh 30.27 in1025.1 mb 0.00 in0.0 mm 0.00 in0.0 mm 0.00 in0.0 mm
02:12 PM 16.4°F-8.7°C 0.5°F-17.5°C 49% 11.0 mph WNW17.7 kmh WNW 20.0 mph32.2 kmh 30.27 in1025.1 mb 0.00 in0.0 mm 0.00 in0.0 mm 0.00 in0.0 mm
02:13 PM 16.4°F-8.7°C 0.0°F-17.8°C 48% 11.0 mph W17.7 kmh W 20.0 mph32.2 kmh 30.27 in1025.1 mb 0.00 in0.0 mm 0.00 in0.0 mm 0.00 in0.0 mm
02:14 PM 16.7°F-8.5°C 1.2°F-17.1°C 50% 17.0 mph NW27.4 kmh NW 20.0 mph32.2 kmh 30.27 in1025.1 mb 0.00 in0.0 mm 0.00 in0.0 mm 0.00 in0.0 mm
02:15 PM 16.7°F-8.5°C 2.5°F-16.4°C 53% 11.0 mph NW17.7 kmh NW 20.0 mph32.2 kmh 30.27 in1025.1 mb 0.00 in0.0 mm 0.00 in0.0 mm 0.00 in0.0 mm
02:16 PM 16.7°F-8.5°C 2.5°F-16.4°C 53% 15.0 mph NW24.1 kmh NW 20.0 mph32.2 kmh 30.27 in1025.1 mb 0.00 in0.0 mm 0.00 in0.0 mm 0.00 in0.0 mm
02:17 PM 16.4°F-8.7°C 2.2°F-16.6°C 53% 10.0 mph NW16.1 kmh NW 20.0 mph32.2 kmh 30.26 in1024.7 mb 0.00 in0.0 mm 0.00 in0.0 mm 0.00 in0.0 mm
02:18 PM 16.4°F-8.7°C 2.2°F-16.6°C 53% 13.0 mph NW20.9 kmh NW 20.0 mph32.2 kmh 30.27 in1025.1 mb 0.00 in0.0 mm 0.00 in0.0 mm 0.00 in0.0 mm
02:19 PM 16.7°F-8.5°C 1.6°F-16.9°C 51% 11.0 mph WNW17.7 kmh WNW 20.0 mph32.2 kmh 30.27 in1025.1 mb 0.00 in0.0 mm 0.00 in0.0 mm 0.00 in0.0 mm
02:20 PM 17.2°F-8.2°C 3.8°F-15.7°C 55% 17.0 mph NW27.4 kmh NW 17.0 mph27.4 kmh 30.27 in1025.1 mb 0.00 in0.0 mm 0.00 in0.0 mm 0.00 in0.0 mm
02:21 PM 17.2°F-8.2°C 3.8°F-15.7°C 55% 15.0 mph W24.1 kmh W 17.0 mph27.4 kmh 30.27 in1025.1 mb 0.00 in0.0 mm 0.00 in0.0 mm 0.00 in0.0 mm
02:22 PM 16.9°F-8.4°C 1.8°F-16.8°C 51% 19.0 mph NW30.6 kmh NW 19.0 mph30.6 kmh 30.27 in1025.1 mb 0.00 in0.0 mm 0.00 in0.0 mm 0.00 in0.0 mm
02:23 PM 16.7°F-8.5°C 2.9°F-16.2°C 54% 13.0 mph NW20.9 kmh NW 19.0 mph30.6 kmh 30.27 in1025.1 mb 0.00 in0.0 mm 0.00 in0.0 mm 0.00 in0.0 mm
02:24 PM 16.4°F-8.7°C 1.4°F-17.0°C 51% 13.0 mph W20.9 kmh W 19.0 mph30.6 kmh 30.27 in1025.1 mb 0.00 in0.0 mm 0.00 in0.0 mm 0.00 in0.0 mm
02:25 PM 16.7°F-8.5°C 2.9°F-16.2°C 54% 15.0 mph WNW24.1 kmh WNW 19.0 mph30.6 kmh 30.26 in1024.7 mb 0.00 in0.0 mm 0.00 in0.0 mm 0.00 in0.0 mm
02:26 PM 16.7°F-8.5°C 1.6°F-16.9°C 51% 14.0 mph NW22.5 kmh NW 19.0 mph30.6 kmh 30.27 in1025.1 mb 0.00 in0.0 mm 0.00 in0.0 mm 0.00 in0.0 mm
02:27 PM 16.7°F-8.5°C 2.5°F-16.4°C 53% 12.0 mph NW19.3 kmh NW 19.0 mph30.6 kmh 30.26 in1024.7 mb 0.00 in0.0 mm 0.00 in0.0 mm 0.00 in0.0 mm
02:28 PM 17.1°F-8.3°C 2.0°F-16.7°C 51% 8.0 mph NW12.9 kmh NW 19.0 mph30.6 kmh 30.27 in1025.1 mb 0.00 in0.0 mm 0.00 in0.0 mm 0.00 in0.0 mm
02:29 PM 17.2°F-8.2°C 3.0°F-16.1°C 53% 16.0 mph NW25.7 kmh NW 19.0 mph30.6 kmh 30.27 in1025.1 mb 0.00 in0.0 mm 0.00 in0.0 mm 0.00 in0.0 mm
02:30 PM 17.1°F-8.3°C 2.9°F-16.2°C 53% 15.0 mph NW24.1 kmh NW 19.0 mph30.6 kmh 30.27 in1025.1 mb 0.00 in0.0 mm 0.00 in0.0 mm 0.00 in0.0 mm
02:31 PM 17.1°F-8.3°C 2.9°F-16.2°C 53% 17.0 mph WNW27.4 kmh WNW 19.0 mph30.6 kmh 30.26 in1024.7 mb 0.00 in0.0 mm 0.00 in0.0 mm 0.00 in0.0 mm
02:32 PM 16.7°F-8.5°C 1.2°F-17.1°C 50% 14.0 mph WNW22.5 kmh WNW 21.0 mph33.8 kmh 30.27 in1025.1 mb 0.00 in0.0 mm 0.00 in0.0 mm 0.00 in0.0 mm
02:33 PM 16.7°F-8.5°C 1.2°F-17.1°C 50% 15.0 mph NW24.1 kmh NW 21.0 mph33.8 kmh 30.26 in1024.7 mb 0.00 in0.0 mm 0.00 in0.0 mm 0.00 in0.0 mm
02:34 PM 16.7°F-8.5°C 0.8°F-17.3°C 49% 10.0 mph NW16.1 kmh NW 21.0 mph33.8 kmh 30.27 in1025.1 mb 0.00 in0.0 mm 0.00 in0.0 mm 0.00 in0.0 mm
02:35 PM 16.7°F-8.5°C 0.3°F-17.6°C 48% 10.0 mph NW16.1 kmh NW 21.0 mph33.8 kmh 30.26 in1024.7 mb 0.00 in0.0 mm 0.00 in0.0 mm 0.00 in0.0 mm
02:36 PM 17.2°F-8.2°C 3.0°F-16.1°C 53% 13.0 mph WNW20.9 kmh WNW 21.0 mph33.8 kmh 30.27 in1025.1 mb 0.00 in0.0 mm 0.00 in0.0 mm 0.00 in0.0 mm
02:37 PM 17.2°F-8.2°C 1.7°F-16.8°C 50% 11.0 mph NW17.7 kmh NW 21.0 mph33.8 kmh 30.27 in1025.1 mb 0.00 in0.0 mm 0.00 in0.0 mm 0.00 in0.0 mm
02:38 PM 17.1°F-8.3°C 1.1°F-17.2°C 49% 11.0 mph W17.7 kmh W 21.0 mph33.8 kmh 30.27 in1025.1 mb 0.00 in0.0 mm 0.00 in0.0 mm 0.00 in0.0 mm
02:39 PM 16.9°F-8.4°C 0.9°F-17.3°C 49% 11.0 mph NW17.7 kmh NW 21.0 mph33.8 kmh 30.27 in1025.1 mb 0.00 in0.0 mm 0.00 in0.0 mm 0.00 in0.0 mm
02:40 PM 16.9°F-8.4°C 1.4°F-17.0°C 50% 17.0 mph NNW27.4 kmh NNW 21.0 mph33.8 kmh 30.27 in1025.1 mb 0.00 in0.0 mm 0.00 in0.0 mm 0.00 in0.0 mm
02:41 PM 16.7°F-8.5°C 0.8°F-17.3°C 49% 16.0 mph WNW25.7 kmh WNW 19.0 mph30.6 kmh 30.27 in1025.1 mb 0.00 in0.0 mm 0.00 in0.0 mm 0.00 in0.0 mm
02:42 PM 16.4°F-8.7°C 0.5°F-17.5°C 49% 19.0 mph NW30.6 kmh NW 19.0 mph30.6 kmh 30.27 in1025.1 mb 0.00 in0.0 mm 0.00 in0.0 mm 0.00 in0.0 mm
02:43 PM 16.4°F-8.7°C 0.9°F-17.3°C 50% 12.0 mph WNW19.3 kmh WNW 19.0 mph30.6 kmh 30.26 in1024.7 mb 0.00 in0.0 mm 0.00 in0.0 mm 0.00 in0.0 mm
02:44 PM 16.7°F-8.5°C 1.2°F-17.1°C 50% 13.0 mph NNW20.9 kmh NNW 19.0 mph30.6 kmh 30.27 in1025.1 mb 0.00 in0.0 mm 0.00 in0.0 mm 0.00 in0.0 mm
02:45 PM 16.7°F-8.5°C 1.2°F-17.1°C 50% 10.0 mph NNW16.1 kmh NNW 19.0 mph30.6 kmh 30.27 in1025.1 mb 0.00 in0.0 mm 0.00 in0.0 mm 0.00 in0.0 mm
02:46 PM 16.9°F-8.4°C 1.4°F-17.0°C 50% 14.0 mph NW22.5 kmh NW 19.0 mph30.6 kmh 30.27 in1025.1 mb 0.00 in0.0 mm 0.00 in0.0 mm 0.00 in0.0 mm
02:47 PM 16.9°F-8.4°C 1.8°F-16.8°C 51% 10.0 mph NNW16.1 kmh NNW 19.0 mph30.6 kmh 30.27 in1025.1 mb 0.00 in0.0 mm 0.00 in0.0 mm 0.00 in0.0 mm
02:48 PM 16.9°F-8.4°C 0.9°F-17.3°C 49% 11.0 mph NW17.7 kmh NW 19.0 mph30.6 kmh 30.27 in1025.1 mb 0.00 in0.0 mm 0.00 in0.0 mm 0.00 in0.0 mm
02:49 PM 16.9°F-8.4°C 0.5°F-17.5°C 48% 15.0 mph NW24.1 kmh NW 19.0 mph30.6 kmh 30.27 in1025.1 mb 0.00 in0.0 mm 0.00 in0.0 mm 0.00 in0.0 mm
02:50 PM 16.9°F-8.4°C 0.5°F-17.5°C 48% 11.0 mph NNW17.7 kmh NNW 19.0 mph30.6 kmh 30.28 in1025.4 mb 0.00 in0.0 mm 0.00 in0.0 mm 0.00 in0.0 mm
02:51 PM 17.2°F-8.2°C 1.7°F-16.8°C 50% 11.0 mph NNW17.7 kmh NNW 19.0 mph30.6 kmh 30.27 in1025.1 mb 0.00 in0.0 mm 0.00 in0.0 mm 0.00 in0.0 mm
02:52 PM 17.2°F-8.2°C 1.7°F-16.8°C 50% 10.0 mph W16.1 kmh W 19.0 mph30.6 kmh 30.28 in1025.4 mb 0.00 in0.0 mm 0.00 in0.0 mm 0.00 in0.0 mm
02:53 PM 17.2°F-8.2°C -0.2°F-17.9°C 46% 10.0 mph WNW16.1 kmh WNW 17.0 mph27.4 kmh 30.27 in1025.1 mb 0.00 in0.0 mm 0.00 in0.0 mm 0.00 in0.0 mm
02:54 PM 17.1°F-8.3°C 0.7°F-17.4°C 48% 11.0 mph NW17.7 kmh NW 16.0 mph25.7 kmh 30.28 in1025.4 mb 0.00 in0.0 mm 0.00 in0.0 mm 0.00 in0.0 mm
02:55 PM 16.9°F-8.4°C 0.5°F-17.5°C 48% 12.0 mph W19.3 kmh W 16.0 mph25.7 kmh 30.27 in1025.1 mb 0.00 in0.0 mm 0.00 in0.0 mm 0.00 in0.0 mm
02:56 PM 16.9°F-8.4°C 1.4°F-17.0°C 50% 14.0 mph W22.5 kmh W 16.0 mph25.7 kmh 30.28 in1025.4 mb 0.00 in0.0 mm 0.00 in0.0 mm 0.00 in0.0 mm
02:57 PM 17.1°F-8.3°C 2.0°F-16.7°C 51% 13.0 mph W20.9 kmh W 16.0 mph25.7 kmh 30.27 in1025.1 mb 0.00 in0.0 mm 0.00 in0.0 mm 0.00 in0.0 mm
02:58 PM 17.2°F-8.2°C 3.4°F-15.9°C 54% 15.0 mph WNW24.1 kmh WNW 17.0 mph27.4 kmh 30.28 in1025.4 mb 0.00 in0.0 mm 0.00 in0.0 mm 0.00 in0.0 mm
02:59 PM 17.1°F-8.3°C 2.0°F-16.7°C 51% 16.0 mph WNW25.7 kmh WNW 17.0 mph27.4 kmh 30.28 in1025.4 mb 0.00 in0.0 mm 0.00 in0.0 mm 0.00 in0.0 mm
03:00 PM 16.9°F-8.4°C 0.5°F-17.5°C 48% 12.0 mph WNW19.3 kmh WNW 17.0 mph27.4 kmh 30.28 in1025.4 mb 0.00 in0.0 mm 0.00 in0.0 mm 0.00 in0.0 mm
03:01 PM 16.7°F-8.5°C -0.6°F-18.1°C 46% 13.0 mph WNW20.9 kmh WNW 17.0 mph27.4 kmh 30.27 in1025.1 mb 0.00 in0.0 mm 0.00 in0.0 mm 0.00 in0.0 mm
03:02 PM 16.7°F-8.5°C 0.8°F-17.3°C 49% 13.0 mph WNW20.9 kmh WNW 17.0 mph27.4 kmh 30.28 in1025.4 mb 0.00 in0.0 mm 0.00 in0.0 mm 0.00 in0.0 mm
03:03 PM 16.7°F-8.5°C 0.8°F-17.3°C 49% 13.0 mph WNW20.9 kmh WNW 17.0 mph27.4 kmh 30.28 in1025.4 mb 0.00 in0.0 mm 0.00 in0.0 mm 0.00 in0.0 mm
03:04 PM 16.7°F-8.5°C 0.8°F-17.3°C 49% 13.0 mph WNW20.9 kmh WNW 17.0 mph27.4 kmh 30.28 in1025.4 mb 0.00 in0.0 mm 0.00 in0.0 mm 0.00 in0.0 mm
03:05 PM 16.7°F-8.5°C 0.8°F-17.3°C 49% 13.0 mph WNW20.9 kmh WNW 17.0 mph27.4 kmh 30.28 in1025.4 mb 0.00 in0.0 mm 0.00 in0.0 mm 0.00 in0.0 mm
03:06 PM 16.7°F-8.5°C 0.8°F-17.3°C 49% 13.0 mph WNW20.9 kmh WNW 17.0 mph27.4 kmh 30.28 in1025.4 mb 0.00 in0.0 mm 0.00 in0.0 mm 0.00 in0.0 mm
03:07 PM 16.7°F-8.5°C 0.8°F-17.3°C 49% 12.0 mph WNW19.3 kmh WNW 17.0 mph27.4 kmh 30.28 in1025.4 mb 0.00 in0.0 mm 0.00 in0.0 mm 0.00 in0.0 mm
03:08 PM 16.9°F-8.4°C 1.4°F-17.0°C 50% 19.0 mph NW30.6 kmh NW 19.0 mph30.6 kmh 30.28 in1025.4 mb 0.00 in0.0 mm 0.00 in0.0 mm 0.00 in0.0 mm
03:09 PM 16.7°F-8.5°C 1.6°F-16.9°C 51% 16.0 mph WNW25.7 kmh WNW 20.0 mph32.2 kmh 30.28 in1025.4 mb 0.00 in0.0 mm 0.00 in0.0 mm 0.00 in0.0 mm
03:10 PM 16.4°F-8.7°C 0.9°F-17.3°C 50% 17.0 mph WNW27.4 kmh WNW 20.0 mph32.2 kmh 30.28 in1025.4 mb 0.00 in0.0 mm 0.00 in0.0 mm 0.00 in0.0 mm
03:11 PM 16.7°F-8.5°C 1.2°F-17.1°C 50% 13.0 mph 20.9 kmh 20.0 mph32.2 kmh 30.28 in1025.4 mb 0.00 in0.0 mm 0.00 in0.0 mm 0.00 in0.0 mm
03:12 PM 16.7°F-8.5°C 1.2°F-17.1°C 50% 8.0 mph WNW12.9 kmh WNW 20.0 mph32.2 kmh 30.28 in1025.4 mb 0.00 in0.0 mm 0.00 in0.0 mm 0.00 in0.0 mm
03:13 PM 16.4°F-8.7°C 0.0°F-17.8°C 48% 15.0 mph WNW24.1 kmh WNW 20.0 mph32.2 kmh 30.28 in1025.4 mb 0.00 in0.0 mm 0.00 in0.0 mm 0.00 in0.0 mm
03:14 PM 16.7°F-8.5°C 0.8°F-17.3°C 49% 13.0 mph WNW20.9 kmh WNW 20.0 mph32.2 kmh 30.28 in1025.4 mb 0.00 in0.0 mm 0.00 in0.0 mm 0.00 in0.0 mm
03:15 PM 16.7°F-8.5°C 0.3°F-17.6°C 48% 14.0 mph NW22.5 kmh NW 20.0 mph32.2 kmh 30.27 in1025.1 mb 0.00 in0.0 mm 0.00 in0.0 mm 0.00 in0.0 mm
03:16 PM 16.4°F-8.7°C 0.0°F-17.8°C 48% 15.0 mph W24.1 kmh W 22.0 mph35.4 kmh 30.28 in1025.4 mb 0.00 in0.0 mm 0.00 in0.0 mm 0.00 in0.0 mm
03:17 PM 16.7°F-8.5°C 0.8°F-17.3°C 49% 11.0 mph NNW17.7 kmh NNW 22.0 mph35.4 kmh 30.28 in1025.4 mb 0.00 in0.0 mm 0.00 in0.0 mm 0.00 in0.0 mm
03:18 PM 17.1°F-8.3°C 1.6°F-16.9°C 50% 17.0 mph NNW27.4 kmh NNW 22.0 mph35.4 kmh 30.28 in1025.4 mb 0.00 in0.0 mm 0.00 in0.0 mm 0.00 in0.0 mm
03:19 PM 16.9°F-8.4°C 1.4°F-17.0°C 50% 17.0 mph NNW27.4 kmh NNW 22.0 mph35.4 kmh 30.28 in1025.4 mb 0.00 in0.0 mm 0.00 in0.0 mm 0.00 in0.0 mm
03:20 PM 16.9°F-8.4°C 3.1°F-16.1°C 54% 13.0 mph 20.9 kmh 22.0 mph35.4 kmh 30.28 in1025.4 mb 0.00 in0.0 mm 0.00 in0.0 mm 0.00 in0.0 mm
03:21 PM 16.9°F-8.4°C 3.1°F-16.1°C 54% 17.0 mph NW27.4 kmh NW 22.0 mph35.4 kmh 30.27 in1025.1 mb 0.00 in0.0 mm 0.00 in0.0 mm 0.00 in0.0 mm
03:22 PM 16.7°F-8.5°C 1.2°F-17.1°C 50% 14.0 mph NW22.5 kmh NW 22.0 mph35.4 kmh 30.27 in1025.1 mb 0.00 in0.0 mm 0.00 in0.0 mm 0.00 in0.0 mm
03:23 PM 16.9°F-8.4°C 1.8°F-16.8°C 51% 14.0 mph NW22.5 kmh NW 22.0 mph35.4 kmh 30.28 in1025.4 mb 0.00 in0.0 mm 0.00 in0.0 mm 0.00 in0.0 mm
03:24 PM 16.9°F-8.4°C 1.8°F-16.8°C 51% 12.0 mph NW19.3 kmh NW 22.0 mph35.4 kmh 30.28 in1025.4 mb 0.00 in0.0 mm 0.00 in0.0 mm 0.00 in0.0 mm
03:25 PM 16.9°F-8.4°C 2.7°F-16.3°C 53% 13.0 mph NNW20.9 kmh NNW 22.0 mph35.4 kmh 30.28 in1025.4 mb 0.00 in0.0 mm 0.00 in0.0 mm 0.00 in0.0 mm
03:26 PM 16.9°F-8.4°C 2.7°F-16.3°C 53% 15.0 mph NNW24.1 kmh NNW 20.0 mph32.2 kmh 30.28 in1025.4 mb 0.00 in0.0 mm 0.00 in0.0 mm 0.00 in0.0 mm
03:27 PM 16.9°F-8.4°C 1.4°F-17.0°C 50% 17.0 mph WNW27.4 kmh WNW 20.0 mph32.2 kmh 30.28 in1025.4 mb 0.00 in0.0 mm 0.00 in0.0 mm 0.00 in0.0 mm
03:28 PM 16.7°F-8.5°C 0.8°F-17.3°C 49% 11.0 mph NNW17.7 kmh NNW 20.0 mph32.2 kmh 30.28 in1025.4 mb 0.00 in0.0 mm 0.00 in0.0 mm 0.00 in0.0 mm
03:29 PM 16.7°F-8.5°C 0.3°F-17.6°C 48% 15.0 mph NNW24.1 kmh NNW 20.0 mph32.2 kmh 30.27 in1025.1 mb 0.00 in0.0 mm 0.00 in0.0 mm 0.00 in0.0 mm
03:30 PM 16.7°F-8.5°C -0.6°F-18.1°C 46% 13.0 mph WNW20.9 kmh WNW 20.0 mph32.2 kmh 30.28 in1025.4 mb 0.00 in0.0 mm 0.00 in0.0 mm 0.00 in0.0 mm
03:31 PM 16.7°F-8.5°C 0.3°F-17.6°C 48% 15.0 mph WNW24.1 kmh WNW 20.0 mph32.2 kmh 30.28 in1025.4 mb 0.00 in0.0 mm 0.00 in0.0 mm 0.00 in0.0 mm
03:32 PM 16.7°F-8.5°C 1.2°F-17.1°C 50% 15.0 mph NW24.1 kmh NW 19.0 mph30.6 kmh 30.29 in1025.7 mb 0.00 in0.0 mm 0.00 in0.0 mm 0.00 in0.0 mm
03:33 PM 16.9°F-8.4°C 3.5°F-15.8°C 55% 16.0 mph NNE25.7 kmh NNE 19.0 mph30.6 kmh 30.28 in1025.4 mb 0.00 in0.0 mm 0.00 in0.0 mm 0.00 in0.0 mm
03:34 PM 16.7°F-8.5°C 1.6°F-16.9°C 51% 18.0 mph NNW29.0 kmh NNW 19.0 mph30.6 kmh 30.28 in1025.4 mb 0.00 in0.0 mm 0.00 in0.0 mm 0.00 in0.0 mm
03:35 PM 16.7°F-8.5°C 1.2°F-17.1°C 50% 17.0 mph NNW27.4 kmh NNW 19.0 mph30.6 kmh 30.28 in1025.4 mb 0.00 in0.0 mm 0.00 in0.0 mm 0.00 in0.0 mm
03:36 PM 16.4°F-8.7°C 0.9°F-17.3°C 50% 18.0 mph NNW29.0 kmh NNW 19.0 mph30.6 kmh 30.28 in1025.4 mb 0.00 in0.0 mm 0.00 in0.0 mm 0.00 in0.0 mm
03:37 PM 16.4°F-8.7°C 1.4°F-17.0°C 51% 19.0 mph NW30.6 kmh NW 19.0 mph30.6 kmh 30.28 in1025.4 mb 0.00 in0.0 mm 0.00 in0.0 mm 0.00 in0.0 mm
03:38 PM 16.7°F-8.5°C 2.9°F-16.2°C 54% 15.0 mph 24.1 kmh 20.0 mph32.2 kmh 30.29 in1025.7 mb 0.00 in0.0 mm 0.00 in0.0 mm 0.00 in0.0 mm
03:39 PM 16.4°F-8.7°C 1.4°F-17.0°C 51% 14.0 mph NW22.5 kmh NW 20.0 mph32.2 kmh 30.28 in1025.4 mb 0.00 in0.0 mm 0.00 in0.0 mm 0.00 in0.0 mm
03:40 PM 16.4°F-8.7°C 0.9°F-17.3°C 50% 13.0 mph WNW20.9 kmh WNW 20.0 mph32.2 kmh 30.28 in1025.4 mb 0.00 in0.0 mm 0.00 in0.0 mm 0.00 in0.0 mm
03:41 PM 16.4°F-8.7°C 0.9°F-17.3°C 50% 21.0 mph WNW33.8 kmh WNW 21.0 mph33.8 kmh 30.28 in1025.4 mb 0.00 in0.0 mm 0.00 in0.0 mm 0.00 in0.0 mm
03:42 PM 16.4°F-8.7°C 2.2°F-16.6°C 53% 18.0 mph NW29.0 kmh NW 21.0 mph33.8 kmh 30.28 in1025.4 mb 0.00 in0.0 mm 0.00 in0.0 mm 0.00 in0.0 mm
03:43 PM 16.2°F-8.8°C 0.7°F-17.4°C 50% 13.0 mph WNW20.9 kmh WNW 21.0 mph33.8 kmh 30.28 in1025.4 mb 0.00 in0.0 mm 0.00 in0.0 mm 0.00 in0.0 mm
03:44 PM 16.2°F-8.8°C 1.2°F-17.1°C 51% 12.0 mph WNW19.3 kmh WNW 21.0 mph33.8 kmh 30.29 in1025.7 mb 0.00 in0.0 mm 0.00 in0.0 mm 0.00 in0.0 mm
03:45 PM 16.4°F-8.7°C 1.4°F-17.0°C 51% 19.0 mph WNW30.6 kmh WNW 21.0 mph33.8 kmh 30.28 in1025.4 mb 0.00 in0.0 mm 0.00 in0.0 mm 0.00 in0.0 mm
03:46 PM 16.2°F-8.8°C 1.2°F-17.1°C 51% 17.0 mph WNW27.4 kmh WNW 21.0 mph33.8 kmh 30.29 in1025.7 mb 0.00 in0.0 mm 0.00 in0.0 mm 0.00 in0.0 mm
03:47 PM 15.9°F-8.9°C 0.5°F-17.5°C 50% 16.0 mph WNW25.7 kmh WNW 21.0 mph33.8 kmh 30.29 in1025.7 mb 0.00 in0.0 mm 0.00 in0.0 mm 0.00 in0.0 mm
03:48 PM 15.9°F-8.9°C 0.5°F-17.5°C 50% 20.0 mph NNW32.2 kmh NNW 21.0 mph33.8 kmh 30.29 in1025.7 mb 0.00 in0.0 mm 0.00 in0.0 mm 0.00 in0.0 mm
03:49 PM 16.2°F-8.8°C 2.0°F-16.7°C 53% 12.0 mph NW19.3 kmh NW 21.0 mph33.8 kmh 30.29 in1025.7 mb 0.00 in0.0 mm 0.00 in0.0 mm 0.00 in0.0 mm
03:50 PM 16.4°F-8.7°C 3.4°F-15.9°C 56% 17.0 mph WNW27.4 kmh WNW 21.0 mph33.8 kmh 30.29 in1025.7 mb 0.00 in0.0 mm 0.00 in0.0 mm 0.00 in0.0 mm
03:51 PM 16.7°F-8.5°C 3.7°F-15.7°C 56% 17.0 mph WNW27.4 kmh WNW 20.0 mph32.2 kmh 30.29 in1025.7 mb 0.00 in0.0 mm 0.00 in0.0 mm 0.00 in0.0 mm
03:52 PM 16.2°F-8.8°C 2.4°F-16.4°C 54% 15.0 mph NW24.1 kmh NW 20.0 mph32.2 kmh 30.29 in1025.7 mb 0.00 in0.0 mm 0.00 in0.0 mm 0.00 in0.0 mm
03:53 PM 16.2°F-8.8°C 1.2°F-17.1°C 51% 16.0 mph NW25.7 kmh NW 20.0 mph32.2 kmh 30.29 in1025.7 mb 0.00 in0.0 mm 0.00 in0.0 mm 0.00 in0.0 mm
03:54 PM 15.9°F-8.9°C 0.5°F-17.5°C 50% 12.0 mph NW19.3 kmh NW 20.0 mph32.2 kmh 30.29 in1025.7 mb 0.00 in0.0 mm 0.00 in0.0 mm 0.00 in0.0 mm
03:55 PM 15.9°F-8.9°C 1.7°F-16.8°C 53% 13.0 mph NW20.9 kmh NW 20.0 mph32.2 kmh 30.28 in1025.4 mb 0.00 in0.0 mm 0.00 in0.0 mm 0.00 in0.0 mm
03:56 PM 16.2°F-8.8°C 2.4°F-16.4°C 54% 15.0 mph NW24.1 kmh NW 20.0 mph32.2 kmh 30.29 in1025.7 mb 0.00 in0.0 mm 0.00 in0.0 mm 0.00 in0.0 mm
03:57 PM 15.9°F-8.9°C 0.5°F-17.5°C 50% 17.0 mph WNW27.4 kmh WNW 20.0 mph32.2 kmh 30.29 in1025.7 mb 0.00 in0.0 mm 0.00 in0.0 mm 0.00 in0.0 mm
03:58 PM 15.9°F-8.9°C 0.5°F-17.5°C 50% 17.0 mph WNW27.4 kmh WNW 20.0 mph32.2 kmh 30.29 in1025.7 mb 0.00 in0.0 mm 0.00 in0.0 mm 0.00 in0.0 mm
03:59 PM 15.8°F-9.0°C 0.4°F-17.6°C 50% 16.0 mph WNW25.7 kmh WNW 18.0 mph29.0 kmh 30.28 in1025.4 mb 0.00 in0.0 mm 0.00 in0.0 mm 0.00 in0.0 mm
04:00 PM 15.8°F-9.0°C 0.4°F-17.6°C 50% 16.0 mph WNW25.7 kmh WNW 18.0 mph29.0 kmh 30.29 in1025.7 mb 0.00 in0.0 mm 0.00 in0.0 mm 0.00 in0.0 mm
04:01 PM 15.8°F-9.0°C 0.8°F-17.3°C 51% 15.0 mph NW24.1 kmh NW 18.0 mph29.0 kmh 30.29 in1025.7 mb 0.00 in0.0 mm 0.00 in0.0 mm 0.00 in0.0 mm
04:02 PM 15.8°F-9.0°C 1.7°F-16.8°C 53% 12.0 mph NNW19.3 kmh NNW 17.0 mph27.4 kmh 30.30 in1026.1 mb 0.00 in0.0 mm 0.00 in0.0 mm 0.00 in0.0 mm
04:03 PM 15.8°F-9.0°C 1.7°F-16.8°C 53% 12.0 mph NW19.3 kmh NW 17.0 mph27.4 kmh 30.30 in1026.1 mb 0.00 in0.0 mm 0.00 in0.0 mm 0.00 in0.0 mm
04:04 PM 15.8°F-9.0°C 2.1°F-16.6°C 54% 10.0 mph NNW16.1 kmh NNW 17.0 mph27.4 kmh 30.29 in1025.7 mb 0.00 in0.0 mm 0.00 in0.0 mm 0.00 in0.0 mm
04:05 PM 15.8°F-9.0°C 2.1°F-16.6°C 54% 19.0 mph WNW30.6 kmh WNW 20.0 mph32.2 kmh 30.29 in1025.7 mb 0.00 in0.0 mm 0.00 in0.0 mm 0.00 in0.0 mm
04:06 PM 15.6°F-9.1°C 0.6°F-17.4°C 51% 18.0 mph WNW29.0 kmh WNW 20.0 mph32.2 kmh 30.29 in1025.7 mb 0.00 in0.0 mm 0.00 in0.0 mm 0.00 in0.0 mm
04:07 PM 15.6°F-9.1°C 1.5°F-16.9°C 53% 12.0 mph NW19.3 kmh NW 20.0 mph32.2 kmh 30.29 in1025.7 mb 0.00 in0.0 mm 0.00 in0.0 mm 0.00 in0.0 mm
04:08 PM 15.6°F-9.1°C 1.5°F-16.9°C 53% 16.0 mph NNW25.7 kmh NNW 20.0 mph32.2 kmh 30.29 in1025.7 mb 0.00 in0.0 mm 0.00 in0.0 mm 0.00 in0.0 mm
04:09 PM 15.3°F-9.3°C 1.2°F-17.1°C 53% 15.0 mph NNW24.1 kmh NNW 20.0 mph32.2 kmh 30.29 in1025.7 mb 0.00 in0.0 mm 0.00 in0.0 mm 0.00 in0.0 mm
04:10 PM 15.3°F-9.3°C 1.2°F-17.1°C 53% 15.0 mph WNW24.1 kmh WNW 20.0 mph32.2 kmh 30.29 in1025.7 mb 0.00 in0.0 mm 0.00 in0.0 mm 0.00 in0.0 mm
04:11 PM 15.2°F-9.3°C -0.2°F-17.9°C 50% 19.0 mph WNW30.6 kmh WNW 20.0 mph32.2 kmh 30.30 in1026.1 mb 0.00 in0.0 mm 0.00 in0.0 mm 0.00 in0.0 mm
04:12 PM 15.2°F-9.3°C 0.2°F-17.7°C 51% 13.0 mph NNW20.9 kmh NNW 20.0 mph32.2 kmh 30.30 in1026.1 mb 0.00 in0.0 mm 0.00 in0.0 mm 0.00 in0.0 mm
04:13 PM 15.2°F-9.3°C -0.2°F-17.9°C 50% 14.0 mph WNW22.5 kmh WNW 20.0 mph32.2 kmh 30.29 in1025.7 mb 0.00 in0.0 mm 0.00 in0.0 mm 0.00 in0.0 mm
04:14 PM 15.2°F-9.3°C 1.1°F-17.2°C 53% 16.0 mph WNW25.7 kmh WNW 20.0 mph32.2 kmh 30.29 in1025.7 mb 0.00 in0.0 mm 0.00 in0.0 mm 0.00 in0.0 mm
04:15 PM 15.2°F-9.3°C 1.1°F-17.2°C 53% 13.0 mph WNW20.9 kmh WNW 19.0 mph30.6 kmh 30.30 in1026.1 mb 0.00 in0.0 mm 0.00 in0.0 mm 0.00 in0.0 mm
04:16 PM 15.2°F-9.3°C 1.5°F-16.9°C 54% 12.0 mph NW19.3 kmh NW 19.0 mph30.6 kmh 30.29 in1025.7 mb 0.00 in0.0 mm 0.00 in0.0 mm 0.00 in0.0 mm
04:17 PM 15.2°F-9.3°C 0.2°F-17.7°C 51% 10.0 mph NNW16.1 kmh NNW 19.0 mph30.6 kmh 30.30 in1026.1 mb 0.00 in0.0 mm 0.00 in0.0 mm 0.00 in0.0 mm
04:18 PM 15.3°F-9.3°C 2.0°F-16.7°C 55% 17.0 mph NW27.4 kmh NW 19.0 mph30.6 kmh 30.29 in1025.7 mb 0.00 in0.0 mm 0.00 in0.0 mm 0.00 in0.0 mm
04:19 PM 15.3°F-9.3°C 2.0°F-16.7°C 55% 11.0 mph NW17.7 kmh NW 19.0 mph30.6 kmh 30.29 in1025.7 mb 0.00 in0.0 mm 0.00 in0.0 mm 0.00 in0.0 mm
04:20 PM 15.2°F-9.3°C 0.2°F-17.7°C 51% 12.0 mph WNW19.3 kmh WNW 19.0 mph30.6 kmh 30.29 in1025.7 mb 0.00 in0.0 mm 0.00 in0.0 mm 0.00 in0.0 mm
04:21 PM 15.2°F-9.3°C 0.2°F-17.7°C 51% 9.0 mph NW14.5 kmh NW 18.0 mph29.0 kmh 30.29 in1025.7 mb 0.00 in0.0 mm 0.00 in0.0 mm 0.00 in0.0 mm
04:22 PM 15.2°F-9.3°C 1.1°F-17.2°C 53% 15.0 mph NNW24.1 kmh NNW 18.0 mph29.0 kmh 30.30 in1026.1 mb 0.00 in0.0 mm 0.00 in0.0 mm 0.00 in0.0 mm
04:23 PM 14.9°F-9.5°C -0.9°F-18.3°C 49% 12.0 mph WNW19.3 kmh WNW 17.0 mph27.4 kmh 30.30 in1026.1 mb 0.00 in0.0 mm 0.00 in0.0 mm 0.00 in0.0 mm
04:24 PM 14.7°F-9.6°C -1.1°F-18.4°C 49% 14.0 mph WNW22.5 kmh WNW 17.0 mph27.4 kmh 30.30 in1026.1 mb 0.00 in0.0 mm 0.00 in0.0 mm 0.00 in0.0 mm
04:25 PM 14.5°F-9.7°C 0.4°F-17.6°C 53% 12.0 mph WNW19.3 kmh WNW 17.0 mph27.4 kmh 30.30 in1026.1 mb 0.00 in0.0 mm 0.00 in0.0 mm 0.00 in0.0 mm
04:26 PM 14.1°F-9.9°C -1.2°F-18.4°C 50% 11.0 mph NNW17.7 kmh NNW 17.0 mph27.4 kmh 30.30 in1026.1 mb 0.00 in0.0 mm 0.00 in0.0 mm 0.00 in0.0 mm
04:27 PM 14.1°F-9.9°C -1.2°F-18.4°C 50% 11.0 mph NNW17.7 kmh NNW 17.0 mph27.4 kmh 30.31 in1026.4 mb 0.00 in0.0 mm 0.00 in0.0 mm 0.00 in0.0 mm
04:28 PM 13.9°F-10.1°C -1.4°F-18.6°C 50% 13.0 mph NW20.9 kmh NW 18.0 mph29.0 kmh 30.30 in1026.1 mb 0.00 in0.0 mm 0.00 in0.0 mm 0.00 in0.0 mm
04:29 PM 14.1°F-9.9°C 1.3°F-17.1°C 56% 12.0 mph NNW19.3 kmh NNW 18.0 mph29.0 kmh 30.30 in1026.1 mb 0.00 in0.0 mm 0.00 in0.0 mm 0.00 in0.0 mm
04:30 PM 14.1°F-9.9°C 0.9°F-17.3°C 55% 11.0 mph W17.7 kmh W 18.0 mph29.0 kmh 30.30 in1026.1 mb 0.00 in0.0 mm 0.00 in0.0 mm 0.00 in0.0 mm
04:31 PM 14.1°F-9.9°C 0.9°F-17.3°C 55% 5.0 mph W8.0 kmh W 18.0 mph29.0 kmh 30.30 in1026.1 mb 0.00 in0.0 mm 0.00 in0.0 mm 0.00 in0.0 mm
04:32 PM 14.1°F-9.9°C 0.9°F-17.3°C 55% 14.0 mph NW22.5 kmh NW 18.0 mph29.0 kmh 30.30 in1026.1 mb 0.00 in0.0 mm 0.00 in0.0 mm 0.00 in0.0 mm
04:33 PM 14.1°F-9.9°C 0.9°F-17.3°C 55% 15.0 mph NW24.1 kmh NW 18.0 mph29.0 kmh 30.30 in1026.1 mb 0.00 in0.0 mm 0.00 in0.0 mm 0.00 in0.0 mm
04:34 PM 14.3°F-9.8°C 1.1°F-17.2°C 55% 17.0 mph WNW27.4 kmh WNW 18.0 mph29.0 kmh 30.30 in1026.1 mb 0.00 in0.0 mm 0.00 in0.0 mm 0.00 in0.0 mm
04:35 PM 14.3°F-9.8°C 1.5°F-16.9°C 56% 15.0 mph NNW24.1 kmh NNW 18.0 mph29.0 kmh 30.31 in1026.4 mb 0.00 in0.0 mm 0.00 in0.0 mm 0.00 in0.0 mm
04:36 PM 14.1°F-9.9°C 0.9°F-17.3°C 55% 17.0 mph W27.4 kmh W 18.0 mph29.0 kmh 30.30 in1026.1 mb 0.00 in0.0 mm 0.00 in0.0 mm 0.00 in0.0 mm
04:37 PM 14.1°F-9.9°C 0.9°F-17.3°C 55% 16.0 mph W25.7 kmh W 18.0 mph29.0 kmh 30.31 in1026.4 mb 0.00 in0.0 mm 0.00 in0.0 mm 0.00 in0.0 mm
04:38 PM 14.1°F-9.9°C 1.3°F-17.1°C 56% 11.0 mph NNW17.7 kmh NNW 18.0 mph29.0 kmh 30.30 in1026.1 mb 0.00 in0.0 mm 0.00 in0.0 mm 0.00 in0.0 mm
04:39 PM 13.9°F-10.1°C 0.7°F-17.4°C 55% 15.0 mph WNW24.1 kmh WNW 18.0 mph29.0 kmh 30.31 in1026.4 mb 0.00 in0.0 mm 0.00 in0.0 mm 0.00 in0.0 mm
04:40 PM 13.9°F-10.1°C 0.7°F-17.4°C 55% 15.0 mph NNW24.1 kmh NNW 18.0 mph29.0 kmh 30.30 in1026.1 mb 0.00 in0.0 mm 0.00 in0.0 mm 0.00 in0.0 mm
04:41 PM 13.9°F-10.1°C 1.1°F-17.2°C 56% 9.0 mph NW14.5 kmh NW 18.0 mph29.0 kmh 30.31 in1026.4 mb 0.00 in0.0 mm 0.00 in0.0 mm 0.00 in0.0 mm
04:42 PM 14.3°F-9.8°C 3.3°F-15.9°C 61% 8.0 mph NNW12.9 kmh NNW 18.0 mph29.0 kmh 30.30 in1026.1 mb 0.00 in0.0 mm 0.00 in0.0 mm 0.00 in0.0 mm
04:43 PM 14.1°F-9.9°C 2.0°F-16.7°C 58% 9.0 mph NNW14.5 kmh NNW 18.0 mph29.0 kmh 30.31 in1026.4 mb 0.00 in0.0 mm 0.00 in0.0 mm 0.00 in0.0 mm
04:44 PM 14.1°F-9.9°C 2.0°F-16.7°C 58% 11.0 mph NW17.7 kmh NW 18.0 mph29.0 kmh 30.31 in1026.4 mb 0.00 in0.0 mm 0.00 in0.0 mm 0.00 in0.0 mm
04:45 PM 14.1°F-9.9°C 2.0°F-16.7°C 58% 9.0 mph NNE14.5 kmh NNE 18.0 mph29.0 kmh 30.30 in1026.1 mb 0.00 in0.0 mm 0.00 in0.0 mm 0.00 in0.0 mm
04:46 PM 13.9°F-10.1°C 0.7°F-17.4°C 55% 11.0 mph NNW17.7 kmh NNW 18.0 mph29.0 kmh 30.30 in1026.1 mb 0.00 in0.0 mm 0.00 in0.0 mm 0.00 in0.0 mm
04:47 PM 13.9°F-10.1°C 0.7°F-17.4°C 55% 9.0 mph NNW14.5 kmh NNW 18.0 mph29.0 kmh 30.31 in1026.4 mb 0.00 in0.0 mm 0.00 in0.0 mm 0.00 in0.0 mm
04:48 PM 13.9°F-10.1°C 1.1°F-17.2°C 56% 10.0 mph WNW16.1 kmh WNW 16.0 mph25.7 kmh 30.31 in1026.4 mb 0.00 in0.0 mm 0.00 in0.0 mm 0.00 in0.0 mm
04:49 PM 13.7°F-10.2°C 0.5°F-17.5°C 55% 9.0 mph WNW14.5 kmh WNW 16.0 mph25.7 kmh 30.31 in1026.4 mb 0.00 in0.0 mm 0.00 in0.0 mm 0.00 in0.0 mm
04:50 PM 13.6°F-10.2°C 0.4°F-17.6°C 55% 7.0 mph NW11.3 kmh NW 13.0 mph20.9 kmh 30.31 in1026.4 mb 0.00 in0.0 mm 0.00 in0.0 mm 0.00 in0.0 mm
04:51 PM 13.6°F-10.2°C 0.4°F-17.6°C 55% 12.0 mph NNW19.3 kmh NNW 13.0 mph20.9 kmh 30.31 in1026.4 mb 0.00 in0.0 mm 0.00 in0.0 mm 0.00 in0.0 mm
04:52 PM 13.6°F-10.2°C 0.4°F-17.6°C 55% 8.0 mph NW12.9 kmh NW 13.0 mph20.9 kmh 30.30 in1026.1 mb 0.00 in0.0 mm 0.00 in0.0 mm 0.00 in0.0 mm
04:53 PM 13.6°F-10.2°C 0.4°F-17.6°C 55% 10.0 mph NW16.1 kmh NW 13.0 mph20.9 kmh 30.31 in1026.4 mb 0.00 in0.0 mm 0.00 in0.0 mm 0.00 in0.0 mm
04:54 PM 13.5°F-10.3°C 0.3°F-17.6°C 55% 8.0 mph W12.9 kmh W 13.0 mph20.9 kmh 30.31 in1026.4 mb 0.00 in0.0 mm 0.00 in0.0 mm 0.00 in0.0 mm
04:55 PM 13.5°F-10.3°C -0.1°F-17.8°C 54% 10.0 mph NNW16.1 kmh NNW 13.0 mph20.9 kmh 30.31 in1026.4 mb 0.00 in0.0 mm 0.00 in0.0 mm 0.00 in0.0 mm
04:56 PM 13.5°F-10.3°C -0.1°F-17.8°C 54% 13.0 mph WNW20.9 kmh WNW 13.0 mph20.9 kmh 30.31 in1026.4 mb 0.00 in0.0 mm 0.00 in0.0 mm 0.00 in0.0 mm
04:57 PM 13.3°F-10.4°C -1.5°F-18.6°C 51% 11.0 mph NW17.7 kmh NW 13.0 mph20.9 kmh 30.31 in1026.4 mb 0.00 in0.0 mm 0.00 in0.0 mm 0.00 in0.0 mm
04:58 PM 13.3°F-10.4°C -0.3°F-17.9°C 54% 10.0 mph NW16.1 kmh NW 13.0 mph20.9 kmh 30.30 in1026.1 mb 0.00 in0.0 mm 0.00 in0.0 mm 0.00 in0.0 mm
04:59 PM 13.3°F-10.4°C 0.1°F-17.7°C 55% 8.0 mph W12.9 kmh W 13.0 mph20.9 kmh 30.31 in1026.4 mb 0.00 in0.0 mm 0.00 in0.0 mm 0.00 in0.0 mm
05:00 PM 13.5°F-10.3°C 0.7°F-17.4°C 56% 10.0 mph WNW16.1 kmh WNW 13.0 mph20.9 kmh 30.31 in1026.4 mb 0.00 in0.0 mm 0.00 in0.0 mm 0.00 in0.0 mm
05:01 PM 13.5°F-10.3°C 0.7°F-17.4°C 56% 9.0 mph WNW14.5 kmh WNW 13.0 mph20.9 kmh 30.31 in1026.4 mb 0.00 in0.0 mm 0.00 in0.0 mm 0.00 in0.0 mm
05:02 PM 13.5°F-10.3°C 0.3°F-17.6°C 55% 7.0 mph NNW11.3 kmh NNW 13.0 mph20.9 kmh 30.31 in1026.4 mb 0.00 in0.0 mm 0.00 in0.0 mm 0.00 in0.0 mm
05:03 PM 13.3°F-10.4°C -0.7°F-18.2°C 53% 8.0 mph WNW12.9 kmh WNW 13.0 mph20.9 kmh 30.31 in1026.4 mb 0.00 in0.0 mm 0.00 in0.0 mm 0.00 in0.0 mm
05:04 PM 13.3°F-10.4°C -0.7°F-18.2°C 53% 12.0 mph NW19.3 kmh NW 13.0 mph20.9 kmh 30.31 in1026.4 mb 0.00 in0.0 mm 0.00 in0.0 mm 0.00 in0.0 mm
05:05 PM 13.1°F-10.5°C -0.5°F-18.1°C 54% 9.0 mph NW14.5 kmh NW 13.0 mph20.9 kmh 30.31 in1026.4 mb 0.00 in0.0 mm 0.00 in0.0 mm 0.00 in0.0 mm
05:06 PM 13.1°F-10.5°C -0.5°F-18.1°C 54% 9.0 mph WNW14.5 kmh WNW 12.0 mph19.3 kmh 30.31 in1026.4 mb 0.00 in0.0 mm 0.00 in0.0 mm 0.00 in0.0 mm
05:07 PM 13.3°F-10.4°C 0.1°F-17.7°C 55% 10.0 mph NW16.1 kmh NW 12.0 mph19.3 kmh 30.31 in1026.4 mb 0.00 in0.0 mm 0.00 in0.0 mm 0.00 in0.0 mm
05:08 PM 13.3°F-10.4°C 0.1°F-17.7°C 55% 10.0 mph NW16.1 kmh NW 12.0 mph19.3 kmh 30.31 in1026.4 mb 0.00 in0.0 mm 0.00 in0.0 mm 0.00 in0.0 mm
05:09 PM 13.3°F-10.4°C 0.1°F-17.7°C 55% 10.0 mph WNW16.1 kmh WNW 12.0 mph19.3 kmh 30.31 in1026.4 mb 0.00 in0.0 mm 0.00 in0.0 mm 0.00 in0.0 mm
05:10 PM 13.3°F-10.4°C -0.3°F-17.9°C 54% 8.0 mph NW12.9 kmh NW 12.0 mph19.3 kmh 30.31 in1026.4 mb 0.00 in0.0 mm 0.00 in0.0 mm 0.00 in0.0 mm
05:11 PM 13.3°F-10.4°C -0.3°F-17.9°C 54% 10.0 mph NW16.1 kmh NW 12.0 mph19.3 kmh 30.32 in1026.8 mb 0.00 in0.0 mm 0.00 in0.0 mm 0.00 in0.0 mm
05:12 PM 13.1°F-10.5°C -0.1°F-17.8°C 55% 13.0 mph NW20.9 kmh NW 13.0 mph20.9 kmh 30.31 in1026.4 mb 0.00 in0.0 mm 0.00 in0.0 mm 0.00 in0.0 mm
05:13 PM 13.1°F-10.5°C -0.1°F-17.8°C 55% 10.0 mph NW16.1 kmh NW 13.0 mph20.9 kmh 30.32 in1026.8 mb 0.00 in0.0 mm 0.00 in0.0 mm 0.00 in0.0 mm
05:14 PM 13.1°F-10.5°C -0.1°F-17.8°C 55% 12.0 mph WNW19.3 kmh WNW 13.0 mph20.9 kmh 30.31 in1026.4 mb 0.00 in0.0 mm 0.00 in0.0 mm 0.00 in0.0 mm
05:15 PM 13.1°F-10.5°C -0.1°F-17.8°C 55% 9.0 mph NNW14.5 kmh NNW 13.0 mph20.9 kmh 30.31 in1026.4 mb 0.00 in0.0 mm 0.00 in0.0 mm 0.00 in0.0 mm
05:16 PM 13.1°F-10.5°C -0.1°F-17.8°C 55% 10.0 mph NW16.1 kmh NW 13.0 mph20.9 kmh 30.32 in1026.8 mb 0.00 in0.0 mm 0.00 in0.0 mm 0.00 in0.0 mm
05:17 PM 13.1°F-10.5°C 0.3°F-17.6°C 56% 11.0 mph NW17.7 kmh NW 13.0 mph20.9 kmh 30.32 in1026.8 mb 0.00 in0.0 mm 0.00 in0.0 mm 0.00 in0.0 mm
05:18 PM 13.1°F-10.5°C -0.1°F-17.8°C 55% 12.0 mph 19.3 kmh 13.0 mph20.9 kmh 30.31 in1026.4 mb 0.00 in0.0 mm 0.00 in0.0 mm 0.00 in0.0 mm
05:19 PM 13.1°F-10.5°C 0.3°F-17.6°C 56% 12.0 mph NW19.3 kmh NW 13.0 mph20.9 kmh 30.32 in1026.8 mb 0.00 in0.0 mm 0.00 in0.0 mm 0.00 in0.0 mm
05:20 PM 13.1°F-10.5°C -0.1°F-17.8°C 55% 10.0 mph NW16.1 kmh NW 13.0 mph20.9 kmh 30.32 in1026.8 mb 0.00 in0.0 mm 0.00 in0.0 mm 0.00 in0.0 mm
05:21 PM 13.1°F-10.5°C -0.1°F-17.8°C 55% 10.0 mph W16.1 kmh W 13.0 mph20.9 kmh 30.32 in1026.8 mb 0.00 in0.0 mm 0.00 in0.0 mm 0.00 in0.0 mm
05:22 PM 13.1°F-10.5°C -0.1°F-17.8°C 55% 9.0 mph NNW14.5 kmh NNW 13.0 mph20.9 kmh 30.32 in1026.8 mb 0.00 in0.0 mm 0.00 in0.0 mm 0.00 in0.0 mm
05:23 PM 13.1°F-10.5°C -0.1°F-17.8°C 55% 7.0 mph NNW11.3 kmh NNW 13.0 mph20.9 kmh 30.32 in1026.8 mb 0.00 in0.0 mm 0.00 in0.0 mm 0.00 in0.0 mm
05:24 PM 13.1°F-10.5°C 0.3°F-17.6°C 56% 8.0 mph WNW12.9 kmh WNW 13.0 mph20.9 kmh 30.32 in1026.8 mb 0.00 in0.0 mm 0.00 in0.0 mm 0.00 in0.0 mm
05:25 PM 13.1°F-10.5°C 0.3°F-17.6°C 56% 9.0 mph WNW14.5 kmh WNW 13.0 mph20.9 kmh 30.32 in1026.8 mb 0.00 in0.0 mm 0.00 in0.0 mm 0.00 in0.0 mm
05:26 PM 12.8°F-10.7°C -0.3°F-17.9°C 55% 8.0 mph WNW12.9 kmh WNW 13.0 mph20.9 kmh 30.32 in1026.8 mb 0.00 in0.0 mm 0.00 in0.0 mm 0.00 in0.0 mm
05:27 PM 12.8°F-10.7°C -0.3°F-17.9°C 55% 10.0 mph NW16.1 kmh NW 12.0 mph19.3 kmh 30.32 in1026.8 mb 0.00 in0.0 mm 0.00 in0.0 mm 0.00 in0.0 mm
05:28 PM 12.8°F-10.7°C -0.3°F-17.9°C 55% 8.0 mph NW12.9 kmh NW 12.0 mph19.3 kmh 30.32 in1026.8 mb 0.00 in0.0 mm 0.00 in0.0 mm 0.00 in0.0 mm
05:29 PM 12.8°F-10.7°C 0.8°F-17.3°C 58% 8.0 mph WNW12.9 kmh WNW 12.0 mph19.3 kmh 30.32 in1026.8 mb 0.00 in0.0 mm 0.00 in0.0 mm 0.00 in0.0 mm
05:30 PM 12.8°F-10.7°C 0.8°F-17.3°C 58% 8.0 mph NW12.9 kmh NW 12.0 mph19.3 kmh 30.32 in1026.8 mb 0.00 in0.0 mm 0.00 in0.0 mm 0.00 in0.0 mm
05:31 PM 12.8°F-10.7°C 0.1°F-17.7°C 56% 10.0 mph NW16.1 kmh NW 12.0 mph19.3 kmh 30.32 in1026.8 mb 0.00 in0.0 mm 0.00 in0.0 mm 0.00 in0.0 mm
05:32 PM 12.6°F-10.8°C -0.5°F-18.1°C 55% 9.0 mph NW14.5 kmh NW 12.0 mph19.3 kmh 30.32 in1026.8 mb 0.00 in0.0 mm 0.00 in0.0 mm 0.00 in0.0 mm
05:33 PM 12.6°F-10.8°C -0.5°F-18.1°C 55% 6.0 mph NNW9.7 kmh NNW 12.0 mph19.3 kmh 30.33 in1027.1 mb 0.00 in0.0 mm 0.00 in0.0 mm 0.00 in0.0 mm
05:34 PM 12.6°F-10.8°C -0.5°F-18.1°C 55% 8.0 mph NW12.9 kmh NW 12.0 mph19.3 kmh 30.33 in1027.1 mb 0.00 in0.0 mm 0.00 in0.0 mm 0.00 in0.0 mm
05:35 PM 12.6°F-10.8°C 0.6°F-17.4°C 58% 8.0 mph WNW12.9 kmh WNW 12.0 mph19.3 kmh 30.33 in1027.1 mb 0.00 in0.0 mm 0.00 in0.0 mm 0.00 in0.0 mm
05:36 PM 12.8°F-10.7°C 1.2°F-17.1°C 59% 9.0 mph NW14.5 kmh NW 12.0 mph19.3 kmh 30.33 in1027.1 mb 0.00 in0.0 mm 0.00 in0.0 mm 0.00 in0.0 mm
05:37 PM 12.6°F-10.8°C -0.5°F-18.1°C 55% 8.0 mph NW12.9 kmh NW 10.0 mph16.1 kmh 30.33 in1027.1 mb 0.00 in0.0 mm 0.00 in0.0 mm 0.00 in0.0 mm
05:38 PM 12.6°F-10.8°C -0.5°F-18.1°C 55% 7.0 mph NW11.3 kmh NW 10.0 mph16.1 kmh 30.33 in1027.1 mb 0.00 in0.0 mm 0.00 in0.0 mm 0.00 in0.0 mm
05:39 PM 12.6°F-10.8°C -0.5°F-18.1°C 55% 8.0 mph WNW12.9 kmh WNW 10.0 mph16.1 kmh 30.33 in1027.1 mb 0.00 in0.0 mm 0.00 in0.0 mm 0.00 in0.0 mm
05:40 PM 12.6°F-10.8°C -0.5°F-18.1°C 55% 7.0 mph WNW11.3 kmh WNW 10.0 mph16.1 kmh 30.33 in1027.1 mb 0.00 in0.0 mm 0.00 in0.0 mm 0.00 in0.0 mm
05:41 PM 12.6°F-10.8°C -0.5°F-18.1°C 55% 7.0 mph NNW11.3 kmh NNW 10.0 mph16.1 kmh 30.33 in1027.1 mb 0.00 in0.0 mm 0.00 in0.0 mm 0.00 in0.0 mm
05:42 PM 12.6°F-10.8°C 0.6°F-17.4°C 58% 7.0 mph WNW11.3 kmh WNW 10.0 mph16.1 kmh 30.33 in1027.1 mb 0.00 in0.0 mm 0.00 in0.0 mm 0.00 in0.0 mm
05:43 PM 12.6°F-10.8°C 1.4°F-17.0°C 60% 6.0 mph WNW9.7 kmh WNW 10.0 mph16.1 kmh 30.33 in1027.1 mb 0.00 in0.0 mm 0.00 in0.0 mm 0.00 in0.0 mm
05:44 PM 12.6°F-10.8°C -0.1°F-17.8°C 56% 8.0 mph WNW12.9 kmh WNW 10.0 mph16.1 kmh 30.33 in1027.1 mb 0.00 in0.0 mm 0.00 in0.0 mm 0.00 in0.0 mm
05:45 PM 12.6°F-10.8°C -0.1°F-17.8°C 56% 6.0 mph NW9.7 kmh NW 10.0 mph16.1 kmh 30.33 in1027.1 mb 0.00 in0.0 mm 0.00 in0.0 mm 0.00 in0.0 mm
05:46 PM 12.6°F-10.8°C -0.1°F-17.8°C 56% 6.0 mph NW9.7 kmh NW 10.0 mph16.1 kmh 30.33 in1027.1 mb 0.00 in0.0 mm 0.00 in0.0 mm 0.00 in0.0 mm
05:47 PM 12.6°F-10.8°C 1.0°F-17.2°C 59% 7.0 mph NW11.3 kmh NW 10.0 mph16.1 kmh 30.33 in1027.1 mb 0.00 in0.0 mm 0.00 in0.0 mm 0.00 in0.0 mm
05:48 PM 12.6°F-10.8°C 0.6°F-17.4°C 58% 7.0 mph NW11.3 kmh NW 10.0 mph16.1 kmh 30.33 in1027.1 mb 0.00 in0.0 mm 0.00 in0.0 mm 0.00 in0.0 mm
05:49 PM 12.5°F-10.8°C -0.6°F-18.1°C 55% 7.0 mph WNW11.3 kmh WNW 10.0 mph16.1 kmh 30.33 in1027.1 mb 0.00 in0.0 mm 0.00 in0.0 mm 0.00 in0.0 mm
05:50 PM 12.5°F-10.8°C -0.6°F-18.1°C 55% 6.0 mph NW9.7 kmh NW 10.0 mph16.1 kmh 30.33 in1027.1 mb 0.00 in0.0 mm 0.00 in0.0 mm 0.00 in0.0 mm
05:51 PM 12.4°F-10.9°C -0.7°F-18.2°C 55% 7.0 mph NNW11.3 kmh NNW 9.0 mph14.5 kmh 30.33 in1027.1 mb 0.00 in0.0 mm 0.00 in0.0 mm 0.00 in0.0 mm
05:52 PM 12.4°F-10.9°C -0.7°F-18.2°C 55% 7.0 mph NNW11.3 kmh NNW 9.0 mph14.5 kmh 30.33 in1027.1 mb 0.00 in0.0 mm 0.00 in0.0 mm 0.00 in0.0 mm
05:53 PM 12.4°F-10.9°C -0.7°F-18.2°C 55% 5.0 mph WNW8.0 kmh WNW 9.0 mph14.5 kmh 30.33 in1027.1 mb 0.00 in0.0 mm 0.00 in0.0 mm 0.00 in0.0 mm
05:54 PM 12.2°F-11.0°C -0.9°F-18.3°C 55% 6.0 mph NW9.7 kmh NW 9.0 mph14.5 kmh 30.33 in1027.1 mb 0.00 in0.0 mm 0.00 in0.0 mm 0.00 in0.0 mm
05:55 PM 12.2°F-11.0°C -1.3°F-18.5°C 54% 6.0 mph NW9.7 kmh NW 9.0 mph14.5 kmh 30.33 in1027.1 mb 0.00 in0.0 mm 0.00 in0.0 mm 0.00 in0.0 mm
05:56 PM 12.2°F-11.0°C -0.9°F-18.3°C 55% 6.0 mph W9.7 kmh W 8.0 mph12.9 kmh 30.33 in1027.1 mb 0.00 in0.0 mm 0.00 in0.0 mm 0.00 in0.0 mm
05:57 PM 12.2°F-11.0°C -0.5°F-18.1°C 56% 5.0 mph W8.0 kmh W 8.0 mph12.9 kmh 30.33 in1027.1 mb 0.00 in0.0 mm 0.00 in0.0 mm 0.00 in0.0 mm
05:58 PM 12.2°F-11.0°C -0.9°F-18.3°C 55% 4.0 mph WNW6.4 kmh WNW 7.0 mph11.3 kmh 30.33 in1027.1 mb 0.00 in0.0 mm 0.00 in0.0 mm 0.00 in0.0 mm
05:59 PM 12.2°F-11.0°C -0.5°F-18.1°C 56% 5.0 mph WNW8.0 kmh WNW 7.0 mph11.3 kmh 30.33 in1027.1 mb 0.00 in0.0 mm 0.00 in0.0 mm 0.00 in0.0 mm
06:00 PM 12.2°F-11.0°C 0.3°F-17.6°C 58% 7.0 mph W11.3 kmh W 7.0 mph11.3 kmh 30.33 in1027.1 mb 0.00 in0.0 mm 0.00 in0.0 mm 0.00 in0.0 mm
06:01 PM 12.4°F-10.9°C 0.4°F-17.6°C 58% 5.0 mph W8.0 kmh W 7.0 mph11.3 kmh 30.33 in1027.1 mb 0.00 in0.0 mm 0.00 in0.0 mm 0.00 in0.0 mm
06:02 PM 12.4°F-10.9°C 0.8°F-17.3°C 59% 5.0 mph WNW8.0 kmh WNW 7.0 mph11.3 kmh 30.33 in1027.1 mb 0.00 in0.0 mm 0.00 in0.0 mm 0.00 in0.0 mm
06:03 PM 12.4°F-10.9°C 0.8°F-17.3°C 59% 5.0 mph WNW8.0 kmh WNW 7.0 mph11.3 kmh 30.33 in1027.1 mb 0.00 in0.0 mm 0.00 in0.0 mm 0.00 in0.0 mm
06:04 PM 12.0°F-11.1°C -1.1°F-18.4°C 55% 4.0 mph WNW6.4 kmh WNW 7.0 mph11.3 kmh 30.33 in1027.1 mb 0.00 in0.0 mm 0.00 in0.0 mm 0.00 in0.0 mm
06:05 PM 12.0°F-11.1°C -1.1°F-18.4°C 55% 6.0 mph WNW9.7 kmh WNW 7.0 mph11.3 kmh 30.33 in1027.1 mb 0.00 in0.0 mm 0.00 in0.0 mm 0.00 in0.0 mm
06:06 PM 12.0°F-11.1°C -1.1°F-18.4°C 55% 5.0 mph WNW8.0 kmh WNW 7.0 mph11.3 kmh 30.33 in1027.1 mb 0.00 in0.0 mm 0.00 in0.0 mm 0.00 in0.0 mm
06:07 PM 12.0°F-11.1°C -1.1°F-18.4°C 55% 4.0 mph WNW6.4 kmh WNW 7.0 mph11.3 kmh 30.33 in1027.1 mb 0.00 in0.0 mm 0.00 in0.0 mm 0.00 in0.0 mm
06:08 PM 12.0°F-11.1°C -1.1°F-18.4°C 55% 5.0 mph NW8.0 kmh NW 7.0 mph11.3 kmh 30.33 in1027.1 mb 0.00 in0.0 mm 0.00 in0.0 mm 0.00 in0.0 mm
06:09 PM 12.0°F-11.1°C -1.1°F-18.4°C 55% 5.0 mph NW8.0 kmh NW 7.0 mph11.3 kmh 30.33 in1027.1 mb 0.00 in0.0 mm 0.00 in0.0 mm 0.00 in0.0 mm
06:10 PM 11.8°F-11.2°C -1.3°F-18.5°C 55% 5.0 mph WNW8.0 kmh WNW 7.0 mph11.3 kmh 30.33 in1027.1 mb 0.00 in0.0 mm 0.00 in0.0 mm 0.00 in0.0 mm
06:11 PM 11.8°F-11.2°C -1.3°F-18.5°C 55% 5.0 mph WNW8.0 kmh WNW 6.0 mph9.7 kmh 30.33 in1027.1 mb 0.00 in0.0 mm 0.00 in0.0 mm 0.00 in0.0 mm
06:12 PM 11.8°F-11.2°C -1.3°F-18.5°C 55% 5.0 mph WNW8.0 kmh WNW 6.0 mph9.7 kmh 30.33 in1027.1 mb 0.00 in0.0 mm 0.00 in0.0 mm 0.00 in0.0 mm
06:13 PM 11.6°F-11.3°C -1.5°F-18.6°C 55% 5.0 mph WNW8.0 kmh WNW 6.0 mph9.7 kmh 30.34 in1027.4 mb 0.00 in0.0 mm 0.00 in0.0 mm 0.00 in0.0 mm
06:14 PM 11.6°F-11.3°C -1.5°F-18.6°C 55% 5.0 mph WNW8.0 kmh WNW 6.0 mph9.7 kmh 30.34 in1027.4 mb 0.00 in0.0 mm 0.00 in0.0 mm 0.00 in0.0 mm
06:15 PM 11.8°F-11.2°C -0.9°F-18.3°C 56% 4.0 mph WNW6.4 kmh WNW 5.0 mph8.0 kmh 30.34 in1027.4 mb 0.00 in0.0 mm 0.00 in0.0 mm 0.00 in0.0 mm
06:16 PM 11.8°F-11.2°C -1.3°F-18.5°C 55% 4.0 mph W6.4 kmh W 5.0 mph8.0 kmh 30.33 in1027.1 mb 0.00 in0.0 mm 0.00 in0.0 mm 0.00 in0.0 mm
06:17 PM 11.8°F-11.2°C -1.3°F-18.5°C 55% 3.0 mph W4.8 kmh W 5.0 mph8.0 kmh 30.33 in1027.1 mb 0.00 in0.0 mm 0.00 in0.0 mm 0.00 in0.0 mm
06:18 PM 11.6°F-11.3°C -1.5°F-18.6°C 55% 4.0 mph NNW6.4 kmh NNW 5.0 mph8.0 kmh 30.33 in1027.1 mb 0.00 in0.0 mm 0.00 in0.0 mm 0.00 in0.0 mm
06:19 PM 11.6°F-11.3°C -1.1°F-18.4°C 56% 5.0 mph NNW8.0 kmh NNW 5.0 mph8.0 kmh 30.33 in1027.1 mb 0.00 in0.0 mm 0.00 in0.0 mm 0.00 in0.0 mm
06:20 PM 11.6°F-11.3°C -1.5°F-18.6°C 55% 5.0 mph WNW8.0 kmh WNW 5.0 mph8.0 kmh 30.33 in1027.1 mb 0.00 in0.0 mm 0.00 in0.0 mm 0.00 in0.0 mm
06:21 PM 11.8°F-11.2°C -0.1°F-17.8°C 58% 5.0 mph NW8.0 kmh NW 5.0 mph8.0 kmh 30.33 in1027.1 mb 0.00 in0.0 mm 0.00 in0.0 mm 0.00 in0.0 mm
06:22 PM 11.8°F-11.2°C 0.2°F-17.7°C 59% 4.0 mph WNW6.4 kmh WNW 5.0 mph8.0 kmh 30.33 in1027.1 mb 0.00 in0.0 mm 0.00 in0.0 mm 0.00 in0.0 mm
06:23 PM 11.8°F-11.2°C -1.3°F-18.5°C 55% 6.0 mph NW9.7 kmh NW 6.0 mph9.7 kmh 30.33 in1027.1 mb 0.00 in0.0 mm 0.00 in0.0 mm 0.00 in0.0 mm
06:24 PM 11.8°F-11.2°C -1.3°F-18.5°C 55% 6.0 mph NW9.7 kmh NW 6.0 mph9.7 kmh 30.33 in1027.1 mb 0.00 in0.0 mm 0.00 in0.0 mm 0.00 in0.0 mm
06:25 PM 11.6°F-11.3°C -2.3°F-19.1°C 53% 5.0 mph NW8.0 kmh NW 6.0 mph9.7 kmh 30.33 in1027.1 mb 0.00 in0.0 mm 0.00 in0.0 mm 0.00 in0.0 mm
06:26 PM 11.6°F-11.3°C -2.3°F-19.1°C 53% 5.0 mph NNW8.0 kmh NNW 6.0 mph9.7 kmh 30.34 in1027.4 mb 0.00 in0.0 mm 0.00 in0.0 mm 0.00 in0.0 mm
06:27 PM 11.6°F-11.3°C -1.9°F-18.8°C 54% 3.0 mph WNW4.8 kmh WNW 6.0 mph9.7 kmh 30.33 in1027.1 mb 0.00 in0.0 mm 0.00 in0.0 mm 0.00 in0.0 mm
06:28 PM 11.4°F-11.4°C -2.5°F-19.2°C 53% 4.0 mph WNW6.4 kmh WNW 6.0 mph9.7 kmh 30.34 in1027.4 mb 0.00 in0.0 mm 0.00 in0.0 mm 0.00 in0.0 mm
06:29 PM 11.4°F-11.4°C -2.1°F-18.9°C 54% 4.0 mph WNW6.4 kmh WNW 6.0 mph9.7 kmh 30.34 in1027.4 mb 0.00 in0.0 mm 0.00 in0.0 mm 0.00 in0.0 mm
06:30 PM 11.4°F-11.4°C -2.1°F-18.9°C 54% 2.0 mph NNW3.2 kmh NNW 6.0 mph9.7 kmh 30.33 in1027.1 mb 0.00 in0.0 mm 0.00 in0.0 mm 0.00 in0.0 mm
06:31 PM 11.4°F-11.4°C -2.1°F-18.9°C 54% 4.0 mph 6.4 kmh 6.0 mph9.7 kmh 30.34 in1027.4 mb 0.00 in0.0 mm 0.00 in0.0 mm 0.00 in0.0 mm
06:32 PM 11.4°F-11.4°C -2.5°F-19.2°C 53% 2.0 mph NNW3.2 kmh NNW 6.0 mph9.7 kmh 30.34 in1027.4 mb 0.00 in0.0 mm 0.00 in0.0 mm 0.00 in0.0 mm
06:33 PM 11.4°F-11.4°C -2.5°F-19.2°C 53% 5.0 mph NNW8.0 kmh NNW 6.0 mph9.7 kmh 30.34 in1027.4 mb 0.00 in0.0 mm 0.00 in0.0 mm 0.00 in0.0 mm
06:34 PM 11.4°F-11.4°C -1.7°F-18.7°C 55% 4.0 mph NNW6.4 kmh NNW 5.0 mph8.0 kmh 30.34 in1027.4 mb 0.00 in0.0 mm 0.00 in0.0 mm 0.00 in0.0 mm
06:35 PM 11.4°F-11.4°C -1.7°F-18.7°C 55% 4.0 mph W6.4 kmh W 5.0 mph8.0 kmh 30.34 in1027.4 mb 0.00 in0.0 mm 0.00 in0.0 mm 0.00 in0.0 mm
06:36 PM 11.2°F-11.6°C -1.8°F-18.8°C 55% 5.0 mph WNW8.0 kmh WNW 5.0 mph8.0 kmh 30.34 in1027.4 mb 0.00 in0.0 mm 0.00 in0.0 mm 0.00 in0.0 mm
06:37 PM 11.2°F-11.6°C -2.6°F-19.2°C 53% 3.0 mph W4.8 kmh W 5.0 mph8.0 kmh 30.34 in1027.4 mb 0.00 in0.0 mm 0.00 in0.0 mm 0.00 in0.0 mm
06:38 PM 11.2°F-11.6°C -1.5°F-18.6°C 56% 4.0 mph NW6.4 kmh NW 5.0 mph8.0 kmh 30.34 in1027.4 mb 0.00 in0.0 mm 0.00 in0.0 mm 0.00 in0.0 mm
06:39 PM 11.2°F-11.6°C -0.7°F-18.2°C 58% 3.0 mph WNW4.8 kmh WNW 5.0 mph8.0 kmh 30.34 in1027.4 mb 0.00 in0.0 mm 0.00 in0.0 mm 0.00 in0.0 mm
06:40 PM 11.2°F-11.6°C -1.8°F-18.8°C 55% 3.0 mph WNW4.8 kmh WNW 5.0 mph8.0 kmh 30.34 in1027.4 mb 0.00 in0.0 mm 0.00 in0.0 mm 0.00 in0.0 mm
06:41 PM 11.2°F-11.6°C -1.8°F-18.8°C 55% 3.0 mph WNW4.8 kmh WNW 5.0 mph8.0 kmh 30.34 in1027.4 mb 0.00 in0.0 mm 0.00 in0.0 mm 0.00 in0.0 mm
06:42 PM 11.2°F-11.6°C -1.8°F-18.8°C 55% 2.0 mph W3.2 kmh W 5.0 mph8.0 kmh 30.34 in1027.4 mb 0.00 in0.0 mm 0.00 in0.0 mm 0.00 in0.0 mm
06:43 PM 11.2°F-11.6°C -1.8°F-18.8°C 55% 4.0 mph WNW6.4 kmh WNW 5.0 mph8.0 kmh 30.34 in1027.4 mb 0.00 in0.0 mm 0.00 in0.0 mm 0.00 in0.0 mm
06:44 PM 11.2°F-11.6°C -0.7°F-18.2°C 58% 4.0 mph W6.4 kmh W 5.0 mph8.0 kmh 30.34 in1027.4 mb 0.00 in0.0 mm 0.00 in0.0 mm 0.00 in0.0 mm
06:45 PM 11.2°F-11.6°C -1.5°F-18.6°C 56% 4.0 mph WNW6.4 kmh WNW 5.0 mph8.0 kmh 30.34 in1027.4 mb 0.00 in0.0 mm 0.00 in0.0 mm 0.00 in0.0 mm
06:46 PM 11.2°F-11.6°C -0.7°F-18.2°C 58% 5.0 mph W8.0 kmh W 5.0 mph8.0 kmh 30.34 in1027.4 mb 0.00 in0.0 mm 0.00 in0.0 mm 0.00 in0.0 mm
06:47 PM 11.2°F-11.6°C -1.5°F-18.6°C 56% 4.0 mph WNW6.4 kmh WNW 5.0 mph8.0 kmh 30.34 in1027.4 mb 0.00 in0.0 mm 0.00 in0.0 mm 0.00 in0.0 mm
06:48 PM 11.2°F-11.6°C -1.8°F-18.8°C 55% 5.0 mph W8.0 kmh W 5.0 mph8.0 kmh 30.34 in1027.4 mb 0.00 in0.0 mm 0.00 in0.0 mm 0.00 in0.0 mm
06:49 PM 11.2°F-11.6°C -1.8°F-18.8°C 55% 3.0 mph NW4.8 kmh NW 5.0 mph8.0 kmh 30.34 in1027.4 mb 0.00 in0.0 mm 0.00 in0.0 mm 0.00 in0.0 mm
06:50 PM 11.2°F-11.6°C -0.7°F-18.2°C 58% 3.0 mph W4.8 kmh W 5.0 mph8.0 kmh 30.34 in1027.4 mb 0.00 in0.0 mm 0.00 in0.0 mm 0.00 in0.0 mm
06:51 PM 11.2°F-11.6°C -1.5°F-18.6°C 56% 3.0 mph W4.8 kmh W 5.0 mph8.0 kmh 30.34 in1027.4 mb 0.00 in0.0 mm 0.00 in0.0 mm 0.00 in0.0 mm
06:52 PM 11.2°F-11.6°C -1.8°F-18.8°C 55% 6.0 mph NW9.7 kmh NW 6.0 mph9.7 kmh 30.34 in1027.4 mb 0.00 in0.0 mm 0.00 in0.0 mm 0.00 in0.0 mm
06:53 PM 11.2°F-11.6°C -0.3°F-17.9°C 59% 5.0 mph WNW8.0 kmh WNW 6.0 mph9.7 kmh 30.34 in1027.4 mb 0.00 in0.0 mm 0.00 in0.0 mm 0.00 in0.0 mm
06:54 PM 11.2°F-11.6°C -1.5°F-18.6°C 56% 3.0 mph W4.8 kmh W 6.0 mph9.7 kmh 30.34 in1027.4 mb 0.00 in0.0 mm 0.00 in0.0 mm 0.00 in0.0 mm
06:55 PM 11.2°F-11.6°C -1.5°F-18.6°C 56% 4.0 mph WNW6.4 kmh WNW 6.0 mph9.7 kmh 30.34 in1027.4 mb 0.00 in0.0 mm 0.00 in0.0 mm 0.00 in0.0 mm
06:56 PM 11.1°F-11.6°C -1.5°F-18.6°C 56% 5.0 mph WNW8.0 kmh WNW 6.0 mph9.7 kmh 30.34 in1027.4 mb 0.00 in0.0 mm 0.00 in0.0 mm 0.00 in0.0 mm
06:57 PM 11.1°F-11.6°C -1.5°F-18.6°C 56% 5.0 mph WNW8.0 kmh WNW 6.0 mph9.7 kmh 30.34 in1027.4 mb 0.00 in0.0 mm 0.00 in0.0 mm 0.00 in0.0 mm
06:58 PM 11.1°F-11.6°C -0.8°F-18.2°C 58% 4.0 mph W6.4 kmh W 6.0 mph9.7 kmh 30.34 in1027.4 mb 0.00 in0.0 mm 0.00 in0.0 mm 0.00 in0.0 mm
06:59 PM 11.1°F-11.6°C -0.4°F-18.0°C 59% 4.0 mph NW6.4 kmh NW 6.0 mph9.7 kmh 30.34 in1027.4 mb 0.00 in0.0 mm 0.00 in0.0 mm 0.00 in0.0 mm
07:00 PM 11.1°F-11.6°C -0.8°F-18.2°C 58% 5.0 mph WNW8.0 kmh WNW 6.0 mph9.7 kmh 30.34 in1027.4 mb 0.00 in0.0 mm 0.00 in0.0 mm 0.00 in0.0 mm
07:01 PM 11.1°F-11.6°C -0.8°F-18.2°C 58% 5.0 mph WNW8.0 kmh WNW 6.0 mph9.7 kmh 30.34 in1027.4 mb 0.00 in0.0 mm 0.00 in0.0 mm 0.00 in0.0 mm
07:02 PM 11.1°F-11.6°C -0.8°F-18.2°C 58% 5.0 mph NW8.0 kmh NW 6.0 mph9.7 kmh 30.34 in1027.4 mb 0.00 in0.0 mm 0.00 in0.0 mm 0.00 in0.0 mm
07:03 PM 11.1°F-11.6°C -1.5°F-18.6°C 56% 6.0 mph NW9.7 kmh NW 6.0 mph9.7 kmh 30.34 in1027.4 mb 0.00 in0.0 mm 0.00 in0.0 mm 0.00 in0.0 mm
07:04 PM 11.2°F-11.6°C 0.4°F-17.6°C 61% 5.0 mph W8.0 kmh W 6.0 mph9.7 kmh 30.34 in1027.4 mb 0.00 in0.0 mm 0.00 in0.0 mm 0.00 in0.0 mm
07:05 PM 11.2°F-11.6°C 0.4°F-17.6°C 61% 4.0 mph W6.4 kmh W 6.0 mph9.7 kmh 30.34 in1027.4 mb 0.00 in0.0 mm 0.00 in0.0 mm 0.00 in0.0 mm
07:06 PM 11.2°F-11.6°C 0.0°F-17.8°C 60% 4.0 mph W6.4 kmh W 6.0 mph9.7 kmh 30.34 in1027.4 mb 0.00 in0.0 mm 0.00 in0.0 mm 0.00 in0.0 mm
07:07 PM 11.2°F-11.6°C 0.0°F-17.8°C 60% 4.0 mph WNW6.4 kmh WNW 6.0 mph9.7 kmh 30.34 in1027.4 mb 0.00 in0.0 mm 0.00 in0.0 mm 0.00 in0.0 mm
07:08 PM 11.2°F-11.6°C 0.0°F-17.8°C 60% 5.0 mph WNW8.0 kmh WNW 6.0 mph9.7 kmh 30.34 in1027.4 mb 0.00 in0.0 mm 0.00 in0.0 mm 0.00 in0.0 mm
07:09 PM 11.1°F-11.6°C -0.4°F-18.0°C 59% 5.0 mph WNW8.0 kmh WNW 6.0 mph9.7 kmh 30.34 in1027.4 mb 0.00 in0.0 mm 0.00 in0.0 mm 0.00 in0.0 mm
07:10 PM 11.1°F-11.6°C -0.8°F-18.2°C 58% 5.0 mph W8.0 kmh W 6.0 mph9.7 kmh 30.34 in1027.4 mb 0.00 in0.0 mm 0.00 in0.0 mm 0.00 in0.0 mm
07:11 PM 11.1°F-11.6°C -1.5°F-18.6°C 56% 5.0 mph WNW8.0 kmh WNW 6.0 mph9.7 kmh 30.34 in1027.4 mb 0.00 in0.0 mm 0.00 in0.0 mm 0.00 in0.0 mm
07:12 PM 11.1°F-11.6°C -0.1°F-17.8°C 60% 6.0 mph WNW9.7 kmh WNW 6.0 mph9.7 kmh 30.34 in1027.4 mb 0.00 in0.0 mm 0.00 in0.0 mm 0.00 in0.0 mm
07:13 PM 11.1°F-11.6°C -0.1°F-17.8°C 60% 6.0 mph WNW9.7 kmh WNW 6.0 mph9.7 kmh 30.34 in1027.4 mb 0.00 in0.0 mm 0.00 in0.0 mm 0.00 in0.0 mm
07:14 PM 11.1°F-11.6°C -0.1°F-17.8°C 60% 4.0 mph WNW6.4 kmh WNW 6.0 mph9.7 kmh 30.34 in1027.4 mb 0.00 in0.0 mm 0.00 in0.0 mm 0.00 in0.0 mm
07:15 PM 11.1°F-11.6°C 0.3°F-17.6°C 61% 5.0 mph WNW8.0 kmh WNW 6.0 mph9.7 kmh 30.34 in1027.4 mb 0.00 in0.0 mm 0.00 in0.0 mm 0.00 in0.0 mm
07:16 PM 11.1°F-11.6°C 0.3°F-17.6°C 61% 6.0 mph WNW9.7 kmh WNW 7.0 mph11.3 kmh 30.34 in1027.4 mb 0.00 in0.0 mm 0.00 in0.0 mm 0.00 in0.0 mm
07:17 PM 11.1°F-11.6°C 0.3°F-17.6°C 61% 7.0 mph WNW11.3 kmh WNW 7.0 mph11.3 kmh 30.34 in1027.4 mb 0.00 in0.0 mm 0.00 in0.0 mm 0.00 in0.0 mm
07:18 PM 11.1°F-11.6°C 1.0°F-17.2°C 63% 6.0 mph WNW9.7 kmh WNW 7.0 mph11.3 kmh 30.34 in1027.4 mb 0.00 in0.0 mm 0.00 in0.0 mm 0.00 in0.0 mm
07:19 PM 11.1°F-11.6°C 0.3°F-17.6°C 61% 4.0 mph WNW6.4 kmh WNW 7.0 mph11.3 kmh 30.35 in1027.8 mb 0.00 in0.0 mm 0.00 in0.0 mm 0.00 in0.0 mm
07:20 PM 11.1°F-11.6°C 0.3°F-17.6°C 61% 5.0 mph WNW8.0 kmh WNW 7.0 mph11.3 kmh 30.35 in1027.8 mb 0.00 in0.0 mm 0.00 in0.0 mm 0.00 in0.0 mm
07:21 PM 11.1°F-11.6°C 0.3°F-17.6°C 61% 5.0 mph W8.0 kmh W 7.0 mph11.3 kmh 30.34 in1027.4 mb 0.00 in0.0 mm 0.00 in0.0 mm 0.00 in0.0 mm
07:22 PM 11.2°F-11.6°C 0.4°F-17.6°C 61% 5.0 mph W8.0 kmh W 7.0 mph11.3 kmh 30.34 in1027.4 mb 0.00 in0.0 mm 0.00 in0.0 mm 0.00 in0.0 mm
07:23 PM 11.2°F-11.6°C 1.1°F-17.2°C 63% 4.0 mph WNW6.4 kmh WNW 7.0 mph11.3 kmh 30.34 in1027.4 mb 0.00 in0.0 mm 0.00 in0.0 mm 0.00 in0.0 mm
07:24 PM 11.2°F-11.6°C 0.4°F-17.6°C 61% 5.0 mph NW8.0 kmh NW 7.0 mph11.3 kmh 30.34 in1027.4 mb 0.00 in0.0 mm 0.00 in0.0 mm 0.00 in0.0 mm
07:25 PM 11.2°F-11.6°C 0.4°F-17.6°C 61% 5.0 mph WNW8.0 kmh WNW 7.0 mph11.3 kmh 30.34 in1027.4 mb 0.00 in0.0 mm 0.00 in0.0 mm 0.00 in0.0 mm
07:26 PM 11.1°F-11.6°C -0.1°F-17.8°C 60% 5.0 mph WNW8.0 kmh WNW 7.0 mph11.3 kmh 30.34 in1027.4 mb 0.00 in0.0 mm 0.00 in0.0 mm 0.00 in0.0 mm
07:27 PM 11.1°F-11.6°C -0.4°F-18.0°C 59% 5.0 mph WNW8.0 kmh WNW 7.0 mph11.3 kmh 30.34 in1027.4 mb 0.00 in0.0 mm 0.00 in0.0 mm 0.00 in0.0 mm
07:28 PM 11.1°F-11.6°C 0.3°F-17.6°C 61% 6.0 mph WNW9.7 kmh WNW 6.0 mph9.7 kmh 30.34 in1027.4 mb 0.00 in0.0 mm 0.00 in0.0 mm 0.00 in0.0 mm
07:29 PM 10.8°F-11.8°C -0.7°F-18.2°C 59% 5.0 mph W8.0 kmh W 6.0 mph9.7 kmh 30.35 in1027.8 mb 0.00 in0.0 mm 0.00 in0.0 mm 0.00 in0.0 mm
07:30 PM 10.8°F-11.8°C -0.7°F-18.2°C 59% 5.0 mph NW8.0 kmh NW 6.0 mph9.7 kmh 30.35 in1027.8 mb 0.00 in0.0 mm 0.00 in0.0 mm 0.00 in0.0 mm
07:31 PM 10.8°F-11.8°C 0.0°F-17.8°C 61% 5.0 mph WNW8.0 kmh WNW 6.0 mph9.7 kmh 30.34 in1027.4 mb 0.00 in0.0 mm 0.00 in0.0 mm 0.00 in0.0 mm
07:32 PM 10.8°F-11.8°C 0.0°F-17.8°C 61% 6.0 mph WNW9.7 kmh WNW 6.0 mph9.7 kmh 30.34 in1027.4 mb 0.00 in0.0 mm 0.00 in0.0 mm 0.00 in0.0 mm
07:33 PM 10.8°F-11.8°C 0.0°F-17.8°C 61% 5.0 mph WNW8.0 kmh WNW 6.0 mph9.7 kmh